<?xml version="1.0" encoding="UTF-8" standalone="no" ?>
<gpx xmlns="http://www.topografix.com/GPX/1/1" xmlns:xsi="http://www.w3.org/2001/XMLSchema-instance" xsi:schemaLocation="http://www.topografix.com/GPX/1/1 http://www.topografix.com/GPX/1/1/gpx.xsd" version="1.1" creator="VisuGPX - https://www.visugpx.com">
  <metadata>
    <name>Col de Marraut par le passage de la Jument</name>
    <desc><![CDATA[Randonnée à ski au col de Marraut  en empruntna tle passage de la Jument.
Superbe itinéraire plus varié que la voie normale avec un panorama extraordinaire
]]></desc>
  </metadata>
  <trk>
    <name><![CDATA[2017-02-21 16:04:42]]></name>
    <trkseg>
      <trkpt lat="42.85969" lon="0.00425">
        <ele>1298.14</ele>
        <time>2017-02-21T07:50:51Z</time>
      </trkpt>
      <trkpt lat="42.85969" lon="0.00426">
        <ele>1298.61</ele>
        <time>2017-02-21T07:51:12Z</time>
      </trkpt>
      <trkpt lat="42.85968" lon="0.00423">
        <ele>1297.97</ele>
        <time>2017-02-21T07:51:33Z</time>
      </trkpt>
      <trkpt lat="42.8597" lon="0.00422">
        <ele>1297.52</ele>
        <time>2017-02-21T07:51:58Z</time>
      </trkpt>
      <trkpt lat="42.85972" lon="0.00425">
        <ele>1297.96</ele>
        <time>2017-02-21T07:52:24Z</time>
      </trkpt>
      <trkpt lat="42.85975" lon="0.00428">
        <ele>1298.45</ele>
        <time>2017-02-21T07:52:51Z</time>
      </trkpt>
      <trkpt lat="42.85975" lon="0.00426">
        <ele>1298.47</ele>
        <time>2017-02-21T07:53:22Z</time>
      </trkpt>
      <trkpt lat="42.85975" lon="0.00438">
        <ele>1298.77</ele>
        <time>2017-02-21T07:53:42Z</time>
      </trkpt>
      <trkpt lat="42.85974" lon="0.00438">
        <ele>1298.76</ele>
        <time>2017-02-21T07:54:01Z</time>
      </trkpt>
      <trkpt lat="42.85973" lon="0.00438">
        <ele>1298.62</ele>
        <time>2017-02-21T07:54:28Z</time>
      </trkpt>
      <trkpt lat="42.85972" lon="0.0044">
        <ele>1298.44</ele>
        <time>2017-02-21T07:54:55Z</time>
      </trkpt>
      <trkpt lat="42.85972" lon="0.00438">
        <ele>1298.96</ele>
        <time>2017-02-21T07:55:16Z</time>
      </trkpt>
      <trkpt lat="42.85972" lon="0.00437">
        <ele>1298.64</ele>
        <time>2017-02-21T07:55:51Z</time>
      </trkpt>
      <trkpt lat="42.85972" lon="0.00435">
        <ele>1298.24</ele>
        <time>2017-02-21T07:56:31Z</time>
      </trkpt>
      <trkpt lat="42.85972" lon="0.00436">
        <ele>1298.22</ele>
        <time>2017-02-21T07:57:11Z</time>
      </trkpt>
      <trkpt lat="42.85972" lon="0.00438">
        <ele>1297.89</ele>
        <time>2017-02-21T07:57:55Z</time>
      </trkpt>
      <trkpt lat="42.85972" lon="0.00439">
        <ele>1298.13</ele>
        <time>2017-02-21T07:59:04Z</time>
      </trkpt>
      <trkpt lat="42.85974" lon="0.00444">
        <ele>1297.4</ele>
        <time>2017-02-21T07:59:40Z</time>
      </trkpt>
      <trkpt lat="42.85977" lon="0.0046">
        <ele>1298.61</ele>
        <time>2017-02-21T08:00:02Z</time>
      </trkpt>
      <trkpt lat="42.85978" lon="0.00478">
        <ele>1300.03</ele>
        <time>2017-02-21T08:00:23Z</time>
      </trkpt>
      <trkpt lat="42.85979" lon="0.00502">
        <ele>1301.91</ele>
        <time>2017-02-21T08:00:45Z</time>
      </trkpt>
      <trkpt lat="42.85979" lon="0.00525">
        <ele>1304.65</ele>
        <time>2017-02-21T08:01:08Z</time>
      </trkpt>
      <trkpt lat="42.85978" lon="0.00548">
        <ele>1306.03</ele>
        <time>2017-02-21T08:01:29Z</time>
      </trkpt>
      <trkpt lat="42.85976" lon="0.00567">
        <ele>1307.8</ele>
        <time>2017-02-21T08:01:48Z</time>
      </trkpt>
      <trkpt lat="42.85977" lon="0.00588">
        <ele>1309.37</ele>
        <time>2017-02-21T08:02:06Z</time>
      </trkpt>
      <trkpt lat="42.85982" lon="0.00612">
        <ele>1310.94</ele>
        <time>2017-02-21T08:02:27Z</time>
      </trkpt>
      <trkpt lat="42.85987" lon="0.00634">
        <ele>1313.16</ele>
        <time>2017-02-21T08:02:48Z</time>
      </trkpt>
      <trkpt lat="42.85987" lon="0.00653">
        <ele>1314.48</ele>
        <time>2017-02-21T08:03:04Z</time>
      </trkpt>
      <trkpt lat="42.85983" lon="0.00672">
        <ele>1317.02</ele>
        <time>2017-02-21T08:03:23Z</time>
      </trkpt>
      <trkpt lat="42.85975" lon="0.00686">
        <ele>1318.64</ele>
        <time>2017-02-21T08:03:39Z</time>
      </trkpt>
      <trkpt lat="42.85964" lon="0.00702">
        <ele>1320.65</ele>
        <time>2017-02-21T08:03:58Z</time>
      </trkpt>
      <trkpt lat="42.85949" lon="0.00717">
        <ele>1322.14</ele>
        <time>2017-02-21T08:04:20Z</time>
      </trkpt>
      <trkpt lat="42.8594" lon="0.00734">
        <ele>1322.67</ele>
        <time>2017-02-21T08:04:36Z</time>
      </trkpt>
      <trkpt lat="42.85932" lon="0.0075">
        <ele>1322.74</ele>
        <time>2017-02-21T08:04:54Z</time>
      </trkpt>
      <trkpt lat="42.85924" lon="0.00774">
        <ele>1322.89</ele>
        <time>2017-02-21T08:05:13Z</time>
      </trkpt>
      <trkpt lat="42.8592" lon="0.0079">
        <ele>1323.04</ele>
        <time>2017-02-21T08:05:27Z</time>
      </trkpt>
      <trkpt lat="42.85918" lon="0.00796">
        <ele>1322.86</ele>
        <time>2017-02-21T08:05:47Z</time>
      </trkpt>
      <trkpt lat="42.85918" lon="0.00801">
        <ele>1323.13</ele>
        <time>2017-02-21T08:06:12Z</time>
      </trkpt>
      <trkpt lat="42.85916" lon="0.00803">
        <ele>1322.64</ele>
        <time>2017-02-21T08:06:41Z</time>
      </trkpt>
      <trkpt lat="42.85914" lon="0.00804">
        <ele>1322.56</ele>
        <time>2017-02-21T08:07:14Z</time>
      </trkpt>
      <trkpt lat="42.85914" lon="0.00803">
        <ele>1322.88</ele>
        <time>2017-02-21T08:07:39Z</time>
      </trkpt>
      <trkpt lat="42.8591" lon="0.00802">
        <ele>1322.95</ele>
        <time>2017-02-21T08:08:04Z</time>
      </trkpt>
      <trkpt lat="42.85909" lon="0.00802">
        <ele>1322.67</ele>
        <time>2017-02-21T08:08:09Z</time>
      </trkpt>
      <trkpt lat="42.85905" lon="0.00801">
        <ele>1323.08</ele>
        <time>2017-02-21T08:08:35Z</time>
      </trkpt>
      <trkpt lat="42.85909" lon="0.008">
        <ele>1322.92</ele>
        <time>2017-02-21T08:09:02Z</time>
      </trkpt>
      <trkpt lat="42.85909" lon="0.008">
        <ele>1322.9</ele>
        <time>2017-02-21T08:09:03Z</time>
      </trkpt>
      <trkpt lat="42.85912" lon="0.00805">
        <ele>1323.4</ele>
        <time>2017-02-21T08:09:30Z</time>
      </trkpt>
      <trkpt lat="42.85913" lon="0.0081">
        <ele>1323.07</ele>
        <time>2017-02-21T08:09:50Z</time>
      </trkpt>
      <trkpt lat="42.85914" lon="0.00807">
        <ele>1323</ele>
        <time>2017-02-21T08:10:17Z</time>
      </trkpt>
      <trkpt lat="42.85911" lon="0.00808">
        <ele>1322.41</ele>
        <time>2017-02-21T08:10:43Z</time>
      </trkpt>
      <trkpt lat="42.85903" lon="0.00824">
        <ele>1322.52</ele>
        <time>2017-02-21T08:10:57Z</time>
      </trkpt>
      <trkpt lat="42.85902" lon="0.00837">
        <ele>1322.06</ele>
        <time>2017-02-21T08:11:18Z</time>
      </trkpt>
      <trkpt lat="42.859" lon="0.00836">
        <ele>1321.84</ele>
        <time>2017-02-21T08:11:32Z</time>
      </trkpt>
      <trkpt lat="42.85896" lon="0.0085">
        <ele>1321.72</ele>
        <time>2017-02-21T08:11:50Z</time>
      </trkpt>
      <trkpt lat="42.85886" lon="0.00872">
        <ele>1321.66</ele>
        <time>2017-02-21T08:12:09Z</time>
      </trkpt>
      <trkpt lat="42.85869" lon="0.00896">
        <ele>1321.98</ele>
        <time>2017-02-21T08:12:31Z</time>
      </trkpt>
      <trkpt lat="42.85851" lon="0.00916">
        <ele>1321.96</ele>
        <time>2017-02-21T08:12:50Z</time>
      </trkpt>
      <trkpt lat="42.8584" lon="0.00933">
        <ele>1321.97</ele>
        <time>2017-02-21T08:13:03Z</time>
      </trkpt>
      <trkpt lat="42.85821" lon="0.00951">
        <ele>1322.81</ele>
        <time>2017-02-21T08:13:19Z</time>
      </trkpt>
      <trkpt lat="42.85814" lon="0.00956">
        <ele>1323.71</ele>
        <time>2017-02-21T08:13:24Z</time>
      </trkpt>
      <trkpt lat="42.85808" lon="0.00966">
        <ele>1324.79</ele>
        <time>2017-02-21T08:13:31Z</time>
      </trkpt>
      <trkpt lat="42.85798" lon="0.00986">
        <ele>1326.69</ele>
        <time>2017-02-21T08:13:47Z</time>
      </trkpt>
      <trkpt lat="42.85788" lon="0.01003">
        <ele>1328.39</ele>
        <time>2017-02-21T08:14:04Z</time>
      </trkpt>
      <trkpt lat="42.85783" lon="0.01009">
        <ele>1328.82</ele>
        <time>2017-02-21T08:14:10Z</time>
      </trkpt>
      <trkpt lat="42.85784" lon="0.01016">
        <ele>1329.4</ele>
        <time>2017-02-21T08:14:27Z</time>
      </trkpt>
      <trkpt lat="42.85789" lon="0.01018">
        <ele>1329.78</ele>
        <time>2017-02-21T08:14:59Z</time>
      </trkpt>
      <trkpt lat="42.85785" lon="0.01023">
        <ele>1329.6</ele>
        <time>2017-02-21T08:15:23Z</time>
      </trkpt>
      <trkpt lat="42.85785" lon="0.01021">
        <ele>1329.16</ele>
        <time>2017-02-21T08:15:40Z</time>
      </trkpt>
      <trkpt lat="42.85788" lon="0.01021">
        <ele>1328.8</ele>
        <time>2017-02-21T08:16:00Z</time>
      </trkpt>
      <trkpt lat="42.85787" lon="0.0102">
        <ele>1328.97</ele>
        <time>2017-02-21T08:16:24Z</time>
      </trkpt>
      <trkpt lat="42.85786" lon="0.01019">
        <ele>1328.84</ele>
        <time>2017-02-21T08:16:43Z</time>
      </trkpt>
      <trkpt lat="42.85785" lon="0.01021">
        <ele>1328.75</ele>
        <time>2017-02-21T08:17:02Z</time>
      </trkpt>
      <trkpt lat="42.85773" lon="0.01033">
        <ele>1329.89</ele>
        <time>2017-02-21T08:17:20Z</time>
      </trkpt>
      <trkpt lat="42.85772" lon="0.01037">
        <ele>1330.26</ele>
        <time>2017-02-21T08:17:25Z</time>
      </trkpt>
      <trkpt lat="42.85761" lon="0.01052">
        <ele>1331.2</ele>
        <time>2017-02-21T08:17:42Z</time>
      </trkpt>
      <trkpt lat="42.8575" lon="0.01063">
        <ele>1332.71</ele>
        <time>2017-02-21T08:17:57Z</time>
      </trkpt>
      <trkpt lat="42.85747" lon="0.01066">
        <ele>1333.06</ele>
        <time>2017-02-21T08:18:12Z</time>
      </trkpt>
      <trkpt lat="42.85739" lon="0.01067">
        <ele>1333.56</ele>
        <time>2017-02-21T08:18:33Z</time>
      </trkpt>
      <trkpt lat="42.85732" lon="0.01068">
        <ele>1334.23</ele>
        <time>2017-02-21T08:18:39Z</time>
      </trkpt>
      <trkpt lat="42.8572" lon="0.01071">
        <ele>1335.16</ele>
        <time>2017-02-21T08:18:58Z</time>
      </trkpt>
      <trkpt lat="42.85721" lon="0.01074">
        <ele>1335.11</ele>
        <time>2017-02-21T08:19:30Z</time>
      </trkpt>
      <trkpt lat="42.8572" lon="0.01077">
        <ele>1335.07</ele>
        <time>2017-02-21T08:19:57Z</time>
      </trkpt>
      <trkpt lat="42.85721" lon="0.01077">
        <ele>1335</ele>
        <time>2017-02-21T08:20:40Z</time>
      </trkpt>
      <trkpt lat="42.85715" lon="0.0108">
        <ele>1335.04</ele>
        <time>2017-02-21T08:21:07Z</time>
      </trkpt>
      <trkpt lat="42.85698" lon="0.01087">
        <ele>1336.9</ele>
        <time>2017-02-21T08:21:29Z</time>
      </trkpt>
      <trkpt lat="42.85687" lon="0.01095">
        <ele>1338.67</ele>
        <time>2017-02-21T08:21:44Z</time>
      </trkpt>
      <trkpt lat="42.85677" lon="0.01104">
        <ele>1339.42</ele>
        <time>2017-02-21T08:21:57Z</time>
      </trkpt>
      <trkpt lat="42.85667" lon="0.01115">
        <ele>1340.5</ele>
        <time>2017-02-21T08:22:12Z</time>
      </trkpt>
      <trkpt lat="42.85655" lon="0.01133">
        <ele>1342.15</ele>
        <time>2017-02-21T08:22:33Z</time>
      </trkpt>
      <trkpt lat="42.85652" lon="0.01141">
        <ele>1342.77</ele>
        <time>2017-02-21T08:22:41Z</time>
      </trkpt>
      <trkpt lat="42.85645" lon="0.01158">
        <ele>1344.3</ele>
        <time>2017-02-21T08:22:57Z</time>
      </trkpt>
      <trkpt lat="42.85637" lon="0.01175">
        <ele>1345.65</ele>
        <time>2017-02-21T08:23:15Z</time>
      </trkpt>
      <trkpt lat="42.85628" lon="0.01194">
        <ele>1347.44</ele>
        <time>2017-02-21T08:23:35Z</time>
      </trkpt>
      <trkpt lat="42.85622" lon="0.01214">
        <ele>1349.37</ele>
        <time>2017-02-21T08:23:54Z</time>
      </trkpt>
      <trkpt lat="42.85615" lon="0.01232">
        <ele>1350.81</ele>
        <time>2017-02-21T08:24:10Z</time>
      </trkpt>
      <trkpt lat="42.85608" lon="0.0126">
        <ele>1352.93</ele>
        <time>2017-02-21T08:24:34Z</time>
      </trkpt>
      <trkpt lat="42.85603" lon="0.0128">
        <ele>1354.18</ele>
        <time>2017-02-21T08:24:51Z</time>
      </trkpt>
      <trkpt lat="42.85598" lon="0.01297">
        <ele>1355.19</ele>
        <time>2017-02-21T08:25:06Z</time>
      </trkpt>
      <trkpt lat="42.85594" lon="0.01315">
        <ele>1356.3</ele>
        <time>2017-02-21T08:25:21Z</time>
      </trkpt>
      <trkpt lat="42.85595" lon="0.01329">
        <ele>1357.02</ele>
        <time>2017-02-21T08:25:38Z</time>
      </trkpt>
      <trkpt lat="42.85594" lon="0.0135">
        <ele>1358.59</ele>
        <time>2017-02-21T08:25:58Z</time>
      </trkpt>
      <trkpt lat="42.85593" lon="0.01355">
        <ele>1359.1</ele>
        <time>2017-02-21T08:26:02Z</time>
      </trkpt>
      <trkpt lat="42.85588" lon="0.01375">
        <ele>1360.41</ele>
        <time>2017-02-21T08:26:19Z</time>
      </trkpt>
      <trkpt lat="42.85582" lon="0.01391">
        <ele>1361.78</ele>
        <time>2017-02-21T08:26:33Z</time>
      </trkpt>
      <trkpt lat="42.85575" lon="0.01406">
        <ele>1363.27</ele>
        <time>2017-02-21T08:26:48Z</time>
      </trkpt>
      <trkpt lat="42.85567" lon="0.01421">
        <ele>1365.13</ele>
        <time>2017-02-21T08:27:03Z</time>
      </trkpt>
      <trkpt lat="42.85556" lon="0.0143">
        <ele>1366.82</ele>
        <time>2017-02-21T08:27:19Z</time>
      </trkpt>
      <trkpt lat="42.8555" lon="0.01431">
        <ele>1367.35</ele>
        <time>2017-02-21T08:27:40Z</time>
      </trkpt>
      <trkpt lat="42.85549" lon="0.01432">
        <ele>1367.35</ele>
        <time>2017-02-21T08:27:41Z</time>
      </trkpt>
      <trkpt lat="42.85545" lon="0.01432">
        <ele>1367.56</ele>
        <time>2017-02-21T08:27:45Z</time>
      </trkpt>
      <trkpt lat="42.85528" lon="0.01436">
        <ele>1369.31</ele>
        <time>2017-02-21T08:28:00Z</time>
      </trkpt>
      <trkpt lat="42.85524" lon="0.01432">
        <ele>1370.11</ele>
        <time>2017-02-21T08:28:22Z</time>
      </trkpt>
      <trkpt lat="42.85518" lon="0.01434">
        <ele>1370.66</ele>
        <time>2017-02-21T08:28:30Z</time>
      </trkpt>
      <trkpt lat="42.85505" lon="0.01439">
        <ele>1372.08</ele>
        <time>2017-02-21T08:28:44Z</time>
      </trkpt>
      <trkpt lat="42.85498" lon="0.01444">
        <ele>1372.79</ele>
        <time>2017-02-21T08:28:52Z</time>
      </trkpt>
      <trkpt lat="42.85495" lon="0.01448">
        <ele>1373.11</ele>
        <time>2017-02-21T08:28:57Z</time>
      </trkpt>
      <trkpt lat="42.8549" lon="0.01462">
        <ele>1374.19</ele>
        <time>2017-02-21T08:29:10Z</time>
      </trkpt>
      <trkpt lat="42.85484" lon="0.01479">
        <ele>1376.01</ele>
        <time>2017-02-21T08:29:26Z</time>
      </trkpt>
      <trkpt lat="42.85479" lon="0.01496">
        <ele>1377.5</ele>
        <time>2017-02-21T08:29:41Z</time>
      </trkpt>
      <trkpt lat="42.85476" lon="0.01501">
        <ele>1378.32</ele>
        <time>2017-02-21T08:29:48Z</time>
      </trkpt>
      <trkpt lat="42.85467" lon="0.01514">
        <ele>1379.57</ele>
        <time>2017-02-21T08:30:04Z</time>
      </trkpt>
      <trkpt lat="42.85463" lon="0.01535">
        <ele>1381.39</ele>
        <time>2017-02-21T08:30:21Z</time>
      </trkpt>
      <trkpt lat="42.8546" lon="0.01553">
        <ele>1383.07</ele>
        <time>2017-02-21T08:30:37Z</time>
      </trkpt>
      <trkpt lat="42.8546" lon="0.01572">
        <ele>1385.17</ele>
        <time>2017-02-21T08:30:54Z</time>
      </trkpt>
      <trkpt lat="42.8546" lon="0.01575">
        <ele>1385.36</ele>
        <time>2017-02-21T08:30:56Z</time>
      </trkpt>
      <trkpt lat="42.85459" lon="0.01591">
        <ele>1386.59</ele>
        <time>2017-02-21T08:31:11Z</time>
      </trkpt>
      <trkpt lat="42.85457" lon="0.01614">
        <ele>1388.08</ele>
        <time>2017-02-21T08:31:31Z</time>
      </trkpt>
      <trkpt lat="42.85458" lon="0.01631">
        <ele>1389.69</ele>
        <time>2017-02-21T08:31:46Z</time>
      </trkpt>
      <trkpt lat="42.85461" lon="0.01653">
        <ele>1391.45</ele>
        <time>2017-02-21T08:32:07Z</time>
      </trkpt>
      <trkpt lat="42.85463" lon="0.01671">
        <ele>1392.95</ele>
        <time>2017-02-21T08:32:21Z</time>
      </trkpt>
      <trkpt lat="42.85465" lon="0.01673">
        <ele>1393.13</ele>
        <time>2017-02-21T08:32:23Z</time>
      </trkpt>
      <trkpt lat="42.85471" lon="0.01689">
        <ele>1394.08</ele>
        <time>2017-02-21T08:32:35Z</time>
      </trkpt>
      <trkpt lat="42.8547" lon="0.01699">
        <ele>1395.06</ele>
        <time>2017-02-21T08:32:43Z</time>
      </trkpt>
      <trkpt lat="42.85468" lon="0.01715">
        <ele>1396.38</ele>
        <time>2017-02-21T08:32:59Z</time>
      </trkpt>
      <trkpt lat="42.85468" lon="0.01731">
        <ele>1397.61</ele>
        <time>2017-02-21T08:33:12Z</time>
      </trkpt>
      <trkpt lat="42.85472" lon="0.01746">
        <ele>1398.36</ele>
        <time>2017-02-21T08:33:23Z</time>
      </trkpt>
      <trkpt lat="42.8547" lon="0.0176">
        <ele>1398.67</ele>
        <time>2017-02-21T08:33:35Z</time>
      </trkpt>
      <trkpt lat="42.85464" lon="0.01765">
        <ele>1399.46</ele>
        <time>2017-02-21T08:33:53Z</time>
      </trkpt>
      <trkpt lat="42.85459" lon="0.01772">
        <ele>1400.87</ele>
        <time>2017-02-21T08:34:13Z</time>
      </trkpt>
      <trkpt lat="42.85455" lon="0.01776">
        <ele>1401.07</ele>
        <time>2017-02-21T08:34:26Z</time>
      </trkpt>
      <trkpt lat="42.85441" lon="0.01792">
        <ele>1402.2</ele>
        <time>2017-02-21T08:34:39Z</time>
      </trkpt>
      <trkpt lat="42.85431" lon="0.01801">
        <ele>1402</ele>
        <time>2017-02-21T08:34:48Z</time>
      </trkpt>
      <trkpt lat="42.8542" lon="0.0182">
        <ele>1400.69</ele>
        <time>2017-02-21T08:35:00Z</time>
      </trkpt>
      <trkpt lat="42.85417" lon="0.01828">
        <ele>1400.15</ele>
        <time>2017-02-21T08:35:04Z</time>
      </trkpt>
      <trkpt lat="42.85405" lon="0.01849">
        <ele>1398.65</ele>
        <time>2017-02-21T08:35:18Z</time>
      </trkpt>
      <trkpt lat="42.85392" lon="0.01864">
        <ele>1399.83</ele>
        <time>2017-02-21T08:35:32Z</time>
      </trkpt>
      <trkpt lat="42.85382" lon="0.01882">
        <ele>1401.61</ele>
        <time>2017-02-21T08:35:45Z</time>
      </trkpt>
      <trkpt lat="42.8537" lon="0.01893">
        <ele>1403.52</ele>
        <time>2017-02-21T08:35:58Z</time>
      </trkpt>
      <trkpt lat="42.85359" lon="0.01908">
        <ele>1405.13</ele>
        <time>2017-02-21T08:36:11Z</time>
      </trkpt>
      <trkpt lat="42.8535" lon="0.01917">
        <ele>1406.55</ele>
        <time>2017-02-21T08:36:20Z</time>
      </trkpt>
      <trkpt lat="42.85336" lon="0.01926">
        <ele>1408.19</ele>
        <time>2017-02-21T08:36:35Z</time>
      </trkpt>
      <trkpt lat="42.85335" lon="0.01927">
        <ele>1408.25</ele>
        <time>2017-02-21T08:36:36Z</time>
      </trkpt>
      <trkpt lat="42.85324" lon="0.01939">
        <ele>1409.19</ele>
        <time>2017-02-21T08:36:49Z</time>
      </trkpt>
      <trkpt lat="42.85321" lon="0.01951">
        <ele>1409.48</ele>
        <time>2017-02-21T08:37:01Z</time>
      </trkpt>
      <trkpt lat="42.85319" lon="0.01954">
        <ele>1409.81</ele>
        <time>2017-02-21T08:37:16Z</time>
      </trkpt>
      <trkpt lat="42.85315" lon="0.01956">
        <ele>1409.86</ele>
        <time>2017-02-21T08:37:33Z</time>
      </trkpt>
      <trkpt lat="42.85315" lon="0.01957">
        <ele>1409.78</ele>
        <time>2017-02-21T08:37:35Z</time>
      </trkpt>
      <trkpt lat="42.85318" lon="0.01956">
        <ele>1409.55</ele>
        <time>2017-02-21T08:37:52Z</time>
      </trkpt>
      <trkpt lat="42.85317" lon="0.01956">
        <ele>1409.5</ele>
        <time>2017-02-21T08:38:17Z</time>
      </trkpt>
      <trkpt lat="42.85314" lon="0.01956">
        <ele>1409.65</ele>
        <time>2017-02-21T08:38:40Z</time>
      </trkpt>
      <trkpt lat="42.85314" lon="0.01954">
        <ele>1409.94</ele>
        <time>2017-02-21T08:39:01Z</time>
      </trkpt>
      <trkpt lat="42.85317" lon="0.01954">
        <ele>1409.97</ele>
        <time>2017-02-21T08:39:17Z</time>
      </trkpt>
      <trkpt lat="42.85318" lon="0.01955">
        <ele>1410.34</ele>
        <time>2017-02-21T08:39:39Z</time>
      </trkpt>
      <trkpt lat="42.85319" lon="0.01957">
        <ele>1410.17</ele>
        <time>2017-02-21T08:40:04Z</time>
      </trkpt>
      <trkpt lat="42.8532" lon="0.01956">
        <ele>1410.13</ele>
        <time>2017-02-21T08:40:27Z</time>
      </trkpt>
      <trkpt lat="42.85319" lon="0.01956">
        <ele>1409.73</ele>
        <time>2017-02-21T08:40:46Z</time>
      </trkpt>
      <trkpt lat="42.85319" lon="0.01956">
        <ele>1409.65</ele>
        <time>2017-02-21T08:41:07Z</time>
      </trkpt>
      <trkpt lat="42.8532" lon="0.01953">
        <ele>1409.69</ele>
        <time>2017-02-21T08:41:27Z</time>
      </trkpt>
      <trkpt lat="42.85315" lon="0.0196">
        <ele>1409.55</ele>
        <time>2017-02-21T08:41:45Z</time>
      </trkpt>
      <trkpt lat="42.85314" lon="0.01964">
        <ele>1409.47</ele>
        <time>2017-02-21T08:41:47Z</time>
      </trkpt>
      <trkpt lat="42.85312" lon="0.01967">
        <ele>1409.41</ele>
        <time>2017-02-21T08:41:50Z</time>
      </trkpt>
      <trkpt lat="42.85305" lon="0.01984">
        <ele>1409.25</ele>
        <time>2017-02-21T08:42:04Z</time>
      </trkpt>
      <trkpt lat="42.85301" lon="0.01997">
        <ele>1409.7</ele>
        <time>2017-02-21T08:42:17Z</time>
      </trkpt>
      <trkpt lat="42.85298" lon="0.02009">
        <ele>1411.37</ele>
        <time>2017-02-21T08:42:32Z</time>
      </trkpt>
      <trkpt lat="42.8529" lon="0.02027">
        <ele>1414.06</ele>
        <time>2017-02-21T08:42:52Z</time>
      </trkpt>
      <trkpt lat="42.85289" lon="0.02031">
        <ele>1414.69</ele>
        <time>2017-02-21T08:42:56Z</time>
      </trkpt>
      <trkpt lat="42.85284" lon="0.02044">
        <ele>1416.43</ele>
        <time>2017-02-21T08:43:09Z</time>
      </trkpt>
      <trkpt lat="42.85273" lon="0.02053">
        <ele>1419.17</ele>
        <time>2017-02-21T08:43:27Z</time>
      </trkpt>
      <trkpt lat="42.85264" lon="0.02047">
        <ele>1422.2</ele>
        <time>2017-02-21T08:43:43Z</time>
      </trkpt>
      <trkpt lat="42.85262" lon="0.02053">
        <ele>1425.28</ele>
        <time>2017-02-21T08:43:57Z</time>
      </trkpt>
      <trkpt lat="42.85258" lon="0.0207">
        <ele>1426.72</ele>
        <time>2017-02-21T08:44:12Z</time>
      </trkpt>
      <trkpt lat="42.85254" lon="0.02084">
        <ele>1427.65</ele>
        <time>2017-02-21T08:44:26Z</time>
      </trkpt>
      <trkpt lat="42.8525" lon="0.02094">
        <ele>1428.09</ele>
        <time>2017-02-21T08:44:35Z</time>
      </trkpt>
      <trkpt lat="42.85247" lon="0.021">
        <ele>1428.39</ele>
        <time>2017-02-21T08:44:41Z</time>
      </trkpt>
      <trkpt lat="42.85245" lon="0.02105">
        <ele>1428.55</ele>
        <time>2017-02-21T08:44:46Z</time>
      </trkpt>
      <trkpt lat="42.85242" lon="0.0211">
        <ele>1429.15</ele>
        <time>2017-02-21T08:44:54Z</time>
      </trkpt>
      <trkpt lat="42.85234" lon="0.02121">
        <ele>1430.59</ele>
        <time>2017-02-21T08:45:08Z</time>
      </trkpt>
      <trkpt lat="42.85227" lon="0.02133">
        <ele>1431.99</ele>
        <time>2017-02-21T08:45:24Z</time>
      </trkpt>
      <trkpt lat="42.85224" lon="0.02139">
        <ele>1432.87</ele>
        <time>2017-02-21T08:45:30Z</time>
      </trkpt>
      <trkpt lat="42.85218" lon="0.02153">
        <ele>1434.81</ele>
        <time>2017-02-21T08:45:44Z</time>
      </trkpt>
      <trkpt lat="42.85214" lon="0.02163">
        <ele>1435.51</ele>
        <time>2017-02-21T08:45:53Z</time>
      </trkpt>
      <trkpt lat="42.8521" lon="0.02169">
        <ele>1435.98</ele>
        <time>2017-02-21T08:46:00Z</time>
      </trkpt>
      <trkpt lat="42.85206" lon="0.02176">
        <ele>1436.46</ele>
        <time>2017-02-21T08:46:08Z</time>
      </trkpt>
      <trkpt lat="42.85201" lon="0.0219">
        <ele>1438.01</ele>
        <time>2017-02-21T08:46:23Z</time>
      </trkpt>
      <trkpt lat="42.85194" lon="0.02193">
        <ele>1439.52</ele>
        <time>2017-02-21T08:46:33Z</time>
      </trkpt>
      <trkpt lat="42.85186" lon="0.02207">
        <ele>1441.53</ele>
        <time>2017-02-21T08:46:51Z</time>
      </trkpt>
      <trkpt lat="42.85179" lon="0.02215">
        <ele>1443.01</ele>
        <time>2017-02-21T08:47:04Z</time>
      </trkpt>
      <trkpt lat="42.8517" lon="0.02219">
        <ele>1444.15</ele>
        <time>2017-02-21T08:47:18Z</time>
      </trkpt>
      <trkpt lat="42.85163" lon="0.02223">
        <ele>1445.63</ele>
        <time>2017-02-21T08:47:28Z</time>
      </trkpt>
      <trkpt lat="42.85161" lon="0.02239">
        <ele>1446.95</ele>
        <time>2017-02-21T08:47:43Z</time>
      </trkpt>
      <trkpt lat="42.85162" lon="0.02254">
        <ele>1448.86</ele>
        <time>2017-02-21T08:48:00Z</time>
      </trkpt>
      <trkpt lat="42.85159" lon="0.02266">
        <ele>1451.03</ele>
        <time>2017-02-21T08:48:14Z</time>
      </trkpt>
      <trkpt lat="42.85155" lon="0.02282">
        <ele>1453.31</ele>
        <time>2017-02-21T08:48:28Z</time>
      </trkpt>
      <trkpt lat="42.8515" lon="0.02296">
        <ele>1456.36</ele>
        <time>2017-02-21T08:48:45Z</time>
      </trkpt>
      <trkpt lat="42.85148" lon="0.02304">
        <ele>1457.67</ele>
        <time>2017-02-21T08:48:52Z</time>
      </trkpt>
      <trkpt lat="42.85144" lon="0.02317">
        <ele>1458.71</ele>
        <time>2017-02-21T08:49:07Z</time>
      </trkpt>
      <trkpt lat="42.85139" lon="0.02331">
        <ele>1460.78</ele>
        <time>2017-02-21T08:49:23Z</time>
      </trkpt>
      <trkpt lat="42.85133" lon="0.02347">
        <ele>1463.35</ele>
        <time>2017-02-21T08:49:43Z</time>
      </trkpt>
      <trkpt lat="42.85127" lon="0.02357">
        <ele>1466.41</ele>
        <time>2017-02-21T08:50:01Z</time>
      </trkpt>
      <trkpt lat="42.8512" lon="0.0237">
        <ele>1468.76</ele>
        <time>2017-02-21T08:50:18Z</time>
      </trkpt>
      <trkpt lat="42.85113" lon="0.02379">
        <ele>1471.21</ele>
        <time>2017-02-21T08:50:34Z</time>
      </trkpt>
      <trkpt lat="42.85107" lon="0.0239">
        <ele>1473.54</ele>
        <time>2017-02-21T08:50:48Z</time>
      </trkpt>
      <trkpt lat="42.85102" lon="0.02404">
        <ele>1475.99</ele>
        <time>2017-02-21T08:51:03Z</time>
      </trkpt>
      <trkpt lat="42.85097" lon="0.02419">
        <ele>1478.44</ele>
        <time>2017-02-21T08:51:17Z</time>
      </trkpt>
      <trkpt lat="42.85091" lon="0.02429">
        <ele>1479.89</ele>
        <time>2017-02-21T08:51:28Z</time>
      </trkpt>
      <trkpt lat="42.85083" lon="0.02439">
        <ele>1481.62</ele>
        <time>2017-02-21T08:51:42Z</time>
      </trkpt>
      <trkpt lat="42.85075" lon="0.0245">
        <ele>1483.54</ele>
        <time>2017-02-21T08:51:57Z</time>
      </trkpt>
      <trkpt lat="42.85069" lon="0.02466">
        <ele>1485.23</ele>
        <time>2017-02-21T08:52:14Z</time>
      </trkpt>
      <trkpt lat="42.85069" lon="0.0248">
        <ele>1487.18</ele>
        <time>2017-02-21T08:52:30Z</time>
      </trkpt>
      <trkpt lat="42.85062" lon="0.02491">
        <ele>1489.56</ele>
        <time>2017-02-21T08:52:45Z</time>
      </trkpt>
      <trkpt lat="42.85063" lon="0.02495">
        <ele>1489.83</ele>
        <time>2017-02-21T08:52:48Z</time>
      </trkpt>
      <trkpt lat="42.85065" lon="0.02512">
        <ele>1491.28</ele>
        <time>2017-02-21T08:53:02Z</time>
      </trkpt>
      <trkpt lat="42.8506" lon="0.02524">
        <ele>1493.03</ele>
        <time>2017-02-21T08:53:16Z</time>
      </trkpt>
      <trkpt lat="42.85052" lon="0.02525">
        <ele>1495.72</ele>
        <time>2017-02-21T08:53:33Z</time>
      </trkpt>
      <trkpt lat="42.85043" lon="0.0253">
        <ele>1498.88</ele>
        <time>2017-02-21T08:53:49Z</time>
      </trkpt>
      <trkpt lat="42.85043" lon="0.02524">
        <ele>1501.94</ele>
        <time>2017-02-21T08:54:04Z</time>
      </trkpt>
      <trkpt lat="42.85035" lon="0.02522">
        <ele>1505</ele>
        <time>2017-02-21T08:54:21Z</time>
      </trkpt>
      <trkpt lat="42.85029" lon="0.02517">
        <ele>1508.01</ele>
        <time>2017-02-21T08:54:34Z</time>
      </trkpt>
      <trkpt lat="42.85022" lon="0.02522">
        <ele>1510.48</ele>
        <time>2017-02-21T08:54:56Z</time>
      </trkpt>
      <trkpt lat="42.85022" lon="0.02522">
        <ele>1510.59</ele>
        <time>2017-02-21T08:55:18Z</time>
      </trkpt>
      <trkpt lat="42.85017" lon="0.02518">
        <ele>1510.75</ele>
        <time>2017-02-21T08:55:40Z</time>
      </trkpt>
      <trkpt lat="42.85017" lon="0.02521">
        <ele>1510.64</ele>
        <time>2017-02-21T08:56:01Z</time>
      </trkpt>
      <trkpt lat="42.85018" lon="0.02524">
        <ele>1510.33</ele>
        <time>2017-02-21T08:56:25Z</time>
      </trkpt>
      <trkpt lat="42.85019" lon="0.02524">
        <ele>1510.57</ele>
        <time>2017-02-21T08:56:51Z</time>
      </trkpt>
      <trkpt lat="42.85026" lon="0.02521">
        <ele>1510.35</ele>
        <time>2017-02-21T08:57:21Z</time>
      </trkpt>
      <trkpt lat="42.85024" lon="0.02522">
        <ele>1510.44</ele>
        <time>2017-02-21T08:57:55Z</time>
      </trkpt>
      <trkpt lat="42.85025" lon="0.02521">
        <ele>1510.35</ele>
        <time>2017-02-21T08:58:16Z</time>
      </trkpt>
      <trkpt lat="42.85026" lon="0.02523">
        <ele>1510.36</ele>
        <time>2017-02-21T08:58:49Z</time>
      </trkpt>
      <trkpt lat="42.85027" lon="0.02523">
        <ele>1510.56</ele>
        <time>2017-02-21T08:59:14Z</time>
      </trkpt>
      <trkpt lat="42.85024" lon="0.02523">
        <ele>1510.75</ele>
        <time>2017-02-21T08:59:37Z</time>
      </trkpt>
      <trkpt lat="42.85022" lon="0.02523">
        <ele>1510.81</ele>
        <time>2017-02-21T08:59:59Z</time>
      </trkpt>
      <trkpt lat="42.85023" lon="0.02525">
        <ele>1510.66</ele>
        <time>2017-02-21T09:00:20Z</time>
      </trkpt>
      <trkpt lat="42.85023" lon="0.02523">
        <ele>1510.7</ele>
        <time>2017-02-21T09:00:51Z</time>
      </trkpt>
      <trkpt lat="42.85021" lon="0.02523">
        <ele>1510.96</ele>
        <time>2017-02-21T09:00:58Z</time>
      </trkpt>
      <trkpt lat="42.85013" lon="0.02541">
        <ele>1509.78</ele>
        <time>2017-02-21T09:01:13Z</time>
      </trkpt>
      <trkpt lat="42.85007" lon="0.02559">
        <ele>1510.91</ele>
        <time>2017-02-21T09:01:34Z</time>
      </trkpt>
      <trkpt lat="42.85003" lon="0.02578">
        <ele>1513.41</ele>
        <time>2017-02-21T09:01:55Z</time>
      </trkpt>
      <trkpt lat="42.85001" lon="0.02591">
        <ele>1514.17</ele>
        <time>2017-02-21T09:02:05Z</time>
      </trkpt>
      <trkpt lat="42.84993" lon="0.02617">
        <ele>1514.68</ele>
        <time>2017-02-21T09:02:21Z</time>
      </trkpt>
      <trkpt lat="42.84988" lon="0.02628">
        <ele>1514.77</ele>
        <time>2017-02-21T09:02:31Z</time>
      </trkpt>
      <trkpt lat="42.84986" lon="0.02646">
        <ele>1514.61</ele>
        <time>2017-02-21T09:02:46Z</time>
      </trkpt>
      <trkpt lat="42.84986" lon="0.02648">
        <ele>1514.62</ele>
        <time>2017-02-21T09:02:47Z</time>
      </trkpt>
      <trkpt lat="42.84983" lon="0.02662">
        <ele>1513.87</ele>
        <time>2017-02-21T09:02:57Z</time>
      </trkpt>
      <trkpt lat="42.84984" lon="0.02669">
        <ele>1513.21</ele>
        <time>2017-02-21T09:03:03Z</time>
      </trkpt>
      <trkpt lat="42.8498" lon="0.02696">
        <ele>1510.8</ele>
        <time>2017-02-21T09:03:19Z</time>
      </trkpt>
      <trkpt lat="42.84978" lon="0.02712">
        <ele>1510.14</ele>
        <time>2017-02-21T09:03:33Z</time>
      </trkpt>
      <trkpt lat="42.84976" lon="0.02724">
        <ele>1508.81</ele>
        <time>2017-02-21T09:03:44Z</time>
      </trkpt>
      <trkpt lat="42.84974" lon="0.02734">
        <ele>1507.97</ele>
        <time>2017-02-21T09:03:56Z</time>
      </trkpt>
      <trkpt lat="42.84962" lon="0.02759">
        <ele>1506.69</ele>
        <time>2017-02-21T09:04:11Z</time>
      </trkpt>
      <trkpt lat="42.84955" lon="0.02778">
        <ele>1505.28</ele>
        <time>2017-02-21T09:04:25Z</time>
      </trkpt>
      <trkpt lat="42.84951" lon="0.02791">
        <ele>1503.89</ele>
        <time>2017-02-21T09:04:38Z</time>
      </trkpt>
      <trkpt lat="42.84948" lon="0.02807">
        <ele>1502.95</ele>
        <time>2017-02-21T09:04:53Z</time>
      </trkpt>
      <trkpt lat="42.84943" lon="0.02828">
        <ele>1502.14</ele>
        <time>2017-02-21T09:05:09Z</time>
      </trkpt>
      <trkpt lat="42.8494" lon="0.02843">
        <ele>1501.06</ele>
        <time>2017-02-21T09:05:23Z</time>
      </trkpt>
      <trkpt lat="42.84935" lon="0.02849">
        <ele>1500.57</ele>
        <time>2017-02-21T09:05:30Z</time>
      </trkpt>
      <trkpt lat="42.84934" lon="0.0285">
        <ele>1500.45</ele>
        <time>2017-02-21T09:05:32Z</time>
      </trkpt>
      <trkpt lat="42.84923" lon="0.02867">
        <ele>1499.95</ele>
        <time>2017-02-21T09:05:50Z</time>
      </trkpt>
      <trkpt lat="42.84913" lon="0.02888">
        <ele>1500.03</ele>
        <time>2017-02-21T09:06:07Z</time>
      </trkpt>
      <trkpt lat="42.84902" lon="0.029">
        <ele>1499.37</ele>
        <time>2017-02-21T09:06:21Z</time>
      </trkpt>
      <trkpt lat="42.84894" lon="0.0291">
        <ele>1499.49</ele>
        <time>2017-02-21T09:06:32Z</time>
      </trkpt>
      <trkpt lat="42.84892" lon="0.02918">
        <ele>1499.54</ele>
        <time>2017-02-21T09:06:39Z</time>
      </trkpt>
      <trkpt lat="42.84886" lon="0.02938">
        <ele>1499.87</ele>
        <time>2017-02-21T09:06:52Z</time>
      </trkpt>
      <trkpt lat="42.84884" lon="0.02956">
        <ele>1499.98</ele>
        <time>2017-02-21T09:07:06Z</time>
      </trkpt>
      <trkpt lat="42.84884" lon="0.02966">
        <ele>1500.13</ele>
        <time>2017-02-21T09:07:18Z</time>
      </trkpt>
      <trkpt lat="42.84882" lon="0.02989">
        <ele>1499.86</ele>
        <time>2017-02-21T09:07:32Z</time>
      </trkpt>
      <trkpt lat="42.84882" lon="0.03018">
        <ele>1499.74</ele>
        <time>2017-02-21T09:07:49Z</time>
      </trkpt>
      <trkpt lat="42.84882" lon="0.0302">
        <ele>1499.75</ele>
        <time>2017-02-21T09:07:51Z</time>
      </trkpt>
      <trkpt lat="42.84882" lon="0.03029">
        <ele>1499.92</ele>
        <time>2017-02-21T09:07:56Z</time>
      </trkpt>
      <trkpt lat="42.84883" lon="0.03031">
        <ele>1500.06</ele>
        <time>2017-02-21T09:07:58Z</time>
      </trkpt>
      <trkpt lat="42.84886" lon="0.03044">
        <ele>1500.17</ele>
        <time>2017-02-21T09:08:08Z</time>
      </trkpt>
      <trkpt lat="42.84887" lon="0.03056">
        <ele>1500.16</ele>
        <time>2017-02-21T09:08:16Z</time>
      </trkpt>
      <trkpt lat="42.84891" lon="0.03064">
        <ele>1499.66</ele>
        <time>2017-02-21T09:08:24Z</time>
      </trkpt>
      <trkpt lat="42.84897" lon="0.03077">
        <ele>1499.33</ele>
        <time>2017-02-21T09:08:36Z</time>
      </trkpt>
      <trkpt lat="42.849" lon="0.03086">
        <ele>1499.38</ele>
        <time>2017-02-21T09:08:43Z</time>
      </trkpt>
      <trkpt lat="42.84901" lon="0.03105">
        <ele>1498.13</ele>
        <time>2017-02-21T09:08:57Z</time>
      </trkpt>
      <trkpt lat="42.84901" lon="0.03126">
        <ele>1497.63</ele>
        <time>2017-02-21T09:09:12Z</time>
      </trkpt>
      <trkpt lat="42.84902" lon="0.03146">
        <ele>1497.58</ele>
        <time>2017-02-21T09:09:26Z</time>
      </trkpt>
      <trkpt lat="42.84902" lon="0.03153">
        <ele>1497.66</ele>
        <time>2017-02-21T09:09:30Z</time>
      </trkpt>
      <trkpt lat="42.84904" lon="0.03158">
        <ele>1497.6</ele>
        <time>2017-02-21T09:09:34Z</time>
      </trkpt>
      <trkpt lat="42.84905" lon="0.03163">
        <ele>1497.5</ele>
        <time>2017-02-21T09:09:38Z</time>
      </trkpt>
      <trkpt lat="42.84906" lon="0.03176">
        <ele>1497.52</ele>
        <time>2017-02-21T09:09:48Z</time>
      </trkpt>
      <trkpt lat="42.84909" lon="0.03194">
        <ele>1498.74</ele>
        <time>2017-02-21T09:10:01Z</time>
      </trkpt>
      <trkpt lat="42.84909" lon="0.03196">
        <ele>1498.9</ele>
        <time>2017-02-21T09:10:03Z</time>
      </trkpt>
      <trkpt lat="42.84902" lon="0.03211">
        <ele>1502.04</ele>
        <time>2017-02-21T09:10:21Z</time>
      </trkpt>
      <trkpt lat="42.84899" lon="0.03217">
        <ele>1503.04</ele>
        <time>2017-02-21T09:10:28Z</time>
      </trkpt>
      <trkpt lat="42.84894" lon="0.03228">
        <ele>1506.33</ele>
        <time>2017-02-21T09:10:47Z</time>
      </trkpt>
      <trkpt lat="42.84884" lon="0.03237">
        <ele>1509.58</ele>
        <time>2017-02-21T09:11:04Z</time>
      </trkpt>
      <trkpt lat="42.84877" lon="0.03244">
        <ele>1511.81</ele>
        <time>2017-02-21T09:11:17Z</time>
      </trkpt>
      <trkpt lat="42.84866" lon="0.03251">
        <ele>1514.03</ele>
        <time>2017-02-21T09:11:35Z</time>
      </trkpt>
      <trkpt lat="42.84856" lon="0.0326">
        <ele>1516.67</ele>
        <time>2017-02-21T09:11:54Z</time>
      </trkpt>
      <trkpt lat="42.8485" lon="0.0327">
        <ele>1519.68</ele>
        <time>2017-02-21T09:12:11Z</time>
      </trkpt>
      <trkpt lat="42.84845" lon="0.03279">
        <ele>1523.04</ele>
        <time>2017-02-21T09:12:27Z</time>
      </trkpt>
      <trkpt lat="42.84839" lon="0.03291">
        <ele>1526.06</ele>
        <time>2017-02-21T09:12:45Z</time>
      </trkpt>
      <trkpt lat="42.84829" lon="0.03304">
        <ele>1528.19</ele>
        <time>2017-02-21T09:13:00Z</time>
      </trkpt>
      <trkpt lat="42.8482" lon="0.03315">
        <ele>1530</ele>
        <time>2017-02-21T09:13:14Z</time>
      </trkpt>
      <trkpt lat="42.84822" lon="0.03331">
        <ele>1532.81</ele>
        <time>2017-02-21T09:13:33Z</time>
      </trkpt>
      <trkpt lat="42.84825" lon="0.03344">
        <ele>1535.9</ele>
        <time>2017-02-21T09:13:49Z</time>
      </trkpt>
      <trkpt lat="42.84827" lon="0.0335">
        <ele>1538.93</ele>
        <time>2017-02-21T09:14:06Z</time>
      </trkpt>
      <trkpt lat="42.84828" lon="0.03357">
        <ele>1540.83</ele>
        <time>2017-02-21T09:14:15Z</time>
      </trkpt>
      <trkpt lat="42.8482" lon="0.03355">
        <ele>1544.04</ele>
        <time>2017-02-21T09:14:34Z</time>
      </trkpt>
      <trkpt lat="42.84808" lon="0.03346">
        <ele>1547.2</ele>
        <time>2017-02-21T09:14:56Z</time>
      </trkpt>
      <trkpt lat="42.84809" lon="0.03363">
        <ele>1549.55</ele>
        <time>2017-02-21T09:15:13Z</time>
      </trkpt>
      <trkpt lat="42.84814" lon="0.03376">
        <ele>1552.62</ele>
        <time>2017-02-21T09:15:30Z</time>
      </trkpt>
      <trkpt lat="42.84816" lon="0.03386">
        <ele>1555.64</ele>
        <time>2017-02-21T09:15:47Z</time>
      </trkpt>
      <trkpt lat="42.84817" lon="0.03393">
        <ele>1556.91</ele>
        <time>2017-02-21T09:16:06Z</time>
      </trkpt>
      <trkpt lat="42.84819" lon="0.03402">
        <ele>1558.93</ele>
        <time>2017-02-21T09:16:20Z</time>
      </trkpt>
      <trkpt lat="42.84822" lon="0.03418">
        <ele>1561.9</ele>
        <time>2017-02-21T09:16:40Z</time>
      </trkpt>
      <trkpt lat="42.84823" lon="0.03431">
        <ele>1565.1</ele>
        <time>2017-02-21T09:16:56Z</time>
      </trkpt>
      <trkpt lat="42.84824" lon="0.03437">
        <ele>1568.04</ele>
        <time>2017-02-21T09:17:14Z</time>
      </trkpt>
      <trkpt lat="42.84812" lon="0.03428">
        <ele>1571.15</ele>
        <time>2017-02-21T09:17:35Z</time>
      </trkpt>
      <trkpt lat="42.84813" lon="0.03435">
        <ele>1573.35</ele>
        <time>2017-02-21T09:17:53Z</time>
      </trkpt>
      <trkpt lat="42.84813" lon="0.03445">
        <ele>1576.44</ele>
        <time>2017-02-21T09:18:12Z</time>
      </trkpt>
      <trkpt lat="42.84804" lon="0.03438">
        <ele>1579.5</ele>
        <time>2017-02-21T09:18:32Z</time>
      </trkpt>
      <trkpt lat="42.84794" lon="0.03428">
        <ele>1582.56</ele>
        <time>2017-02-21T09:18:53Z</time>
      </trkpt>
      <trkpt lat="42.84783" lon="0.03418">
        <ele>1585.58</ele>
        <time>2017-02-21T09:19:12Z</time>
      </trkpt>
      <trkpt lat="42.84779" lon="0.03424">
        <ele>1588.64</ele>
        <time>2017-02-21T09:19:27Z</time>
      </trkpt>
      <trkpt lat="42.84773" lon="0.03429">
        <ele>1591.66</ele>
        <time>2017-02-21T09:19:42Z</time>
      </trkpt>
      <trkpt lat="42.8476" lon="0.03427">
        <ele>1594.69</ele>
        <time>2017-02-21T09:20:02Z</time>
      </trkpt>
      <trkpt lat="42.84763" lon="0.03438">
        <ele>1597.71</ele>
        <time>2017-02-21T09:20:19Z</time>
      </trkpt>
      <trkpt lat="42.84764" lon="0.03447">
        <ele>1599.45</ele>
        <time>2017-02-21T09:20:35Z</time>
      </trkpt>
      <trkpt lat="42.84763" lon="0.03461">
        <ele>1602.62</ele>
        <time>2017-02-21T09:20:52Z</time>
      </trkpt>
      <trkpt lat="42.84761" lon="0.03475">
        <ele>1605.77</ele>
        <time>2017-02-21T09:21:08Z</time>
      </trkpt>
      <trkpt lat="42.84763" lon="0.0349">
        <ele>1609.11</ele>
        <time>2017-02-21T09:21:26Z</time>
      </trkpt>
      <trkpt lat="42.84761" lon="0.03504">
        <ele>1612.13</ele>
        <time>2017-02-21T09:21:43Z</time>
      </trkpt>
      <trkpt lat="42.84757" lon="0.03521">
        <ele>1615.16</ele>
        <time>2017-02-21T09:22:00Z</time>
      </trkpt>
      <trkpt lat="42.84754" lon="0.03533">
        <ele>1618.27</ele>
        <time>2017-02-21T09:22:17Z</time>
      </trkpt>
      <trkpt lat="42.84746" lon="0.03524">
        <ele>1621.35</ele>
        <time>2017-02-21T09:22:36Z</time>
      </trkpt>
      <trkpt lat="42.84736" lon="0.03512">
        <ele>1624.48</ele>
        <time>2017-02-21T09:22:58Z</time>
      </trkpt>
      <trkpt lat="42.84724" lon="0.03512">
        <ele>1627.59</ele>
        <time>2017-02-21T09:23:18Z</time>
      </trkpt>
      <trkpt lat="42.84727" lon="0.03527">
        <ele>1630.61</ele>
        <time>2017-02-21T09:23:33Z</time>
      </trkpt>
      <trkpt lat="42.84724" lon="0.03542">
        <ele>1633.78</ele>
        <time>2017-02-21T09:23:51Z</time>
      </trkpt>
      <trkpt lat="42.84718" lon="0.03554">
        <ele>1636.57</ele>
        <time>2017-02-21T09:24:08Z</time>
      </trkpt>
      <trkpt lat="42.84717" lon="0.03566">
        <ele>1639.8</ele>
        <time>2017-02-21T09:24:23Z</time>
      </trkpt>
      <trkpt lat="42.84714" lon="0.03583">
        <ele>1642.92</ele>
        <time>2017-02-21T09:24:43Z</time>
      </trkpt>
      <trkpt lat="42.84716" lon="0.03594">
        <ele>1646.11</ele>
        <time>2017-02-21T09:24:58Z</time>
      </trkpt>
      <trkpt lat="42.84719" lon="0.03607">
        <ele>1649.24</ele>
        <time>2017-02-21T09:25:18Z</time>
      </trkpt>
      <trkpt lat="42.8471" lon="0.03601">
        <ele>1652.34</ele>
        <time>2017-02-21T09:25:38Z</time>
      </trkpt>
      <trkpt lat="42.84698" lon="0.036">
        <ele>1655.43</ele>
        <time>2017-02-21T09:25:55Z</time>
      </trkpt>
      <trkpt lat="42.84687" lon="0.03599">
        <ele>1657.86</ele>
        <time>2017-02-21T09:26:12Z</time>
      </trkpt>
      <trkpt lat="42.84674" lon="0.03603">
        <ele>1660.96</ele>
        <time>2017-02-21T09:26:30Z</time>
      </trkpt>
      <trkpt lat="42.84663" lon="0.03609">
        <ele>1663.84</ele>
        <time>2017-02-21T09:26:47Z</time>
      </trkpt>
      <trkpt lat="42.84652" lon="0.03612">
        <ele>1666.92</ele>
        <time>2017-02-21T09:27:06Z</time>
      </trkpt>
      <trkpt lat="42.84644" lon="0.03614">
        <ele>1670.01</ele>
        <time>2017-02-21T09:27:22Z</time>
      </trkpt>
      <trkpt lat="42.84646" lon="0.03627">
        <ele>1672.27</ele>
        <time>2017-02-21T09:27:37Z</time>
      </trkpt>
      <trkpt lat="42.84651" lon="0.03636">
        <ele>1675.73</ele>
        <time>2017-02-21T09:27:52Z</time>
      </trkpt>
      <trkpt lat="42.84657" lon="0.03648">
        <ele>1677.8</ele>
        <time>2017-02-21T09:28:09Z</time>
      </trkpt>
      <trkpt lat="42.84659" lon="0.0366">
        <ele>1680.98</ele>
        <time>2017-02-21T09:28:28Z</time>
      </trkpt>
      <trkpt lat="42.84662" lon="0.03673">
        <ele>1684</ele>
        <time>2017-02-21T09:28:46Z</time>
      </trkpt>
      <trkpt lat="42.84668" lon="0.03688">
        <ele>1687.36</ele>
        <time>2017-02-21T09:29:05Z</time>
      </trkpt>
      <trkpt lat="42.84661" lon="0.03688">
        <ele>1689.36</ele>
        <time>2017-02-21T09:29:22Z</time>
      </trkpt>
      <trkpt lat="42.8465" lon="0.03686">
        <ele>1691.87</ele>
        <time>2017-02-21T09:29:39Z</time>
      </trkpt>
      <trkpt lat="42.84645" lon="0.03688">
        <ele>1694.45</ele>
        <time>2017-02-21T09:29:57Z</time>
      </trkpt>
      <trkpt lat="42.84651" lon="0.03701">
        <ele>1697.53</ele>
        <time>2017-02-21T09:30:17Z</time>
      </trkpt>
      <trkpt lat="42.84653" lon="0.03709">
        <ele>1700.57</ele>
        <time>2017-02-21T09:30:32Z</time>
      </trkpt>
      <trkpt lat="42.84641" lon="0.03709">
        <ele>1703.05</ele>
        <time>2017-02-21T09:30:53Z</time>
      </trkpt>
      <trkpt lat="42.84631" lon="0.03705">
        <ele>1706.22</ele>
        <time>2017-02-21T09:31:12Z</time>
      </trkpt>
      <trkpt lat="42.84631" lon="0.03709">
        <ele>1707.65</ele>
        <time>2017-02-21T09:31:28Z</time>
      </trkpt>
      <trkpt lat="42.84635" lon="0.03722">
        <ele>1710.11</ele>
        <time>2017-02-21T09:31:46Z</time>
      </trkpt>
      <trkpt lat="42.84641" lon="0.03737">
        <ele>1712.99</ele>
        <time>2017-02-21T09:32:08Z</time>
      </trkpt>
      <trkpt lat="42.8465" lon="0.03743">
        <ele>1716.08</ele>
        <time>2017-02-21T09:32:25Z</time>
      </trkpt>
      <trkpt lat="42.84654" lon="0.03749">
        <ele>1719.1</ele>
        <time>2017-02-21T09:32:40Z</time>
      </trkpt>
      <trkpt lat="42.84643" lon="0.03753">
        <ele>1721.24</ele>
        <time>2017-02-21T09:33:00Z</time>
      </trkpt>
      <trkpt lat="42.84631" lon="0.03754">
        <ele>1724.24</ele>
        <time>2017-02-21T09:33:20Z</time>
      </trkpt>
      <trkpt lat="42.8462" lon="0.03757">
        <ele>1727.26</ele>
        <time>2017-02-21T09:33:38Z</time>
      </trkpt>
      <trkpt lat="42.8461" lon="0.03757">
        <ele>1730.27</ele>
        <time>2017-02-21T09:33:54Z</time>
      </trkpt>
      <trkpt lat="42.846" lon="0.03753">
        <ele>1733.02</ele>
        <time>2017-02-21T09:34:10Z</time>
      </trkpt>
      <trkpt lat="42.8459" lon="0.03748">
        <ele>1735.92</ele>
        <time>2017-02-21T09:34:29Z</time>
      </trkpt>
      <trkpt lat="42.84584" lon="0.03746">
        <ele>1737.98</ele>
        <time>2017-02-21T09:34:48Z</time>
      </trkpt>
      <trkpt lat="42.84569" lon="0.03741">
        <ele>1741.09</ele>
        <time>2017-02-21T09:35:07Z</time>
      </trkpt>
      <trkpt lat="42.84561" lon="0.03743">
        <ele>1743.73</ele>
        <time>2017-02-21T09:35:25Z</time>
      </trkpt>
      <trkpt lat="42.84563" lon="0.0376">
        <ele>1747.03</ele>
        <time>2017-02-21T09:35:44Z</time>
      </trkpt>
      <trkpt lat="42.84569" lon="0.03771">
        <ele>1750.16</ele>
        <time>2017-02-21T09:36:03Z</time>
      </trkpt>
      <trkpt lat="42.8456" lon="0.03769">
        <ele>1752.97</ele>
        <time>2017-02-21T09:36:20Z</time>
      </trkpt>
      <trkpt lat="42.84549" lon="0.03767">
        <ele>1755.73</ele>
        <time>2017-02-21T09:36:41Z</time>
      </trkpt>
      <trkpt lat="42.84537" lon="0.03763">
        <ele>1758.76</ele>
        <time>2017-02-21T09:36:59Z</time>
      </trkpt>
      <trkpt lat="42.84526" lon="0.0376">
        <ele>1761.78</ele>
        <time>2017-02-21T09:37:20Z</time>
      </trkpt>
      <trkpt lat="42.84522" lon="0.03766">
        <ele>1764.86</ele>
        <time>2017-02-21T09:37:39Z</time>
      </trkpt>
      <trkpt lat="42.84513" lon="0.03759">
        <ele>1767.51</ele>
        <time>2017-02-21T09:37:57Z</time>
      </trkpt>
      <trkpt lat="42.84506" lon="0.03756">
        <ele>1770.58</ele>
        <time>2017-02-21T09:38:18Z</time>
      </trkpt>
      <trkpt lat="42.84504" lon="0.03755">
        <ele>1770.85</ele>
        <time>2017-02-21T09:38:43Z</time>
      </trkpt>
      <trkpt lat="42.84503" lon="0.03758">
        <ele>1770.48</ele>
        <time>2017-02-21T09:39:12Z</time>
      </trkpt>
      <trkpt lat="42.84501" lon="0.03759">
        <ele>1770.9</ele>
        <time>2017-02-21T09:39:42Z</time>
      </trkpt>
      <trkpt lat="42.84502" lon="0.03759">
        <ele>1770.47</ele>
        <time>2017-02-21T09:40:15Z</time>
      </trkpt>
      <trkpt lat="42.84503" lon="0.03757">
        <ele>1770.72</ele>
        <time>2017-02-21T09:40:46Z</time>
      </trkpt>
      <trkpt lat="42.84504" lon="0.03754">
        <ele>1770.55</ele>
        <time>2017-02-21T09:41:21Z</time>
      </trkpt>
      <trkpt lat="42.84502" lon="0.03759">
        <ele>1770.34</ele>
        <time>2017-02-21T09:41:49Z</time>
      </trkpt>
      <trkpt lat="42.845" lon="0.03754">
        <ele>1770.5</ele>
        <time>2017-02-21T09:42:13Z</time>
      </trkpt>
      <trkpt lat="42.84502" lon="0.03752">
        <ele>1771.32</ele>
        <time>2017-02-21T09:42:36Z</time>
      </trkpt>
      <trkpt lat="42.84502" lon="0.03754">
        <ele>1770.92</ele>
        <time>2017-02-21T09:43:04Z</time>
      </trkpt>
      <trkpt lat="42.84501" lon="0.03758">
        <ele>1770.1</ele>
        <time>2017-02-21T09:43:30Z</time>
      </trkpt>
      <trkpt lat="42.84501" lon="0.03758">
        <ele>1770.06</ele>
        <time>2017-02-21T09:44:09Z</time>
      </trkpt>
      <trkpt lat="42.84502" lon="0.03758">
        <ele>1769.96</ele>
        <time>2017-02-21T09:44:33Z</time>
      </trkpt>
      <trkpt lat="42.84505" lon="0.03754">
        <ele>1770.51</ele>
        <time>2017-02-21T09:45:10Z</time>
      </trkpt>
      <trkpt lat="42.84504" lon="0.03755">
        <ele>1770.3</ele>
        <time>2017-02-21T09:45:42Z</time>
      </trkpt>
      <trkpt lat="42.84505" lon="0.03754">
        <ele>1770.31</ele>
        <time>2017-02-21T09:46:19Z</time>
      </trkpt>
      <trkpt lat="42.84504" lon="0.03752">
        <ele>1770.06</ele>
        <time>2017-02-21T09:46:55Z</time>
      </trkpt>
      <trkpt lat="42.84504" lon="0.03753">
        <ele>1769.96</ele>
        <time>2017-02-21T09:47:31Z</time>
      </trkpt>
      <trkpt lat="42.84504" lon="0.03753">
        <ele>1769.83</ele>
        <time>2017-02-21T09:48:19Z</time>
      </trkpt>
      <trkpt lat="42.84504" lon="0.03755">
        <ele>1769.64</ele>
        <time>2017-02-21T09:49:07Z</time>
      </trkpt>
      <trkpt lat="42.84505" lon="0.03755">
        <ele>1769.3</ele>
        <time>2017-02-21T09:49:51Z</time>
      </trkpt>
      <trkpt lat="42.84501" lon="0.03754">
        <ele>1768.77</ele>
        <time>2017-02-21T09:50:30Z</time>
      </trkpt>
      <trkpt lat="42.84496" lon="0.03743">
        <ele>1770.56</ele>
        <time>2017-02-21T09:50:47Z</time>
      </trkpt>
      <trkpt lat="42.84488" lon="0.03734">
        <ele>1772.97</ele>
        <time>2017-02-21T09:51:05Z</time>
      </trkpt>
      <trkpt lat="42.84482" lon="0.03739">
        <ele>1775.53</ele>
        <time>2017-02-21T09:51:24Z</time>
      </trkpt>
      <trkpt lat="42.84476" lon="0.03752">
        <ele>1778.64</ele>
        <time>2017-02-21T09:51:43Z</time>
      </trkpt>
      <trkpt lat="42.84469" lon="0.03763">
        <ele>1781.29</ele>
        <time>2017-02-21T09:52:03Z</time>
      </trkpt>
      <trkpt lat="42.84463" lon="0.03774">
        <ele>1784.41</ele>
        <time>2017-02-21T09:52:23Z</time>
      </trkpt>
      <trkpt lat="42.84458" lon="0.03786">
        <ele>1786.93</ele>
        <time>2017-02-21T09:52:43Z</time>
      </trkpt>
      <trkpt lat="42.84456" lon="0.03802">
        <ele>1790.04</ele>
        <time>2017-02-21T09:53:04Z</time>
      </trkpt>
      <trkpt lat="42.84456" lon="0.03814">
        <ele>1793.08</ele>
        <time>2017-02-21T09:53:24Z</time>
      </trkpt>
      <trkpt lat="42.84452" lon="0.03818">
        <ele>1795.8</ele>
        <time>2017-02-21T09:53:44Z</time>
      </trkpt>
      <trkpt lat="42.84444" lon="0.03813">
        <ele>1798.92</ele>
        <time>2017-02-21T09:54:02Z</time>
      </trkpt>
      <trkpt lat="42.84434" lon="0.03803">
        <ele>1801.85</ele>
        <time>2017-02-21T09:54:22Z</time>
      </trkpt>
      <trkpt lat="42.84427" lon="0.03811">
        <ele>1804.23</ele>
        <time>2017-02-21T09:54:40Z</time>
      </trkpt>
      <trkpt lat="42.84422" lon="0.03823">
        <ele>1807.27</ele>
        <time>2017-02-21T09:54:58Z</time>
      </trkpt>
      <trkpt lat="42.84414" lon="0.03817">
        <ele>1810.35</ele>
        <time>2017-02-21T09:55:15Z</time>
      </trkpt>
      <trkpt lat="42.84411" lon="0.03826">
        <ele>1813.44</ele>
        <time>2017-02-21T09:55:32Z</time>
      </trkpt>
      <trkpt lat="42.84413" lon="0.03836">
        <ele>1816.59</ele>
        <time>2017-02-21T09:55:48Z</time>
      </trkpt>
      <trkpt lat="42.84414" lon="0.03845">
        <ele>1818.96</ele>
        <time>2017-02-21T09:56:07Z</time>
      </trkpt>
      <trkpt lat="42.84399" lon="0.03843">
        <ele>1821.84</ele>
        <time>2017-02-21T09:56:32Z</time>
      </trkpt>
      <trkpt lat="42.84391" lon="0.03838">
        <ele>1824.66</ele>
        <time>2017-02-21T09:56:50Z</time>
      </trkpt>
      <trkpt lat="42.84385" lon="0.03826">
        <ele>1827.68</ele>
        <time>2017-02-21T09:57:12Z</time>
      </trkpt>
      <trkpt lat="42.8438" lon="0.03836">
        <ele>1829.88</ele>
        <time>2017-02-21T09:57:33Z</time>
      </trkpt>
      <trkpt lat="42.84378" lon="0.03831">
        <ele>1832.14</ele>
        <time>2017-02-21T09:57:53Z</time>
      </trkpt>
      <trkpt lat="42.84373" lon="0.03819">
        <ele>1835.27</ele>
        <time>2017-02-21T09:58:13Z</time>
      </trkpt>
      <trkpt lat="42.84363" lon="0.03815">
        <ele>1838.46</ele>
        <time>2017-02-21T09:58:28Z</time>
      </trkpt>
      <trkpt lat="42.84351" lon="0.03814">
        <ele>1841.49</ele>
        <time>2017-02-21T09:58:44Z</time>
      </trkpt>
      <trkpt lat="42.84342" lon="0.03823">
        <ele>1844.64</ele>
        <time>2017-02-21T09:59:00Z</time>
      </trkpt>
      <trkpt lat="42.84335" lon="0.0383">
        <ele>1846.85</ele>
        <time>2017-02-21T09:59:14Z</time>
      </trkpt>
      <trkpt lat="42.84325" lon="0.03839">
        <ele>1849.8</ele>
        <time>2017-02-21T09:59:32Z</time>
      </trkpt>
      <trkpt lat="42.84313" lon="0.03845">
        <ele>1852.83</ele>
        <time>2017-02-21T09:59:55Z</time>
      </trkpt>
      <trkpt lat="42.84302" lon="0.03853">
        <ele>1855.96</ele>
        <time>2017-02-21T10:00:14Z</time>
      </trkpt>
      <trkpt lat="42.84289" lon="0.03861">
        <ele>1859</ele>
        <time>2017-02-21T10:00:35Z</time>
      </trkpt>
      <trkpt lat="42.84278" lon="0.03866">
        <ele>1862.05</ele>
        <time>2017-02-21T10:00:52Z</time>
      </trkpt>
      <trkpt lat="42.84265" lon="0.03866">
        <ele>1865.26</ele>
        <time>2017-02-21T10:01:14Z</time>
      </trkpt>
      <trkpt lat="42.84256" lon="0.03868">
        <ele>1868.27</ele>
        <time>2017-02-21T10:01:29Z</time>
      </trkpt>
      <trkpt lat="42.84245" lon="0.03869">
        <ele>1871.28</ele>
        <time>2017-02-21T10:01:46Z</time>
      </trkpt>
      <trkpt lat="42.84233" lon="0.03871">
        <ele>1874.38</ele>
        <time>2017-02-21T10:02:06Z</time>
      </trkpt>
      <trkpt lat="42.84231" lon="0.03876">
        <ele>1877.41</ele>
        <time>2017-02-21T10:02:22Z</time>
      </trkpt>
      <trkpt lat="42.84237" lon="0.03887">
        <ele>1880.57</ele>
        <time>2017-02-21T10:02:41Z</time>
      </trkpt>
      <trkpt lat="42.84245" lon="0.039">
        <ele>1883.71</ele>
        <time>2017-02-21T10:03:00Z</time>
      </trkpt>
      <trkpt lat="42.84233" lon="0.03905">
        <ele>1886.26</ele>
        <time>2017-02-21T10:03:20Z</time>
      </trkpt>
      <trkpt lat="42.84222" lon="0.03908">
        <ele>1889.26</ele>
        <time>2017-02-21T10:03:37Z</time>
      </trkpt>
      <trkpt lat="42.84212" lon="0.03909">
        <ele>1892.41</ele>
        <time>2017-02-21T10:03:58Z</time>
      </trkpt>
      <trkpt lat="42.84218" lon="0.0392">
        <ele>1895.43</ele>
        <time>2017-02-21T10:04:17Z</time>
      </trkpt>
      <trkpt lat="42.84222" lon="0.03935">
        <ele>1898.33</ele>
        <time>2017-02-21T10:04:38Z</time>
      </trkpt>
      <trkpt lat="42.84213" lon="0.03941">
        <ele>1901.43</ele>
        <time>2017-02-21T10:04:53Z</time>
      </trkpt>
      <trkpt lat="42.84208" lon="0.03946">
        <ele>1904.49</ele>
        <time>2017-02-21T10:05:12Z</time>
      </trkpt>
      <trkpt lat="42.84212" lon="0.03954">
        <ele>1907.59</ele>
        <time>2017-02-21T10:05:30Z</time>
      </trkpt>
      <trkpt lat="42.84204" lon="0.03961">
        <ele>1910.44</ele>
        <time>2017-02-21T10:05:50Z</time>
      </trkpt>
      <trkpt lat="42.84216" lon="0.03969">
        <ele>1912.94</ele>
        <time>2017-02-21T10:06:09Z</time>
      </trkpt>
      <trkpt lat="42.84228" lon="0.03979">
        <ele>1915.95</ele>
        <time>2017-02-21T10:06:29Z</time>
      </trkpt>
      <trkpt lat="42.84213" lon="0.0399">
        <ele>1918.19</ele>
        <time>2017-02-21T10:06:47Z</time>
      </trkpt>
      <trkpt lat="42.84197" lon="0.03992">
        <ele>1921.31</ele>
        <time>2017-02-21T10:07:08Z</time>
      </trkpt>
      <trkpt lat="42.84195" lon="0.03997">
        <ele>1923.96</ele>
        <time>2017-02-21T10:07:28Z</time>
      </trkpt>
      <trkpt lat="42.84202" lon="0.04008">
        <ele>1927.05</ele>
        <time>2017-02-21T10:07:45Z</time>
      </trkpt>
      <trkpt lat="42.84193" lon="0.04013">
        <ele>1929.78</ele>
        <time>2017-02-21T10:08:02Z</time>
      </trkpt>
      <trkpt lat="42.84177" lon="0.04013">
        <ele>1932.86</ele>
        <time>2017-02-21T10:08:24Z</time>
      </trkpt>
      <trkpt lat="42.8417" lon="0.04011">
        <ele>1935.16</ele>
        <time>2017-02-21T10:08:46Z</time>
      </trkpt>
      <trkpt lat="42.84173" lon="0.04024">
        <ele>1937.08</ele>
        <time>2017-02-21T10:09:05Z</time>
      </trkpt>
      <trkpt lat="42.84186" lon="0.04038">
        <ele>1939.69</ele>
        <time>2017-02-21T10:09:23Z</time>
      </trkpt>
      <trkpt lat="42.84172" lon="0.04042">
        <ele>1941.63</ele>
        <time>2017-02-21T10:09:42Z</time>
      </trkpt>
      <trkpt lat="42.84162" lon="0.04046">
        <ele>1944.74</ele>
        <time>2017-02-21T10:09:59Z</time>
      </trkpt>
      <trkpt lat="42.84151" lon="0.04044">
        <ele>1947.79</ele>
        <time>2017-02-21T10:10:16Z</time>
      </trkpt>
      <trkpt lat="42.84139" lon="0.04041">
        <ele>1950.82</ele>
        <time>2017-02-21T10:10:36Z</time>
      </trkpt>
      <trkpt lat="42.84137" lon="0.04039">
        <ele>1951.42</ele>
        <time>2017-02-21T10:10:41Z</time>
      </trkpt>
      <trkpt lat="42.8414" lon="0.04048">
        <ele>1953.79</ele>
        <time>2017-02-21T10:11:01Z</time>
      </trkpt>
      <trkpt lat="42.84138" lon="0.04061">
        <ele>1956.81</ele>
        <time>2017-02-21T10:11:19Z</time>
      </trkpt>
      <trkpt lat="42.84127" lon="0.04059">
        <ele>1959.86</ele>
        <time>2017-02-21T10:11:39Z</time>
      </trkpt>
      <trkpt lat="42.84124" lon="0.04059">
        <ele>1962.79</ele>
        <time>2017-02-21T10:11:58Z</time>
      </trkpt>
      <trkpt lat="42.84129" lon="0.04066">
        <ele>1964.33</ele>
        <time>2017-02-21T10:12:20Z</time>
      </trkpt>
      <trkpt lat="42.84133" lon="0.04078">
        <ele>1967.41</ele>
        <time>2017-02-21T10:12:40Z</time>
      </trkpt>
      <trkpt lat="42.84119" lon="0.04085">
        <ele>1970.66</ele>
        <time>2017-02-21T10:13:02Z</time>
      </trkpt>
      <trkpt lat="42.84106" lon="0.04082">
        <ele>1973.7</ele>
        <time>2017-02-21T10:13:21Z</time>
      </trkpt>
      <trkpt lat="42.84112" lon="0.0409">
        <ele>1976.34</ele>
        <time>2017-02-21T10:13:39Z</time>
      </trkpt>
      <trkpt lat="42.84112" lon="0.04101">
        <ele>1978.78</ele>
        <time>2017-02-21T10:13:55Z</time>
      </trkpt>
      <trkpt lat="42.84097" lon="0.04101">
        <ele>1981.81</ele>
        <time>2017-02-21T10:14:18Z</time>
      </trkpt>
      <trkpt lat="42.84084" lon="0.04104">
        <ele>1984.93</ele>
        <time>2017-02-21T10:14:36Z</time>
      </trkpt>
      <trkpt lat="42.84085" lon="0.04106">
        <ele>1987.16</ele>
        <time>2017-02-21T10:14:54Z</time>
      </trkpt>
      <trkpt lat="42.84099" lon="0.04118">
        <ele>1989.42</ele>
        <time>2017-02-21T10:15:14Z</time>
      </trkpt>
      <trkpt lat="42.84106" lon="0.0413">
        <ele>1991.95</ele>
        <time>2017-02-21T10:15:35Z</time>
      </trkpt>
      <trkpt lat="42.84094" lon="0.04135">
        <ele>1994.45</ele>
        <time>2017-02-21T10:15:54Z</time>
      </trkpt>
      <trkpt lat="42.8408" lon="0.04144">
        <ele>1997.52</ele>
        <time>2017-02-21T10:16:13Z</time>
      </trkpt>
      <trkpt lat="42.84073" lon="0.04148">
        <ele>2000.54</ele>
        <time>2017-02-21T10:16:28Z</time>
      </trkpt>
      <trkpt lat="42.84081" lon="0.0415">
        <ele>2002.2</ele>
        <time>2017-02-21T10:16:52Z</time>
      </trkpt>
      <trkpt lat="42.84096" lon="0.04157">
        <ele>2004.71</ele>
        <time>2017-02-21T10:17:12Z</time>
      </trkpt>
      <trkpt lat="42.84108" lon="0.04164">
        <ele>2007.79</ele>
        <time>2017-02-21T10:17:29Z</time>
      </trkpt>
      <trkpt lat="42.84096" lon="0.04171">
        <ele>2009.33</ele>
        <time>2017-02-21T10:17:46Z</time>
      </trkpt>
      <trkpt lat="42.84085" lon="0.0418">
        <ele>2012.51</ele>
        <time>2017-02-21T10:18:05Z</time>
      </trkpt>
      <trkpt lat="42.84076" lon="0.0419">
        <ele>2015.17</ele>
        <time>2017-02-21T10:18:22Z</time>
      </trkpt>
      <trkpt lat="42.84073" lon="0.04187">
        <ele>2018.06</ele>
        <time>2017-02-21T10:18:41Z</time>
      </trkpt>
      <trkpt lat="42.84083" lon="0.0419">
        <ele>2020.28</ele>
        <time>2017-02-21T10:18:59Z</time>
      </trkpt>
      <trkpt lat="42.84092" lon="0.04193">
        <ele>2023.18</ele>
        <time>2017-02-21T10:19:18Z</time>
      </trkpt>
      <trkpt lat="42.84095" lon="0.04193">
        <ele>2023.73</ele>
        <time>2017-02-21T10:19:22Z</time>
      </trkpt>
      <trkpt lat="42.84105" lon="0.042">
        <ele>2026.52</ele>
        <time>2017-02-21T10:19:44Z</time>
      </trkpt>
      <trkpt lat="42.84089" lon="0.04211">
        <ele>2029.42</ele>
        <time>2017-02-21T10:20:05Z</time>
      </trkpt>
      <trkpt lat="42.84094" lon="0.04213">
        <ele>2031.69</ele>
        <time>2017-02-21T10:20:22Z</time>
      </trkpt>
      <trkpt lat="42.84095" lon="0.04212">
        <ele>2032.95</ele>
        <time>2017-02-21T10:20:43Z</time>
      </trkpt>
      <trkpt lat="42.84085" lon="0.04226">
        <ele>2036.02</ele>
        <time>2017-02-21T10:21:02Z</time>
      </trkpt>
      <trkpt lat="42.84091" lon="0.04226">
        <ele>2038.84</ele>
        <time>2017-02-21T10:21:20Z</time>
      </trkpt>
      <trkpt lat="42.84099" lon="0.04229">
        <ele>2041.07</ele>
        <time>2017-02-21T10:21:38Z</time>
      </trkpt>
      <trkpt lat="42.84088" lon="0.04238">
        <ele>2043.67</ele>
        <time>2017-02-21T10:21:59Z</time>
      </trkpt>
      <trkpt lat="42.84088" lon="0.04238">
        <ele>2045.81</ele>
        <time>2017-02-21T10:22:19Z</time>
      </trkpt>
      <trkpt lat="42.84099" lon="0.04244">
        <ele>2048.42</ele>
        <time>2017-02-21T10:22:39Z</time>
      </trkpt>
      <trkpt lat="42.84097" lon="0.0425">
        <ele>2050.38</ele>
        <time>2017-02-21T10:23:01Z</time>
      </trkpt>
      <trkpt lat="42.84086" lon="0.04255">
        <ele>2052.99</ele>
        <time>2017-02-21T10:23:20Z</time>
      </trkpt>
      <trkpt lat="42.84085" lon="0.04257">
        <ele>2054.87</ele>
        <time>2017-02-21T10:23:39Z</time>
      </trkpt>
      <trkpt lat="42.8409" lon="0.0426">
        <ele>2056.94</ele>
        <time>2017-02-21T10:23:57Z</time>
      </trkpt>
      <trkpt lat="42.84091" lon="0.04266">
        <ele>2059.65</ele>
        <time>2017-02-21T10:24:18Z</time>
      </trkpt>
      <trkpt lat="42.84081" lon="0.0427">
        <ele>2061.32</ele>
        <time>2017-02-21T10:24:36Z</time>
      </trkpt>
      <trkpt lat="42.84079" lon="0.0427">
        <ele>2062.31</ele>
        <time>2017-02-21T10:24:41Z</time>
      </trkpt>
      <trkpt lat="42.8408" lon="0.04268">
        <ele>2064.4</ele>
        <time>2017-02-21T10:25:01Z</time>
      </trkpt>
      <trkpt lat="42.84086" lon="0.04273">
        <ele>2066.22</ele>
        <time>2017-02-21T10:25:18Z</time>
      </trkpt>
      <trkpt lat="42.84082" lon="0.04278">
        <ele>2068.67</ele>
        <time>2017-02-21T10:25:42Z</time>
      </trkpt>
      <trkpt lat="42.84071" lon="0.04281">
        <ele>2070.96</ele>
        <time>2017-02-21T10:26:03Z</time>
      </trkpt>
      <trkpt lat="42.84072" lon="0.0428">
        <ele>2072.85</ele>
        <time>2017-02-21T10:26:21Z</time>
      </trkpt>
      <trkpt lat="42.84077" lon="0.04285">
        <ele>2074.15</ele>
        <time>2017-02-21T10:26:40Z</time>
      </trkpt>
      <trkpt lat="42.84083" lon="0.04287">
        <ele>2077</ele>
        <time>2017-02-21T10:27:01Z</time>
      </trkpt>
      <trkpt lat="42.84083" lon="0.04287">
        <ele>2076.98</ele>
        <time>2017-02-21T10:27:05Z</time>
      </trkpt>
      <trkpt lat="42.84076" lon="0.04293">
        <ele>2077.95</ele>
        <time>2017-02-21T10:27:27Z</time>
      </trkpt>
      <trkpt lat="42.84067" lon="0.04295">
        <ele>2080.57</ele>
        <time>2017-02-21T10:27:49Z</time>
      </trkpt>
      <trkpt lat="42.84073" lon="0.04298">
        <ele>2081.96</ele>
        <time>2017-02-21T10:28:09Z</time>
      </trkpt>
      <trkpt lat="42.84075" lon="0.04302">
        <ele>2084.41</ele>
        <time>2017-02-21T10:28:29Z</time>
      </trkpt>
      <trkpt lat="42.84067" lon="0.04309">
        <ele>2086.21</ele>
        <time>2017-02-21T10:28:48Z</time>
      </trkpt>
      <trkpt lat="42.84063" lon="0.04307">
        <ele>2087.99</ele>
        <time>2017-02-21T10:29:13Z</time>
      </trkpt>
      <trkpt lat="42.84069" lon="0.04308">
        <ele>2089.82</ele>
        <time>2017-02-21T10:29:32Z</time>
      </trkpt>
      <trkpt lat="42.8407" lon="0.04304">
        <ele>2089.17</ele>
        <time>2017-02-21T10:29:55Z</time>
      </trkpt>
      <trkpt lat="42.84069" lon="0.04307">
        <ele>2090.28</ele>
        <time>2017-02-21T10:30:21Z</time>
      </trkpt>
      <trkpt lat="42.84069" lon="0.04308">
        <ele>2089.55</ele>
        <time>2017-02-21T10:30:50Z</time>
      </trkpt>
      <trkpt lat="42.84068" lon="0.0431">
        <ele>2089.91</ele>
        <time>2017-02-21T10:31:18Z</time>
      </trkpt>
      <trkpt lat="42.84065" lon="0.04311">
        <ele>2089.31</ele>
        <time>2017-02-21T10:31:47Z</time>
      </trkpt>
      <trkpt lat="42.84065" lon="0.04312">
        <ele>2089.38</ele>
        <time>2017-02-21T10:32:11Z</time>
      </trkpt>
      <trkpt lat="42.84066" lon="0.04315">
        <ele>2089.18</ele>
        <time>2017-02-21T10:32:39Z</time>
      </trkpt>
      <trkpt lat="42.84069" lon="0.04312">
        <ele>2088.99</ele>
        <time>2017-02-21T10:33:09Z</time>
      </trkpt>
      <trkpt lat="42.84068" lon="0.0431">
        <ele>2088.93</ele>
        <time>2017-02-21T10:33:34Z</time>
      </trkpt>
      <trkpt lat="42.84057" lon="0.04308">
        <ele>2090.88</ele>
        <time>2017-02-21T10:33:53Z</time>
      </trkpt>
      <trkpt lat="42.84059" lon="0.04315">
        <ele>2091.81</ele>
        <time>2017-02-21T10:34:15Z</time>
      </trkpt>
      <trkpt lat="42.84062" lon="0.04316">
        <ele>2093.51</ele>
        <time>2017-02-21T10:34:38Z</time>
      </trkpt>
      <trkpt lat="42.84059" lon="0.04319">
        <ele>2094.81</ele>
        <time>2017-02-21T10:35:00Z</time>
      </trkpt>
      <trkpt lat="42.84058" lon="0.04323">
        <ele>2096.77</ele>
        <time>2017-02-21T10:35:21Z</time>
      </trkpt>
      <trkpt lat="42.8406" lon="0.04326">
        <ele>2099.09</ele>
        <time>2017-02-21T10:35:41Z</time>
      </trkpt>
      <trkpt lat="42.84059" lon="0.04326">
        <ele>2100.26</ele>
        <time>2017-02-21T10:36:09Z</time>
      </trkpt>
      <trkpt lat="42.84061" lon="0.0433">
        <ele>2102.07</ele>
        <time>2017-02-21T10:36:28Z</time>
      </trkpt>
      <trkpt lat="42.84058" lon="0.0433">
        <ele>2103.33</ele>
        <time>2017-02-21T10:36:48Z</time>
      </trkpt>
      <trkpt lat="42.84053" lon="0.04335">
        <ele>2104.57</ele>
        <time>2017-02-21T10:37:11Z</time>
      </trkpt>
      <trkpt lat="42.84057" lon="0.04338">
        <ele>2106.52</ele>
        <time>2017-02-21T10:37:30Z</time>
      </trkpt>
      <trkpt lat="42.84055" lon="0.0434">
        <ele>2107.69</ele>
        <time>2017-02-21T10:37:54Z</time>
      </trkpt>
      <trkpt lat="42.8405" lon="0.04341">
        <ele>2110.28</ele>
        <time>2017-02-21T10:38:17Z</time>
      </trkpt>
      <trkpt lat="42.84051" lon="0.04345">
        <ele>2110.84</ele>
        <time>2017-02-21T10:38:36Z</time>
      </trkpt>
      <trkpt lat="42.84052" lon="0.04347">
        <ele>2111.72</ele>
        <time>2017-02-21T10:38:58Z</time>
      </trkpt>
      <trkpt lat="42.84052" lon="0.04349">
        <ele>2113.02</ele>
        <time>2017-02-21T10:39:19Z</time>
      </trkpt>
      <trkpt lat="42.84049" lon="0.04354">
        <ele>2115.07</ele>
        <time>2017-02-21T10:39:45Z</time>
      </trkpt>
      <trkpt lat="42.84045" lon="0.04357">
        <ele>2116.59</ele>
        <time>2017-02-21T10:40:07Z</time>
      </trkpt>
      <trkpt lat="42.84036" lon="0.04355">
        <ele>2119.65</ele>
        <time>2017-02-21T10:40:29Z</time>
      </trkpt>
      <trkpt lat="42.84026" lon="0.04356">
        <ele>2122.69</ele>
        <time>2017-02-21T10:40:48Z</time>
      </trkpt>
      <trkpt lat="42.8403" lon="0.04362">
        <ele>2123.95</ele>
        <time>2017-02-21T10:41:10Z</time>
      </trkpt>
      <trkpt lat="42.84037" lon="0.04378">
        <ele>2127.06</ele>
        <time>2017-02-21T10:41:34Z</time>
      </trkpt>
      <trkpt lat="42.84028" lon="0.0438">
        <ele>2129.54</ele>
        <time>2017-02-21T10:41:57Z</time>
      </trkpt>
      <trkpt lat="42.84023" lon="0.04376">
        <ele>2132.13</ele>
        <time>2017-02-21T10:42:17Z</time>
      </trkpt>
      <trkpt lat="42.8403" lon="0.04387">
        <ele>2133.55</ele>
        <time>2017-02-21T10:42:35Z</time>
      </trkpt>
      <trkpt lat="42.84038" lon="0.04396">
        <ele>2136.6</ele>
        <time>2017-02-21T10:42:56Z</time>
      </trkpt>
      <trkpt lat="42.84026" lon="0.04402">
        <ele>2139.49</ele>
        <time>2017-02-21T10:43:17Z</time>
      </trkpt>
      <trkpt lat="42.84024" lon="0.04411">
        <ele>2142.24</ele>
        <time>2017-02-21T10:43:33Z</time>
      </trkpt>
      <trkpt lat="42.84022" lon="0.04418">
        <ele>2145.37</ele>
        <time>2017-02-21T10:43:49Z</time>
      </trkpt>
      <trkpt lat="42.84028" lon="0.04417">
        <ele>2146.16</ele>
        <time>2017-02-21T10:44:12Z</time>
      </trkpt>
      <trkpt lat="42.84028" lon="0.04419">
        <ele>2145.69</ele>
        <time>2017-02-21T10:44:43Z</time>
      </trkpt>
      <trkpt lat="42.84029" lon="0.04418">
        <ele>2145.31</ele>
        <time>2017-02-21T10:45:07Z</time>
      </trkpt>
      <trkpt lat="42.84029" lon="0.04416">
        <ele>2145.33</ele>
        <time>2017-02-21T10:45:31Z</time>
      </trkpt>
      <trkpt lat="42.84029" lon="0.04416">
        <ele>2145.77</ele>
        <time>2017-02-21T10:45:55Z</time>
      </trkpt>
      <trkpt lat="42.8403" lon="0.04415">
        <ele>2145.21</ele>
        <time>2017-02-21T10:46:17Z</time>
      </trkpt>
      <trkpt lat="42.84029" lon="0.04417">
        <ele>2145.28</ele>
        <time>2017-02-21T10:46:51Z</time>
      </trkpt>
      <trkpt lat="42.84029" lon="0.04414">
        <ele>2145.22</ele>
        <time>2017-02-21T10:47:24Z</time>
      </trkpt>
      <trkpt lat="42.84029" lon="0.04417">
        <ele>2145.61</ele>
        <time>2017-02-21T10:48:10Z</time>
      </trkpt>
      <trkpt lat="42.84031" lon="0.04414">
        <ele>2145.48</ele>
        <time>2017-02-21T10:48:47Z</time>
      </trkpt>
      <trkpt lat="42.84025" lon="0.04415">
        <ele>2145.36</ele>
        <time>2017-02-21T10:49:12Z</time>
      </trkpt>
      <trkpt lat="42.84025" lon="0.04412">
        <ele>2145.44</ele>
        <time>2017-02-21T10:49:52Z</time>
      </trkpt>
      <trkpt lat="42.84021" lon="0.04411">
        <ele>2145.28</ele>
        <time>2017-02-21T10:50:09Z</time>
      </trkpt>
      <trkpt lat="42.84025" lon="0.04413">
        <ele>2145.55</ele>
        <time>2017-02-21T10:50:56Z</time>
      </trkpt>
      <trkpt lat="42.84022" lon="0.04415">
        <ele>2145.72</ele>
        <time>2017-02-21T10:51:27Z</time>
      </trkpt>
      <trkpt lat="42.84018" lon="0.04415">
        <ele>2145.23</ele>
        <time>2017-02-21T10:52:09Z</time>
      </trkpt>
      <trkpt lat="42.8402" lon="0.04416">
        <ele>2145.49</ele>
        <time>2017-02-21T10:52:44Z</time>
      </trkpt>
      <trkpt lat="42.84021" lon="0.04417">
        <ele>2145.59</ele>
        <time>2017-02-21T10:53:07Z</time>
      </trkpt>
      <trkpt lat="42.84022" lon="0.04417">
        <ele>2145.76</ele>
        <time>2017-02-21T10:53:41Z</time>
      </trkpt>
      <trkpt lat="42.84025" lon="0.04419">
        <ele>2145.83</ele>
        <time>2017-02-21T10:54:18Z</time>
      </trkpt>
      <trkpt lat="42.84024" lon="0.04417">
        <ele>2145.79</ele>
        <time>2017-02-21T10:54:58Z</time>
      </trkpt>
      <trkpt lat="42.84025" lon="0.04417">
        <ele>2146.47</ele>
        <time>2017-02-21T10:55:26Z</time>
      </trkpt>
      <trkpt lat="42.84023" lon="0.04416">
        <ele>2145.59</ele>
        <time>2017-02-21T10:56:00Z</time>
      </trkpt>
      <trkpt lat="42.84023" lon="0.04416">
        <ele>2145.84</ele>
        <time>2017-02-21T10:56:43Z</time>
      </trkpt>
      <trkpt lat="42.84026" lon="0.04415">
        <ele>2145.82</ele>
        <time>2017-02-21T10:57:17Z</time>
      </trkpt>
      <trkpt lat="42.84029" lon="0.04416">
        <ele>2146.18</ele>
        <time>2017-02-21T10:57:38Z</time>
      </trkpt>
      <trkpt lat="42.84027" lon="0.04417">
        <ele>2145.54</ele>
        <time>2017-02-21T10:58:19Z</time>
      </trkpt>
      <trkpt lat="42.84028" lon="0.04415">
        <ele>2145.47</ele>
        <time>2017-02-21T10:58:41Z</time>
      </trkpt>
      <trkpt lat="42.84028" lon="0.04414">
        <ele>2145.46</ele>
        <time>2017-02-21T10:58:45Z</time>
      </trkpt>
      <trkpt lat="42.84027" lon="0.04407">
        <ele>2145.71</ele>
        <time>2017-02-21T10:58:58Z</time>
      </trkpt>
      <trkpt lat="42.84027" lon="0.04407">
        <ele>2145.63</ele>
        <time>2017-02-21T10:59:41Z</time>
      </trkpt>
      <trkpt lat="42.84026" lon="0.04413">
        <ele>2145.25</ele>
        <time>2017-02-21T11:00:15Z</time>
      </trkpt>
      <trkpt lat="42.84025" lon="0.04415">
        <ele>2145.23</ele>
        <time>2017-02-21T11:00:41Z</time>
      </trkpt>
      <trkpt lat="42.84026" lon="0.04415">
        <ele>2145.57</ele>
        <time>2017-02-21T11:01:19Z</time>
      </trkpt>
      <trkpt lat="42.84026" lon="0.04415">
        <ele>2145.25</ele>
        <time>2017-02-21T11:01:48Z</time>
      </trkpt>
      <trkpt lat="42.84025" lon="0.04416">
        <ele>2145.09</ele>
        <time>2017-02-21T11:02:19Z</time>
      </trkpt>
      <trkpt lat="42.84023" lon="0.04415">
        <ele>2145.39</ele>
        <time>2017-02-21T11:02:40Z</time>
      </trkpt>
      <trkpt lat="42.84021" lon="0.04413">
        <ele>2145.9</ele>
        <time>2017-02-21T11:03:00Z</time>
      </trkpt>
      <trkpt lat="42.84023" lon="0.04413">
        <ele>2145.67</ele>
        <time>2017-02-21T11:03:35Z</time>
      </trkpt>
      <trkpt lat="42.84024" lon="0.04413">
        <ele>2145.99</ele>
        <time>2017-02-21T11:04:08Z</time>
      </trkpt>
      <trkpt lat="42.84026" lon="0.04413">
        <ele>2145.33</ele>
        <time>2017-02-21T11:04:34Z</time>
      </trkpt>
      <trkpt lat="42.84026" lon="0.04413">
        <ele>2145.5</ele>
        <time>2017-02-21T11:05:10Z</time>
      </trkpt>
      <trkpt lat="42.84026" lon="0.04411">
        <ele>2145.61</ele>
        <time>2017-02-21T11:05:49Z</time>
      </trkpt>
      <trkpt lat="42.84025" lon="0.04413">
        <ele>2145.91</ele>
        <time>2017-02-21T11:06:15Z</time>
      </trkpt>
      <trkpt lat="42.84025" lon="0.04415">
        <ele>2145.74</ele>
        <time>2017-02-21T11:06:56Z</time>
      </trkpt>
      <trkpt lat="42.84025" lon="0.04415">
        <ele>2145.54</ele>
        <time>2017-02-21T11:07:34Z</time>
      </trkpt>
      <trkpt lat="42.84026" lon="0.04413">
        <ele>2145.11</ele>
        <time>2017-02-21T11:08:00Z</time>
      </trkpt>
      <trkpt lat="42.84026" lon="0.04413">
        <ele>2145.79</ele>
        <time>2017-02-21T11:08:28Z</time>
      </trkpt>
      <trkpt lat="42.84026" lon="0.04411">
        <ele>2145</ele>
        <time>2017-02-21T11:09:12Z</time>
      </trkpt>
      <trkpt lat="42.84025" lon="0.04413">
        <ele>2145.42</ele>
        <time>2017-02-21T11:09:44Z</time>
      </trkpt>
      <trkpt lat="42.84024" lon="0.04415">
        <ele>2145.77</ele>
        <time>2017-02-21T11:10:20Z</time>
      </trkpt>
      <trkpt lat="42.84023" lon="0.04413">
        <ele>2145.94</ele>
        <time>2017-02-21T11:10:58Z</time>
      </trkpt>
      <trkpt lat="42.84023" lon="0.04414">
        <ele>2145.88</ele>
        <time>2017-02-21T11:11:31Z</time>
      </trkpt>
      <trkpt lat="42.84023" lon="0.04414">
        <ele>2145.64</ele>
        <time>2017-02-21T11:12:11Z</time>
      </trkpt>
      <trkpt lat="42.84023" lon="0.04414">
        <ele>2145.31</ele>
        <time>2017-02-21T11:12:46Z</time>
      </trkpt>
      <trkpt lat="42.84025" lon="0.04413">
        <ele>2145.33</ele>
        <time>2017-02-21T11:13:10Z</time>
      </trkpt>
      <trkpt lat="42.84022" lon="0.04412">
        <ele>2144.89</ele>
        <time>2017-02-21T11:13:38Z</time>
      </trkpt>
      <trkpt lat="42.84021" lon="0.04412">
        <ele>2144.78</ele>
        <time>2017-02-21T11:13:56Z</time>
      </trkpt>
      <trkpt lat="42.84027" lon="0.04415">
        <ele>2145.34</ele>
        <time>2017-02-21T11:14:14Z</time>
      </trkpt>
      <trkpt lat="42.84027" lon="0.04415">
        <ele>2145.2</ele>
        <time>2017-02-21T11:14:43Z</time>
      </trkpt>
      <trkpt lat="42.84027" lon="0.04416">
        <ele>2145.14</ele>
        <time>2017-02-21T11:15:14Z</time>
      </trkpt>
      <trkpt lat="42.84028" lon="0.04417">
        <ele>2144.92</ele>
        <time>2017-02-21T11:15:59Z</time>
      </trkpt>
      <trkpt lat="42.84028" lon="0.04416">
        <ele>2145.39</ele>
        <time>2017-02-21T11:16:41Z</time>
      </trkpt>
      <trkpt lat="42.84029" lon="0.04416">
        <ele>2144.55</ele>
        <time>2017-02-21T11:17:12Z</time>
      </trkpt>
      <trkpt lat="42.84027" lon="0.04415">
        <ele>2145.16</ele>
        <time>2017-02-21T11:17:42Z</time>
      </trkpt>
      <trkpt lat="42.84025" lon="0.04415">
        <ele>2144.63</ele>
        <time>2017-02-21T11:18:23Z</time>
      </trkpt>
      <trkpt lat="42.84028" lon="0.04417">
        <ele>2144.72</ele>
        <time>2017-02-21T11:18:53Z</time>
      </trkpt>
      <trkpt lat="42.84026" lon="0.04417">
        <ele>2145.13</ele>
        <time>2017-02-21T11:19:15Z</time>
      </trkpt>
      <trkpt lat="42.84027" lon="0.04417">
        <ele>2144.95</ele>
        <time>2017-02-21T11:19:37Z</time>
      </trkpt>
      <trkpt lat="42.8403" lon="0.04418">
        <ele>2144.63</ele>
        <time>2017-02-21T11:19:59Z</time>
      </trkpt>
      <trkpt lat="42.84032" lon="0.04417">
        <ele>2144.5</ele>
        <time>2017-02-21T11:20:47Z</time>
      </trkpt>
      <trkpt lat="42.84032" lon="0.04417">
        <ele>2145.59</ele>
        <time>2017-02-21T11:21:07Z</time>
      </trkpt>
      <trkpt lat="42.8403" lon="0.04417">
        <ele>2146.07</ele>
        <time>2017-02-21T11:21:34Z</time>
      </trkpt>
      <trkpt lat="42.84028" lon="0.04418">
        <ele>2146.01</ele>
        <time>2017-02-21T11:21:59Z</time>
      </trkpt>
      <trkpt lat="42.84027" lon="0.0442">
        <ele>2146.21</ele>
        <time>2017-02-21T11:22:13Z</time>
      </trkpt>
      <trkpt lat="42.84026" lon="0.04421">
        <ele>2146.21</ele>
        <time>2017-02-21T11:22:31Z</time>
      </trkpt>
      <trkpt lat="42.84027" lon="0.04419">
        <ele>2145.89</ele>
        <time>2017-02-21T11:22:58Z</time>
      </trkpt>
      <trkpt lat="42.84026" lon="0.04419">
        <ele>2145.97</ele>
        <time>2017-02-21T11:23:35Z</time>
      </trkpt>
      <trkpt lat="42.84026" lon="0.0442">
        <ele>2146.35</ele>
        <time>2017-02-21T11:24:04Z</time>
      </trkpt>
      <trkpt lat="42.84027" lon="0.04423">
        <ele>2145.07</ele>
        <time>2017-02-21T11:24:16Z</time>
      </trkpt>
      <trkpt lat="42.84026" lon="0.0443">
        <ele>2144.78</ele>
        <time>2017-02-21T11:24:18Z</time>
      </trkpt>
      <trkpt lat="42.84012" lon="0.04454">
        <ele>2143.18</ele>
        <time>2017-02-21T11:24:22Z</time>
      </trkpt>
      <trkpt lat="42.84008" lon="0.0446">
        <ele>2141.43</ele>
        <time>2017-02-21T11:24:24Z</time>
      </trkpt>
      <trkpt lat="42.84015" lon="0.04469">
        <ele>2137.88</ele>
        <time>2017-02-21T11:24:28Z</time>
      </trkpt>
      <trkpt lat="42.84023" lon="0.04489">
        <ele>2131.92</ele>
        <time>2017-02-21T11:24:33Z</time>
      </trkpt>
      <trkpt lat="42.84019" lon="0.045">
        <ele>2128.64</ele>
        <time>2017-02-21T11:24:35Z</time>
      </trkpt>
      <trkpt lat="42.84023" lon="0.04515">
        <ele>2125.36</ele>
        <time>2017-02-21T11:24:37Z</time>
      </trkpt>
      <trkpt lat="42.84022" lon="0.0454">
        <ele>2122.33</ele>
        <time>2017-02-21T11:24:39Z</time>
      </trkpt>
      <trkpt lat="42.84016" lon="0.04566">
        <ele>2118.5</ele>
        <time>2017-02-21T11:24:41Z</time>
      </trkpt>
      <trkpt lat="42.84006" lon="0.04598">
        <ele>2111.95</ele>
        <time>2017-02-21T11:24:44Z</time>
      </trkpt>
      <trkpt lat="42.84002" lon="0.04617">
        <ele>2108.31</ele>
        <time>2017-02-21T11:24:46Z</time>
      </trkpt>
      <trkpt lat="42.84001" lon="0.04634">
        <ele>2105.18</ele>
        <time>2017-02-21T11:24:48Z</time>
      </trkpt>
      <trkpt lat="42.83998" lon="0.0465">
        <ele>2099.2</ele>
        <time>2017-02-21T11:24:52Z</time>
      </trkpt>
      <trkpt lat="42.83998" lon="0.0465">
        <ele>2095.94</ele>
        <time>2017-02-21T11:24:59Z</time>
      </trkpt>
      <trkpt lat="42.83999" lon="0.04648">
        <ele>2094.79</ele>
        <time>2017-02-21T11:25:30Z</time>
      </trkpt>
      <trkpt lat="42.83999" lon="0.04648">
        <ele>2094.94</ele>
        <time>2017-02-21T11:26:04Z</time>
      </trkpt>
      <trkpt lat="42.83998" lon="0.04648">
        <ele>2095.45</ele>
        <time>2017-02-21T11:26:40Z</time>
      </trkpt>
      <trkpt lat="42.83998" lon="0.04648">
        <ele>2094.22</ele>
        <time>2017-02-21T11:27:05Z</time>
      </trkpt>
      <trkpt lat="42.83995" lon="0.04647">
        <ele>2093.99</ele>
        <time>2017-02-21T11:27:45Z</time>
      </trkpt>
      <trkpt lat="42.83997" lon="0.04648">
        <ele>2093.98</ele>
        <time>2017-02-21T11:28:12Z</time>
      </trkpt>
      <trkpt lat="42.83998" lon="0.04647">
        <ele>2095.12</ele>
        <time>2017-02-21T11:28:24Z</time>
      </trkpt>
      <trkpt lat="42.83999" lon="0.04647">
        <ele>2094.85</ele>
        <time>2017-02-21T11:28:40Z</time>
      </trkpt>
      <trkpt lat="42.83998" lon="0.0465">
        <ele>2095</ele>
        <time>2017-02-21T11:28:44Z</time>
      </trkpt>
      <trkpt lat="42.83994" lon="0.04665">
        <ele>2095.04</ele>
        <time>2017-02-21T11:28:50Z</time>
      </trkpt>
      <trkpt lat="42.83974" lon="0.04699">
        <ele>2092.95</ele>
        <time>2017-02-21T11:29:04Z</time>
      </trkpt>
      <trkpt lat="42.83971" lon="0.04703">
        <ele>2092.09</ele>
        <time>2017-02-21T11:29:15Z</time>
      </trkpt>
      <trkpt lat="42.83971" lon="0.04703">
        <ele>2091.94</ele>
        <time>2017-02-21T11:29:21Z</time>
      </trkpt>
      <trkpt lat="42.83952" lon="0.04728">
        <ele>2091.36</ele>
        <time>2017-02-21T11:29:29Z</time>
      </trkpt>
      <trkpt lat="42.83948" lon="0.0475">
        <ele>2089.3</ele>
        <time>2017-02-21T11:29:33Z</time>
      </trkpt>
      <trkpt lat="42.83937" lon="0.04755">
        <ele>2086.83</ele>
        <time>2017-02-21T11:29:35Z</time>
      </trkpt>
      <trkpt lat="42.83933" lon="0.04776">
        <ele>2081.14</ele>
        <time>2017-02-21T11:29:39Z</time>
      </trkpt>
      <trkpt lat="42.83926" lon="0.04812">
        <ele>2076.62</ele>
        <time>2017-02-21T11:29:42Z</time>
      </trkpt>
      <trkpt lat="42.8391" lon="0.04851">
        <ele>2068.21</ele>
        <time>2017-02-21T11:29:45Z</time>
      </trkpt>
      <trkpt lat="42.839" lon="0.04876">
        <ele>2064.02</ele>
        <time>2017-02-21T11:29:47Z</time>
      </trkpt>
      <trkpt lat="42.83898" lon="0.04907">
        <ele>2058.11</ele>
        <time>2017-02-21T11:29:50Z</time>
      </trkpt>
      <trkpt lat="42.83905" lon="0.04927">
        <ele>2054.1</ele>
        <time>2017-02-21T11:29:52Z</time>
      </trkpt>
      <trkpt lat="42.8391" lon="0.0494">
        <ele>2050.07</ele>
        <time>2017-02-21T11:29:54Z</time>
      </trkpt>
      <trkpt lat="42.83909" lon="0.04942">
        <ele>2046.07</ele>
        <time>2017-02-21T11:29:56Z</time>
      </trkpt>
      <trkpt lat="42.8391" lon="0.04942">
        <ele>2042.75</ele>
        <time>2017-02-21T11:29:58Z</time>
      </trkpt>
      <trkpt lat="42.83909" lon="0.04941">
        <ele>2039.65</ele>
        <time>2017-02-21T11:30:01Z</time>
      </trkpt>
      <trkpt lat="42.8391" lon="0.0494">
        <ele>2037.31</ele>
        <time>2017-02-21T11:30:06Z</time>
      </trkpt>
      <trkpt lat="42.8391" lon="0.04939">
        <ele>2035.28</ele>
        <time>2017-02-21T11:30:57Z</time>
      </trkpt>
      <trkpt lat="42.83911" lon="0.04939">
        <ele>2035.56</ele>
        <time>2017-02-21T11:31:42Z</time>
      </trkpt>
      <trkpt lat="42.83909" lon="0.04937">
        <ele>2035.35</ele>
        <time>2017-02-21T11:32:24Z</time>
      </trkpt>
      <trkpt lat="42.8391" lon="0.04936">
        <ele>2035.42</ele>
        <time>2017-02-21T11:33:09Z</time>
      </trkpt>
      <trkpt lat="42.8391" lon="0.04937">
        <ele>2035.01</ele>
        <time>2017-02-21T11:33:54Z</time>
      </trkpt>
      <trkpt lat="42.83908" lon="0.04936">
        <ele>2034.81</ele>
        <time>2017-02-21T11:34:34Z</time>
      </trkpt>
      <trkpt lat="42.8391" lon="0.04937">
        <ele>2035.63</ele>
        <time>2017-02-21T11:35:10Z</time>
      </trkpt>
      <trkpt lat="42.8391" lon="0.04937">
        <ele>2036.01</ele>
        <time>2017-02-21T11:35:34Z</time>
      </trkpt>
      <trkpt lat="42.8391" lon="0.04937">
        <ele>2036.33</ele>
        <time>2017-02-21T11:36:00Z</time>
      </trkpt>
      <trkpt lat="42.83908" lon="0.04938">
        <ele>2036.78</ele>
        <time>2017-02-21T11:36:15Z</time>
      </trkpt>
      <trkpt lat="42.83907" lon="0.04939">
        <ele>2036.66</ele>
        <time>2017-02-21T11:36:46Z</time>
      </trkpt>
      <trkpt lat="42.83907" lon="0.04942">
        <ele>2036.75</ele>
        <time>2017-02-21T11:37:15Z</time>
      </trkpt>
      <trkpt lat="42.83906" lon="0.04941">
        <ele>2036.77</ele>
        <time>2017-02-21T11:37:50Z</time>
      </trkpt>
      <trkpt lat="42.83906" lon="0.04941">
        <ele>2036.77</ele>
        <time>2017-02-21T11:38:20Z</time>
      </trkpt>
      <trkpt lat="42.83907" lon="0.04939">
        <ele>2037.25</ele>
        <time>2017-02-21T11:39:01Z</time>
      </trkpt>
      <trkpt lat="42.83902" lon="0.0494">
        <ele>2037.49</ele>
        <time>2017-02-21T11:39:23Z</time>
      </trkpt>
      <trkpt lat="42.83898" lon="0.04941">
        <ele>2037.43</ele>
        <time>2017-02-21T11:39:56Z</time>
      </trkpt>
      <trkpt lat="42.83897" lon="0.04943">
        <ele>2037.41</ele>
        <time>2017-02-21T11:39:58Z</time>
      </trkpt>
      <trkpt lat="42.83895" lon="0.04945">
        <ele>2037.66</ele>
        <time>2017-02-21T11:40:14Z</time>
      </trkpt>
      <trkpt lat="42.8389" lon="0.04948">
        <ele>2038.84</ele>
        <time>2017-02-21T11:40:31Z</time>
      </trkpt>
      <trkpt lat="42.8388" lon="0.04957">
        <ele>2041.1</ele>
        <time>2017-02-21T11:40:47Z</time>
      </trkpt>
      <trkpt lat="42.83871" lon="0.04966">
        <ele>2043.83</ele>
        <time>2017-02-21T11:41:03Z</time>
      </trkpt>
      <trkpt lat="42.83861" lon="0.04968">
        <ele>2046.87</ele>
        <time>2017-02-21T11:41:18Z</time>
      </trkpt>
      <trkpt lat="42.83854" lon="0.0497">
        <ele>2048.45</ele>
        <time>2017-02-21T11:41:34Z</time>
      </trkpt>
      <trkpt lat="42.83844" lon="0.04977">
        <ele>2050.68</ele>
        <time>2017-02-21T11:41:50Z</time>
      </trkpt>
      <trkpt lat="42.83834" lon="0.04985">
        <ele>2052.34</ele>
        <time>2017-02-21T11:42:06Z</time>
      </trkpt>
      <trkpt lat="42.83824" lon="0.04993">
        <ele>2054.95</ele>
        <time>2017-02-21T11:42:22Z</time>
      </trkpt>
      <trkpt lat="42.83812" lon="0.05">
        <ele>2057.62</ele>
        <time>2017-02-21T11:42:42Z</time>
      </trkpt>
      <trkpt lat="42.83803" lon="0.05006">
        <ele>2059.44</ele>
        <time>2017-02-21T11:42:56Z</time>
      </trkpt>
      <trkpt lat="42.83793" lon="0.05015">
        <ele>2061.36</ele>
        <time>2017-02-21T11:43:13Z</time>
      </trkpt>
      <trkpt lat="42.83787" lon="0.05026">
        <ele>2063.41</ele>
        <time>2017-02-21T11:43:27Z</time>
      </trkpt>
      <trkpt lat="42.83778" lon="0.05034">
        <ele>2065.35</ele>
        <time>2017-02-21T11:43:41Z</time>
      </trkpt>
      <trkpt lat="42.83772" lon="0.05045">
        <ele>2067.47</ele>
        <time>2017-02-21T11:43:56Z</time>
      </trkpt>
      <trkpt lat="42.83765" lon="0.05058">
        <ele>2070.02</ele>
        <time>2017-02-21T11:44:12Z</time>
      </trkpt>
      <trkpt lat="42.83756" lon="0.05067">
        <ele>2072.72</ele>
        <time>2017-02-21T11:44:28Z</time>
      </trkpt>
      <trkpt lat="42.83746" lon="0.05074">
        <ele>2075.83</ele>
        <time>2017-02-21T11:44:45Z</time>
      </trkpt>
      <trkpt lat="42.83741" lon="0.05086">
        <ele>2077.36</ele>
        <time>2017-02-21T11:44:59Z</time>
      </trkpt>
      <trkpt lat="42.83734" lon="0.05098">
        <ele>2079.55</ele>
        <time>2017-02-21T11:45:15Z</time>
      </trkpt>
      <trkpt lat="42.83727" lon="0.0511">
        <ele>2082.67</ele>
        <time>2017-02-21T11:45:32Z</time>
      </trkpt>
      <trkpt lat="42.83723" lon="0.05122">
        <ele>2084.78</ele>
        <time>2017-02-21T11:45:46Z</time>
      </trkpt>
      <trkpt lat="42.83717" lon="0.05116">
        <ele>2088.15</ele>
        <time>2017-02-21T11:45:58Z</time>
      </trkpt>
      <trkpt lat="42.8371" lon="0.05113">
        <ele>2090.42</ele>
        <time>2017-02-21T11:46:13Z</time>
      </trkpt>
      <trkpt lat="42.83708" lon="0.05127">
        <ele>2092.87</ele>
        <time>2017-02-21T11:46:31Z</time>
      </trkpt>
      <trkpt lat="42.83711" lon="0.05142">
        <ele>2095.79</ele>
        <time>2017-02-21T11:46:48Z</time>
      </trkpt>
      <trkpt lat="42.83714" lon="0.05152">
        <ele>2098.3</ele>
        <time>2017-02-21T11:47:03Z</time>
      </trkpt>
      <trkpt lat="42.83707" lon="0.05146">
        <ele>2100.35</ele>
        <time>2017-02-21T11:47:17Z</time>
      </trkpt>
      <trkpt lat="42.83697" lon="0.05142">
        <ele>2103.45</ele>
        <time>2017-02-21T11:47:35Z</time>
      </trkpt>
      <trkpt lat="42.83697" lon="0.05145">
        <ele>2104.91</ele>
        <time>2017-02-21T11:47:48Z</time>
      </trkpt>
      <trkpt lat="42.837" lon="0.05159">
        <ele>2106.77</ele>
        <time>2017-02-21T11:48:05Z</time>
      </trkpt>
      <trkpt lat="42.83698" lon="0.05173">
        <ele>2109.61</ele>
        <time>2017-02-21T11:48:22Z</time>
      </trkpt>
      <trkpt lat="42.83695" lon="0.05184">
        <ele>2112.39</ele>
        <time>2017-02-21T11:48:36Z</time>
      </trkpt>
      <trkpt lat="42.83693" lon="0.05185">
        <ele>2114.64</ele>
        <time>2017-02-21T11:48:47Z</time>
      </trkpt>
      <trkpt lat="42.83686" lon="0.0518">
        <ele>2116.9</ele>
        <time>2017-02-21T11:49:02Z</time>
      </trkpt>
      <trkpt lat="42.83681" lon="0.05179">
        <ele>2119.3</ele>
        <time>2017-02-21T11:49:21Z</time>
      </trkpt>
      <trkpt lat="42.83679" lon="0.05193">
        <ele>2121.34</ele>
        <time>2017-02-21T11:49:37Z</time>
      </trkpt>
      <trkpt lat="42.83678" lon="0.05202">
        <ele>2124.3</ele>
        <time>2017-02-21T11:49:52Z</time>
      </trkpt>
      <trkpt lat="42.83671" lon="0.05195">
        <ele>2127</ele>
        <time>2017-02-21T11:50:06Z</time>
      </trkpt>
      <trkpt lat="42.83665" lon="0.05186">
        <ele>2129.15</ele>
        <time>2017-02-21T11:50:20Z</time>
      </trkpt>
      <trkpt lat="42.83658" lon="0.05175">
        <ele>2131.52</ele>
        <time>2017-02-21T11:50:37Z</time>
      </trkpt>
      <trkpt lat="42.83656" lon="0.05184">
        <ele>2132.64</ele>
        <time>2017-02-21T11:50:48Z</time>
      </trkpt>
      <trkpt lat="42.83653" lon="0.05198">
        <ele>2135.78</ele>
        <time>2017-02-21T11:51:06Z</time>
      </trkpt>
      <trkpt lat="42.83648" lon="0.05189">
        <ele>2137.88</ele>
        <time>2017-02-21T11:51:19Z</time>
      </trkpt>
      <trkpt lat="42.83642" lon="0.0518">
        <ele>2140.97</ele>
        <time>2017-02-21T11:51:35Z</time>
      </trkpt>
      <trkpt lat="42.83638" lon="0.05183">
        <ele>2142.38</ele>
        <time>2017-02-21T11:51:49Z</time>
      </trkpt>
      <trkpt lat="42.83636" lon="0.05195">
        <ele>2144.7</ele>
        <time>2017-02-21T11:52:04Z</time>
      </trkpt>
      <trkpt lat="42.83632" lon="0.05208">
        <ele>2147.1</ele>
        <time>2017-02-21T11:52:19Z</time>
      </trkpt>
      <trkpt lat="42.8363" lon="0.0521">
        <ele>2149.79</ele>
        <time>2017-02-21T11:52:35Z</time>
      </trkpt>
      <trkpt lat="42.83628" lon="0.05205">
        <ele>2150.96</ele>
        <time>2017-02-21T11:52:55Z</time>
      </trkpt>
      <trkpt lat="42.83621" lon="0.05195">
        <ele>2153.68</ele>
        <time>2017-02-21T11:53:12Z</time>
      </trkpt>
      <trkpt lat="42.83617" lon="0.05191">
        <ele>2155.86</ele>
        <time>2017-02-21T11:53:28Z</time>
      </trkpt>
      <trkpt lat="42.83616" lon="0.05201">
        <ele>2157.2</ele>
        <time>2017-02-21T11:53:43Z</time>
      </trkpt>
      <trkpt lat="42.83615" lon="0.05213">
        <ele>2159.73</ele>
        <time>2017-02-21T11:53:57Z</time>
      </trkpt>
      <trkpt lat="42.83613" lon="0.05213">
        <ele>2162.03</ele>
        <time>2017-02-21T11:54:11Z</time>
      </trkpt>
      <trkpt lat="42.83605" lon="0.05203">
        <ele>2164.3</ele>
        <time>2017-02-21T11:54:28Z</time>
      </trkpt>
      <trkpt lat="42.83599" lon="0.0519">
        <ele>2167.23</ele>
        <time>2017-02-21T11:54:46Z</time>
      </trkpt>
      <trkpt lat="42.83595" lon="0.05181">
        <ele>2169.74</ele>
        <time>2017-02-21T11:55:00Z</time>
      </trkpt>
      <trkpt lat="42.8359" lon="0.05172">
        <ele>2172.11</ele>
        <time>2017-02-21T11:55:15Z</time>
      </trkpt>
      <trkpt lat="42.83588" lon="0.05174">
        <ele>2174.19</ele>
        <time>2017-02-21T11:55:30Z</time>
      </trkpt>
      <trkpt lat="42.83584" lon="0.05184">
        <ele>2175.83</ele>
        <time>2017-02-21T11:55:44Z</time>
      </trkpt>
      <trkpt lat="42.83583" lon="0.05198">
        <ele>2179.1</ele>
        <time>2017-02-21T11:56:02Z</time>
      </trkpt>
      <trkpt lat="42.8358" lon="0.05209">
        <ele>2181.24</ele>
        <time>2017-02-21T11:56:17Z</time>
      </trkpt>
      <trkpt lat="42.83572" lon="0.05199">
        <ele>2183.86</ele>
        <time>2017-02-21T11:56:34Z</time>
      </trkpt>
      <trkpt lat="42.83568" lon="0.05201">
        <ele>2185.37</ele>
        <time>2017-02-21T11:56:45Z</time>
      </trkpt>
      <trkpt lat="42.83568" lon="0.05215">
        <ele>2187.68</ele>
        <time>2017-02-21T11:57:01Z</time>
      </trkpt>
      <trkpt lat="42.83568" lon="0.05219">
        <ele>2189.17</ele>
        <time>2017-02-21T11:57:17Z</time>
      </trkpt>
      <trkpt lat="42.83568" lon="0.05218">
        <ele>2189.86</ele>
        <time>2017-02-21T11:57:59Z</time>
      </trkpt>
      <trkpt lat="42.83568" lon="0.05218">
        <ele>2189.71</ele>
        <time>2017-02-21T11:58:27Z</time>
      </trkpt>
      <trkpt lat="42.83569" lon="0.05219">
        <ele>2189.44</ele>
        <time>2017-02-21T11:59:11Z</time>
      </trkpt>
      <trkpt lat="42.83569" lon="0.05219">
        <ele>2189.75</ele>
        <time>2017-02-21T11:59:46Z</time>
      </trkpt>
      <trkpt lat="42.83569" lon="0.0522">
        <ele>2189.49</ele>
        <time>2017-02-21T12:00:25Z</time>
      </trkpt>
      <trkpt lat="42.8357" lon="0.05218">
        <ele>2189.71</ele>
        <time>2017-02-21T12:00:52Z</time>
      </trkpt>
      <trkpt lat="42.83568" lon="0.05218">
        <ele>2189.78</ele>
        <time>2017-02-21T12:01:27Z</time>
      </trkpt>
      <trkpt lat="42.83567" lon="0.05217">
        <ele>2190.07</ele>
        <time>2017-02-21T12:01:52Z</time>
      </trkpt>
      <trkpt lat="42.83565" lon="0.05216">
        <ele>2190.11</ele>
        <time>2017-02-21T12:02:24Z</time>
      </trkpt>
      <trkpt lat="42.83565" lon="0.05217">
        <ele>2189.96</ele>
        <time>2017-02-21T12:02:56Z</time>
      </trkpt>
      <trkpt lat="42.83566" lon="0.05217">
        <ele>2189.63</ele>
        <time>2017-02-21T12:03:32Z</time>
      </trkpt>
      <trkpt lat="42.83568" lon="0.05217">
        <ele>2189.52</ele>
        <time>2017-02-21T12:04:14Z</time>
      </trkpt>
      <trkpt lat="42.83567" lon="0.05216">
        <ele>2189.66</ele>
        <time>2017-02-21T12:04:59Z</time>
      </trkpt>
      <trkpt lat="42.83567" lon="0.05216">
        <ele>2189.56</ele>
        <time>2017-02-21T12:05:24Z</time>
      </trkpt>
      <trkpt lat="42.83568" lon="0.05217">
        <ele>2190.15</ele>
        <time>2017-02-21T12:06:07Z</time>
      </trkpt>
      <trkpt lat="42.83567" lon="0.05215">
        <ele>2190.53</ele>
        <time>2017-02-21T12:06:27Z</time>
      </trkpt>
      <trkpt lat="42.83566" lon="0.05215">
        <ele>2190.64</ele>
        <time>2017-02-21T12:07:08Z</time>
      </trkpt>
      <trkpt lat="42.83567" lon="0.05215">
        <ele>2190.8</ele>
        <time>2017-02-21T12:07:34Z</time>
      </trkpt>
      <trkpt lat="42.83566" lon="0.05214">
        <ele>2190.83</ele>
        <time>2017-02-21T12:07:59Z</time>
      </trkpt>
      <trkpt lat="42.83568" lon="0.0521">
        <ele>2190.09</ele>
        <time>2017-02-21T12:08:24Z</time>
      </trkpt>
      <trkpt lat="42.83566" lon="0.05213">
        <ele>2189.94</ele>
        <time>2017-02-21T12:08:52Z</time>
      </trkpt>
      <trkpt lat="42.83567" lon="0.05211">
        <ele>2190.23</ele>
        <time>2017-02-21T12:09:20Z</time>
      </trkpt>
      <trkpt lat="42.83566" lon="0.05213">
        <ele>2191.14</ele>
        <time>2017-02-21T12:09:31Z</time>
      </trkpt>
      <trkpt lat="42.83566" lon="0.05215">
        <ele>2191.61</ele>
        <time>2017-02-21T12:09:53Z</time>
      </trkpt>
      <trkpt lat="42.83564" lon="0.05214">
        <ele>2192.06</ele>
        <time>2017-02-21T12:10:15Z</time>
      </trkpt>
      <trkpt lat="42.83554" lon="0.05206">
        <ele>2192.96</ele>
        <time>2017-02-21T12:10:31Z</time>
      </trkpt>
      <trkpt lat="42.83543" lon="0.05193">
        <ele>2195.61</ele>
        <time>2017-02-21T12:10:51Z</time>
      </trkpt>
      <trkpt lat="42.83536" lon="0.05182">
        <ele>2197.3</ele>
        <time>2017-02-21T12:11:08Z</time>
      </trkpt>
      <trkpt lat="42.83533" lon="0.05176">
        <ele>2199.61</ele>
        <time>2017-02-21T12:11:25Z</time>
      </trkpt>
      <trkpt lat="42.83527" lon="0.05187">
        <ele>2201.31</ele>
        <time>2017-02-21T12:11:41Z</time>
      </trkpt>
      <trkpt lat="42.83524" lon="0.0518">
        <ele>2203.65</ele>
        <time>2017-02-21T12:11:55Z</time>
      </trkpt>
      <trkpt lat="42.83522" lon="0.05167">
        <ele>2206.68</ele>
        <time>2017-02-21T12:12:12Z</time>
      </trkpt>
      <trkpt lat="42.83521" lon="0.05155">
        <ele>2209.32</ele>
        <time>2017-02-21T12:12:29Z</time>
      </trkpt>
      <trkpt lat="42.8352" lon="0.05143">
        <ele>2211.83</ele>
        <time>2017-02-21T12:12:44Z</time>
      </trkpt>
      <trkpt lat="42.83517" lon="0.0513">
        <ele>2214.49</ele>
        <time>2017-02-21T12:12:59Z</time>
      </trkpt>
      <trkpt lat="42.83512" lon="0.05119">
        <ele>2216.69</ele>
        <time>2017-02-21T12:13:14Z</time>
      </trkpt>
      <trkpt lat="42.8351" lon="0.05119">
        <ele>2218.25</ele>
        <time>2017-02-21T12:13:26Z</time>
      </trkpt>
      <trkpt lat="42.83504" lon="0.05129">
        <ele>2220.6</ele>
        <time>2017-02-21T12:13:41Z</time>
      </trkpt>
      <trkpt lat="42.83498" lon="0.05137">
        <ele>2223.6</ele>
        <time>2017-02-21T12:13:58Z</time>
      </trkpt>
      <trkpt lat="42.83495" lon="0.05127">
        <ele>2225.51</ele>
        <time>2017-02-21T12:14:12Z</time>
      </trkpt>
      <trkpt lat="42.83491" lon="0.05134">
        <ele>2226.95</ele>
        <time>2017-02-21T12:14:25Z</time>
      </trkpt>
      <trkpt lat="42.83487" lon="0.05141">
        <ele>2228.42</ele>
        <time>2017-02-21T12:14:37Z</time>
      </trkpt>
      <trkpt lat="42.83479" lon="0.05152">
        <ele>2231.31</ele>
        <time>2017-02-21T12:14:54Z</time>
      </trkpt>
      <trkpt lat="42.83474" lon="0.05151">
        <ele>2234.13</ele>
        <time>2017-02-21T12:15:06Z</time>
      </trkpt>
      <trkpt lat="42.83471" lon="0.05151">
        <ele>2236.32</ele>
        <time>2017-02-21T12:15:18Z</time>
      </trkpt>
      <trkpt lat="42.83464" lon="0.05159">
        <ele>2238.05</ele>
        <time>2017-02-21T12:15:33Z</time>
      </trkpt>
      <trkpt lat="42.8346" lon="0.05165">
        <ele>2240.37</ele>
        <time>2017-02-21T12:15:46Z</time>
      </trkpt>
      <trkpt lat="42.83459" lon="0.05153">
        <ele>2242.12</ele>
        <time>2017-02-21T12:16:00Z</time>
      </trkpt>
      <trkpt lat="42.83455" lon="0.05143">
        <ele>2243.87</ele>
        <time>2017-02-21T12:16:13Z</time>
      </trkpt>
      <trkpt lat="42.8345" lon="0.05129">
        <ele>2246.68</ele>
        <time>2017-02-21T12:16:29Z</time>
      </trkpt>
      <trkpt lat="42.83443" lon="0.05121">
        <ele>2248.99</ele>
        <time>2017-02-21T12:16:44Z</time>
      </trkpt>
      <trkpt lat="42.83436" lon="0.05115">
        <ele>2251.44</ele>
        <time>2017-02-21T12:16:58Z</time>
      </trkpt>
      <trkpt lat="42.83428" lon="0.05107">
        <ele>2254.25</ele>
        <time>2017-02-21T12:17:14Z</time>
      </trkpt>
      <trkpt lat="42.83422" lon="0.05097">
        <ele>2256.62</ele>
        <time>2017-02-21T12:17:30Z</time>
      </trkpt>
      <trkpt lat="42.83417" lon="0.05087">
        <ele>2259.56</ele>
        <time>2017-02-21T12:17:44Z</time>
      </trkpt>
      <trkpt lat="42.83411" lon="0.05076">
        <ele>2261.99</ele>
        <time>2017-02-21T12:18:00Z</time>
      </trkpt>
      <trkpt lat="42.8341" lon="0.05073">
        <ele>2262.87</ele>
        <time>2017-02-21T12:18:05Z</time>
      </trkpt>
      <trkpt lat="42.83408" lon="0.05072">
        <ele>2265.04</ele>
        <time>2017-02-21T12:18:18Z</time>
      </trkpt>
      <trkpt lat="42.83404" lon="0.05085">
        <ele>2266.14</ele>
        <time>2017-02-21T12:18:33Z</time>
      </trkpt>
      <trkpt lat="42.83402" lon="0.05091">
        <ele>2268.62</ele>
        <time>2017-02-21T12:18:47Z</time>
      </trkpt>
      <trkpt lat="42.83398" lon="0.0509">
        <ele>2269.8</ele>
        <time>2017-02-21T12:18:58Z</time>
      </trkpt>
      <trkpt lat="42.83389" lon="0.05082">
        <ele>2272.19</ele>
        <time>2017-02-21T12:19:12Z</time>
      </trkpt>
      <trkpt lat="42.83379" lon="0.05076">
        <ele>2275.16</ele>
        <time>2017-02-21T12:19:29Z</time>
      </trkpt>
      <trkpt lat="42.83371" lon="0.05082">
        <ele>2277.67</ele>
        <time>2017-02-21T12:19:44Z</time>
      </trkpt>
      <trkpt lat="42.83363" lon="0.05079">
        <ele>2280.32</ele>
        <time>2017-02-21T12:19:58Z</time>
      </trkpt>
      <trkpt lat="42.83357" lon="0.05072">
        <ele>2281.95</ele>
        <time>2017-02-21T12:20:10Z</time>
      </trkpt>
      <trkpt lat="42.83351" lon="0.05068">
        <ele>2283.43</ele>
        <time>2017-02-21T12:20:18Z</time>
      </trkpt>
      <trkpt lat="42.83339" lon="0.05065">
        <ele>2285.79</ele>
        <time>2017-02-21T12:20:35Z</time>
      </trkpt>
      <trkpt lat="42.83325" lon="0.05065">
        <ele>2287.82</ele>
        <time>2017-02-21T12:20:54Z</time>
      </trkpt>
      <trkpt lat="42.8332" lon="0.05067">
        <ele>2288.6</ele>
        <time>2017-02-21T12:21:00Z</time>
      </trkpt>
      <trkpt lat="42.83306" lon="0.05074">
        <ele>2290.19</ele>
        <time>2017-02-21T12:21:18Z</time>
      </trkpt>
      <trkpt lat="42.83293" lon="0.0508">
        <ele>2292.29</ele>
        <time>2017-02-21T12:21:35Z</time>
      </trkpt>
      <trkpt lat="42.83282" lon="0.05086">
        <ele>2294.59</ele>
        <time>2017-02-21T12:21:51Z</time>
      </trkpt>
      <trkpt lat="42.8327" lon="0.05094">
        <ele>2296.61</ele>
        <time>2017-02-21T12:22:09Z</time>
      </trkpt>
      <trkpt lat="42.83269" lon="0.05095">
        <ele>2296.88</ele>
        <time>2017-02-21T12:22:11Z</time>
      </trkpt>
      <trkpt lat="42.8326" lon="0.051">
        <ele>2298.46</ele>
        <time>2017-02-21T12:22:26Z</time>
      </trkpt>
      <trkpt lat="42.8326" lon="0.051">
        <ele>2298.41</ele>
        <time>2017-02-21T12:22:43Z</time>
      </trkpt>
      <trkpt lat="42.83257" lon="0.05099">
        <ele>2297.31</ele>
        <time>2017-02-21T12:23:42Z</time>
      </trkpt>
      <trkpt lat="42.83261" lon="0.05098">
        <ele>2297.94</ele>
        <time>2017-02-21T12:24:13Z</time>
      </trkpt>
      <trkpt lat="42.83261" lon="0.05099">
        <ele>2298.28</ele>
        <time>2017-02-21T12:24:30Z</time>
      </trkpt>
      <trkpt lat="42.8326" lon="0.05098">
        <ele>2298.81</ele>
        <time>2017-02-21T12:24:46Z</time>
      </trkpt>
      <trkpt lat="42.8326" lon="0.05098">
        <ele>2298.41</ele>
        <time>2017-02-21T12:25:26Z</time>
      </trkpt>
      <trkpt lat="42.83257" lon="0.05102">
        <ele>2299.09</ele>
        <time>2017-02-21T12:25:44Z</time>
      </trkpt>
      <trkpt lat="42.83245" lon="0.05102">
        <ele>2301.9</ele>
        <time>2017-02-21T12:26:03Z</time>
      </trkpt>
      <trkpt lat="42.83236" lon="0.05103">
        <ele>2304.55</ele>
        <time>2017-02-21T12:26:21Z</time>
      </trkpt>
      <trkpt lat="42.83226" lon="0.05102">
        <ele>2306.97</ele>
        <time>2017-02-21T12:26:38Z</time>
      </trkpt>
      <trkpt lat="42.83218" lon="0.05099">
        <ele>2309.12</ele>
        <time>2017-02-21T12:26:51Z</time>
      </trkpt>
      <trkpt lat="42.83208" lon="0.05097">
        <ele>2311.77</ele>
        <time>2017-02-21T12:27:06Z</time>
      </trkpt>
      <trkpt lat="42.83199" lon="0.05096">
        <ele>2314.43</ele>
        <time>2017-02-21T12:27:23Z</time>
      </trkpt>
      <trkpt lat="42.83193" lon="0.05094">
        <ele>2316.3</ele>
        <time>2017-02-21T12:27:33Z</time>
      </trkpt>
      <trkpt lat="42.83185" lon="0.05093">
        <ele>2318.91</ele>
        <time>2017-02-21T12:27:51Z</time>
      </trkpt>
      <trkpt lat="42.83174" lon="0.05092">
        <ele>2320.9</ele>
        <time>2017-02-21T12:28:06Z</time>
      </trkpt>
      <trkpt lat="42.83163" lon="0.05092">
        <ele>2323.51</ele>
        <time>2017-02-21T12:28:22Z</time>
      </trkpt>
      <trkpt lat="42.83157" lon="0.05093">
        <ele>2325.68</ele>
        <time>2017-02-21T12:28:37Z</time>
      </trkpt>
      <trkpt lat="42.83156" lon="0.05101">
        <ele>2328.76</ele>
        <time>2017-02-21T12:28:53Z</time>
      </trkpt>
      <trkpt lat="42.83151" lon="0.05109">
        <ele>2330.93</ele>
        <time>2017-02-21T12:29:08Z</time>
      </trkpt>
      <trkpt lat="42.83141" lon="0.05104">
        <ele>2333.35</ele>
        <time>2017-02-21T12:29:25Z</time>
      </trkpt>
      <trkpt lat="42.8314" lon="0.05109">
        <ele>2335.18</ele>
        <time>2017-02-21T12:29:40Z</time>
      </trkpt>
      <trkpt lat="42.83139" lon="0.0512">
        <ele>2337.46</ele>
        <time>2017-02-21T12:29:57Z</time>
      </trkpt>
      <trkpt lat="42.83134" lon="0.05117">
        <ele>2339.61</ele>
        <time>2017-02-21T12:30:10Z</time>
      </trkpt>
      <trkpt lat="42.83128" lon="0.05113">
        <ele>2342.27</ele>
        <time>2017-02-21T12:30:27Z</time>
      </trkpt>
      <trkpt lat="42.83121" lon="0.05104">
        <ele>2344.54</ele>
        <time>2017-02-21T12:30:41Z</time>
      </trkpt>
      <trkpt lat="42.83118" lon="0.05111">
        <ele>2346.02</ele>
        <time>2017-02-21T12:30:56Z</time>
      </trkpt>
      <trkpt lat="42.83114" lon="0.0512">
        <ele>2348.39</ele>
        <time>2017-02-21T12:31:10Z</time>
      </trkpt>
      <trkpt lat="42.83111" lon="0.05132">
        <ele>2351.4</ele>
        <time>2017-02-21T12:31:29Z</time>
      </trkpt>
      <trkpt lat="42.83107" lon="0.05138">
        <ele>2354.4</ele>
        <time>2017-02-21T12:31:46Z</time>
      </trkpt>
      <trkpt lat="42.83102" lon="0.05132">
        <ele>2356.55</ele>
        <time>2017-02-21T12:32:02Z</time>
      </trkpt>
      <trkpt lat="42.83094" lon="0.05123">
        <ele>2359.56</ele>
        <time>2017-02-21T12:32:18Z</time>
      </trkpt>
      <trkpt lat="42.83086" lon="0.05118">
        <ele>2361.87</ele>
        <time>2017-02-21T12:32:33Z</time>
      </trkpt>
      <trkpt lat="42.83083" lon="0.05127">
        <ele>2364.92</ele>
        <time>2017-02-21T12:32:50Z</time>
      </trkpt>
      <trkpt lat="42.83081" lon="0.05135">
        <ele>2366.65</ele>
        <time>2017-02-21T12:33:00Z</time>
      </trkpt>
      <trkpt lat="42.83078" lon="0.05147">
        <ele>2369.07</ele>
        <time>2017-02-21T12:33:17Z</time>
      </trkpt>
      <trkpt lat="42.83077" lon="0.05156">
        <ele>2371.64</ele>
        <time>2017-02-21T12:33:33Z</time>
      </trkpt>
      <trkpt lat="42.83078" lon="0.05171">
        <ele>2374.22</ele>
        <time>2017-02-21T12:33:52Z</time>
      </trkpt>
      <trkpt lat="42.83073" lon="0.05169">
        <ele>2376.48</ele>
        <time>2017-02-21T12:34:06Z</time>
      </trkpt>
      <trkpt lat="42.83071" lon="0.05169">
        <ele>2376.78</ele>
        <time>2017-02-21T12:34:08Z</time>
      </trkpt>
      <trkpt lat="42.83065" lon="0.05163">
        <ele>2379.71</ele>
        <time>2017-02-21T12:34:26Z</time>
      </trkpt>
      <trkpt lat="42.83058" lon="0.05156">
        <ele>2382.16</ele>
        <time>2017-02-21T12:34:42Z</time>
      </trkpt>
      <trkpt lat="42.83051" lon="0.0515">
        <ele>2384.75</ele>
        <time>2017-02-21T12:34:57Z</time>
      </trkpt>
      <trkpt lat="42.83051" lon="0.05159">
        <ele>2386.18</ele>
        <time>2017-02-21T12:35:13Z</time>
      </trkpt>
      <trkpt lat="42.8305" lon="0.05172">
        <ele>2388.88</ele>
        <time>2017-02-21T12:35:28Z</time>
      </trkpt>
      <trkpt lat="42.8305" lon="0.05186">
        <ele>2391.68</ele>
        <time>2017-02-21T12:35:46Z</time>
      </trkpt>
      <trkpt lat="42.83047" lon="0.05186">
        <ele>2393.83</ele>
        <time>2017-02-21T12:36:00Z</time>
      </trkpt>
      <trkpt lat="42.83042" lon="0.0518">
        <ele>2396.18</ele>
        <time>2017-02-21T12:36:16Z</time>
      </trkpt>
      <trkpt lat="42.83035" lon="0.05174">
        <ele>2398.59</ele>
        <time>2017-02-21T12:36:31Z</time>
      </trkpt>
      <trkpt lat="42.83027" lon="0.05169">
        <ele>2400.29</ele>
        <time>2017-02-21T12:36:46Z</time>
      </trkpt>
      <trkpt lat="42.83027" lon="0.05175">
        <ele>2401.6</ele>
        <time>2017-02-21T12:37:00Z</time>
      </trkpt>
      <trkpt lat="42.83028" lon="0.05185">
        <ele>2404.36</ele>
        <time>2017-02-21T12:37:17Z</time>
      </trkpt>
      <trkpt lat="42.83029" lon="0.05195">
        <ele>2406.49</ele>
        <time>2017-02-21T12:37:31Z</time>
      </trkpt>
      <trkpt lat="42.83026" lon="0.05193">
        <ele>2408.5</ele>
        <time>2017-02-21T12:37:48Z</time>
      </trkpt>
      <trkpt lat="42.83021" lon="0.05192">
        <ele>2410.03</ele>
        <time>2017-02-21T12:37:59Z</time>
      </trkpt>
      <trkpt lat="42.83012" lon="0.05186">
        <ele>2412.87</ele>
        <time>2017-02-21T12:38:15Z</time>
      </trkpt>
      <trkpt lat="42.83004" lon="0.05181">
        <ele>2415.15</ele>
        <time>2017-02-21T12:38:28Z</time>
      </trkpt>
      <trkpt lat="42.83006" lon="0.05188">
        <ele>2416.46</ele>
        <time>2017-02-21T12:38:45Z</time>
      </trkpt>
      <trkpt lat="42.83007" lon="0.052">
        <ele>2419.21</ele>
        <time>2017-02-21T12:39:02Z</time>
      </trkpt>
      <trkpt lat="42.8301" lon="0.05206">
        <ele>2420.5</ele>
        <time>2017-02-21T12:39:17Z</time>
      </trkpt>
      <trkpt lat="42.83012" lon="0.05213">
        <ele>2422.61</ele>
        <time>2017-02-21T12:39:31Z</time>
      </trkpt>
      <trkpt lat="42.83011" lon="0.05212">
        <ele>2423.08</ele>
        <time>2017-02-21T12:39:35Z</time>
      </trkpt>
      <trkpt lat="42.83002" lon="0.05208">
        <ele>2424.44</ele>
        <time>2017-02-21T12:39:49Z</time>
      </trkpt>
      <trkpt lat="42.82997" lon="0.05205">
        <ele>2426.89</ele>
        <time>2017-02-21T12:40:06Z</time>
      </trkpt>
      <trkpt lat="42.82994" lon="0.05201">
        <ele>2429.03</ele>
        <time>2017-02-21T12:40:21Z</time>
      </trkpt>
      <trkpt lat="42.82992" lon="0.05198">
        <ele>2430.35</ele>
        <time>2017-02-21T12:40:31Z</time>
      </trkpt>
      <trkpt lat="42.82993" lon="0.05204">
        <ele>2431.1</ele>
        <time>2017-02-21T12:40:46Z</time>
      </trkpt>
      <trkpt lat="42.82994" lon="0.05215">
        <ele>2432.67</ele>
        <time>2017-02-21T12:41:02Z</time>
      </trkpt>
      <trkpt lat="42.82996" lon="0.05222">
        <ele>2434.66</ele>
        <time>2017-02-21T12:41:15Z</time>
      </trkpt>
      <trkpt lat="42.82996" lon="0.05225">
        <ele>2436.77</ele>
        <time>2017-02-21T12:41:31Z</time>
      </trkpt>
      <trkpt lat="42.82996" lon="0.05232">
        <ele>2438</ele>
        <time>2017-02-21T12:41:45Z</time>
      </trkpt>
      <trkpt lat="42.82989" lon="0.05229">
        <ele>2439.75</ele>
        <time>2017-02-21T12:42:01Z</time>
      </trkpt>
      <trkpt lat="42.82979" lon="0.05224">
        <ele>2442.32</ele>
        <time>2017-02-21T12:42:16Z</time>
      </trkpt>
      <trkpt lat="42.82974" lon="0.05218">
        <ele>2444.54</ele>
        <time>2017-02-21T12:42:31Z</time>
      </trkpt>
      <trkpt lat="42.82974" lon="0.05223">
        <ele>2446.1</ele>
        <time>2017-02-21T12:42:48Z</time>
      </trkpt>
      <trkpt lat="42.82978" lon="0.05236">
        <ele>2448.76</ele>
        <time>2017-02-21T12:43:07Z</time>
      </trkpt>
      <trkpt lat="42.8298" lon="0.05243">
        <ele>2450.91</ele>
        <time>2017-02-21T12:43:24Z</time>
      </trkpt>
      <trkpt lat="42.82973" lon="0.05239">
        <ele>2452.1</ele>
        <time>2017-02-21T12:43:40Z</time>
      </trkpt>
      <trkpt lat="42.8297" lon="0.05236">
        <ele>2453.87</ele>
        <time>2017-02-21T12:43:52Z</time>
      </trkpt>
      <trkpt lat="42.82967" lon="0.05234">
        <ele>2456.16</ele>
        <time>2017-02-21T12:44:07Z</time>
      </trkpt>
      <trkpt lat="42.82967" lon="0.05241">
        <ele>2456.91</ele>
        <time>2017-02-21T12:44:23Z</time>
      </trkpt>
      <trkpt lat="42.82968" lon="0.05249">
        <ele>2458.61</ele>
        <time>2017-02-21T12:44:37Z</time>
      </trkpt>
      <trkpt lat="42.82969" lon="0.05259">
        <ele>2461.32</ele>
        <time>2017-02-21T12:44:55Z</time>
      </trkpt>
      <trkpt lat="42.82968" lon="0.05262">
        <ele>2462.74</ele>
        <time>2017-02-21T12:45:10Z</time>
      </trkpt>
      <trkpt lat="42.8296" lon="0.05255">
        <ele>2465.31</ele>
        <time>2017-02-21T12:45:26Z</time>
      </trkpt>
      <trkpt lat="42.82956" lon="0.0525">
        <ele>2467.32</ele>
        <time>2017-02-21T12:45:40Z</time>
      </trkpt>
      <trkpt lat="42.82953" lon="0.05247">
        <ele>2468.82</ele>
        <time>2017-02-21T12:45:54Z</time>
      </trkpt>
      <trkpt lat="42.82955" lon="0.05254">
        <ele>2469.63</ele>
        <time>2017-02-21T12:46:11Z</time>
      </trkpt>
      <trkpt lat="42.82956" lon="0.05262">
        <ele>2471.09</ele>
        <time>2017-02-21T12:46:24Z</time>
      </trkpt>
      <trkpt lat="42.82958" lon="0.05271">
        <ele>2473.05</ele>
        <time>2017-02-21T12:46:41Z</time>
      </trkpt>
      <trkpt lat="42.82955" lon="0.05271">
        <ele>2474.78</ele>
        <time>2017-02-21T12:46:57Z</time>
      </trkpt>
      <trkpt lat="42.82943" lon="0.05265">
        <ele>2477.56</ele>
        <time>2017-02-21T12:47:15Z</time>
      </trkpt>
      <trkpt lat="42.82944" lon="0.05264">
        <ele>2479.52</ele>
        <time>2017-02-21T12:47:31Z</time>
      </trkpt>
      <trkpt lat="42.82944" lon="0.05274">
        <ele>2480.77</ele>
        <time>2017-02-21T12:47:49Z</time>
      </trkpt>
      <trkpt lat="42.82947" lon="0.05282">
        <ele>2482.23</ele>
        <time>2017-02-21T12:48:06Z</time>
      </trkpt>
      <trkpt lat="42.82948" lon="0.05285">
        <ele>2484.35</ele>
        <time>2017-02-21T12:48:21Z</time>
      </trkpt>
      <trkpt lat="42.82948" lon="0.05284">
        <ele>2484.32</ele>
        <time>2017-02-21T12:48:43Z</time>
      </trkpt>
      <trkpt lat="42.82946" lon="0.05281">
        <ele>2484.7</ele>
        <time>2017-02-21T12:48:56Z</time>
      </trkpt>
      <trkpt lat="42.82942" lon="0.05281">
        <ele>2485.27</ele>
        <time>2017-02-21T12:49:11Z</time>
      </trkpt>
      <trkpt lat="42.8294" lon="0.05278">
        <ele>2486.33</ele>
        <time>2017-02-21T12:49:28Z</time>
      </trkpt>
      <trkpt lat="42.82938" lon="0.05275">
        <ele>2487.19</ele>
        <time>2017-02-21T12:49:44Z</time>
      </trkpt>
      <trkpt lat="42.82937" lon="0.05276">
        <ele>2487.19</ele>
        <time>2017-02-21T12:50:02Z</time>
      </trkpt>
      <trkpt lat="42.82935" lon="0.05274">
        <ele>2487.87</ele>
        <time>2017-02-21T12:50:17Z</time>
      </trkpt>
      <trkpt lat="42.82933" lon="0.0527">
        <ele>2489.06</ele>
        <time>2017-02-21T12:50:32Z</time>
      </trkpt>
      <trkpt lat="42.82934" lon="0.05274">
        <ele>2489.69</ele>
        <time>2017-02-21T12:50:53Z</time>
      </trkpt>
      <trkpt lat="42.82935" lon="0.05279">
        <ele>2490.79</ele>
        <time>2017-02-21T12:51:11Z</time>
      </trkpt>
      <trkpt lat="42.82933" lon="0.05276">
        <ele>2491.36</ele>
        <time>2017-02-21T12:51:28Z</time>
      </trkpt>
      <trkpt lat="42.8293" lon="0.0527">
        <ele>2492.61</ele>
        <time>2017-02-21T12:51:42Z</time>
      </trkpt>
      <trkpt lat="42.82929" lon="0.05275">
        <ele>2493.04</ele>
        <time>2017-02-21T12:52:03Z</time>
      </trkpt>
      <trkpt lat="42.82927" lon="0.05275">
        <ele>2493.7</ele>
        <time>2017-02-21T12:52:18Z</time>
      </trkpt>
      <trkpt lat="42.82927" lon="0.05274">
        <ele>2494.49</ele>
        <time>2017-02-21T12:52:38Z</time>
      </trkpt>
      <trkpt lat="42.82928" lon="0.05274">
        <ele>2494.39</ele>
        <time>2017-02-21T12:53:02Z</time>
      </trkpt>
      <trkpt lat="42.82926" lon="0.05273">
        <ele>2494.03</ele>
        <time>2017-02-21T12:53:23Z</time>
      </trkpt>
      <trkpt lat="42.82927" lon="0.05273">
        <ele>2494.5</ele>
        <time>2017-02-21T12:53:40Z</time>
      </trkpt>
      <trkpt lat="42.82926" lon="0.05274">
        <ele>2494.11</ele>
        <time>2017-02-21T12:53:58Z</time>
      </trkpt>
      <trkpt lat="42.82927" lon="0.05274">
        <ele>2494.28</ele>
        <time>2017-02-21T12:54:50Z</time>
      </trkpt>
      <trkpt lat="42.82926" lon="0.05272">
        <ele>2493.68</ele>
        <time>2017-02-21T12:55:33Z</time>
      </trkpt>
      <trkpt lat="42.82925" lon="0.05273">
        <ele>2494.15</ele>
        <time>2017-02-21T12:56:01Z</time>
      </trkpt>
      <trkpt lat="42.82924" lon="0.05274">
        <ele>2495.49</ele>
        <time>2017-02-21T12:56:18Z</time>
      </trkpt>
      <trkpt lat="42.82921" lon="0.05274">
        <ele>2496.6</ele>
        <time>2017-02-21T12:56:37Z</time>
      </trkpt>
      <trkpt lat="42.82919" lon="0.05276">
        <ele>2499.56</ele>
        <time>2017-02-21T12:56:59Z</time>
      </trkpt>
      <trkpt lat="42.82918" lon="0.05278">
        <ele>2501.45</ele>
        <time>2017-02-21T12:57:17Z</time>
      </trkpt>
      <trkpt lat="42.82917" lon="0.05279">
        <ele>2501.48</ele>
        <time>2017-02-21T12:57:36Z</time>
      </trkpt>
      <trkpt lat="42.82917" lon="0.05279">
        <ele>2501.24</ele>
        <time>2017-02-21T12:58:12Z</time>
      </trkpt>
      <trkpt lat="42.82917" lon="0.05279">
        <ele>2501.08</ele>
        <time>2017-02-21T12:59:26Z</time>
      </trkpt>
      <trkpt lat="42.82916" lon="0.05281">
        <ele>2500.98</ele>
        <time>2017-02-21T13:00:34Z</time>
      </trkpt>
      <trkpt lat="42.82917" lon="0.05283">
        <ele>2501.23</ele>
        <time>2017-02-21T13:01:12Z</time>
      </trkpt>
      <trkpt lat="42.82918" lon="0.05281">
        <ele>2501.59</ele>
        <time>2017-02-21T13:02:09Z</time>
      </trkpt>
      <trkpt lat="42.82917" lon="0.05281">
        <ele>2501.5</ele>
        <time>2017-02-21T13:02:53Z</time>
      </trkpt>
      <trkpt lat="42.82917" lon="0.05279">
        <ele>2501.01</ele>
        <time>2017-02-21T13:03:44Z</time>
      </trkpt>
      <trkpt lat="42.82917" lon="0.05278">
        <ele>2501.65</ele>
        <time>2017-02-21T13:04:48Z</time>
      </trkpt>
      <trkpt lat="42.82918" lon="0.05278">
        <ele>2501.45</ele>
        <time>2017-02-21T13:05:18Z</time>
      </trkpt>
      <trkpt lat="42.82917" lon="0.05277">
        <ele>2501.27</ele>
        <time>2017-02-21T13:05:51Z</time>
      </trkpt>
      <trkpt lat="42.82918" lon="0.05278">
        <ele>2501.46</ele>
        <time>2017-02-21T13:06:33Z</time>
      </trkpt>
      <trkpt lat="42.82919" lon="0.05278">
        <ele>2501.5</ele>
        <time>2017-02-21T13:07:10Z</time>
      </trkpt>
      <trkpt lat="42.82919" lon="0.0528">
        <ele>2501.69</ele>
        <time>2017-02-21T13:07:49Z</time>
      </trkpt>
      <trkpt lat="42.82918" lon="0.0528">
        <ele>2501.67</ele>
        <time>2017-02-21T13:08:38Z</time>
      </trkpt>
      <trkpt lat="42.82917" lon="0.0528">
        <ele>2501.64</ele>
        <time>2017-02-21T13:09:24Z</time>
      </trkpt>
      <trkpt lat="42.82919" lon="0.0528">
        <ele>2501.98</ele>
        <time>2017-02-21T13:10:08Z</time>
      </trkpt>
      <trkpt lat="42.82918" lon="0.0528">
        <ele>2502.34</ele>
        <time>2017-02-21T13:10:53Z</time>
      </trkpt>
      <trkpt lat="42.82918" lon="0.05279">
        <ele>2502.17</ele>
        <time>2017-02-21T13:11:36Z</time>
      </trkpt>
      <trkpt lat="42.82917" lon="0.05279">
        <ele>2501.72</ele>
        <time>2017-02-21T13:12:30Z</time>
      </trkpt>
      <trkpt lat="42.82918" lon="0.05278">
        <ele>2501.87</ele>
        <time>2017-02-21T13:13:20Z</time>
      </trkpt>
      <trkpt lat="42.82917" lon="0.05278">
        <ele>2501.72</ele>
        <time>2017-02-21T13:14:20Z</time>
      </trkpt>
      <trkpt lat="42.82917" lon="0.05279">
        <ele>2501.62</ele>
        <time>2017-02-21T13:15:10Z</time>
      </trkpt>
      <trkpt lat="42.82917" lon="0.05278">
        <ele>2501.74</ele>
        <time>2017-02-21T13:15:45Z</time>
      </trkpt>
      <trkpt lat="42.82917" lon="0.05276">
        <ele>2502.16</ele>
        <time>2017-02-21T13:16:47Z</time>
      </trkpt>
      <trkpt lat="42.82917" lon="0.05276">
        <ele>2502.42</ele>
        <time>2017-02-21T13:17:37Z</time>
      </trkpt>
      <trkpt lat="42.82916" lon="0.05278">
        <ele>2502.19</ele>
        <time>2017-02-21T13:18:27Z</time>
      </trkpt>
      <trkpt lat="42.82916" lon="0.05277">
        <ele>2502.67</ele>
        <time>2017-02-21T13:18:59Z</time>
      </trkpt>
      <trkpt lat="42.82915" lon="0.05276">
        <ele>2502.35</ele>
        <time>2017-02-21T13:19:46Z</time>
      </trkpt>
      <trkpt lat="42.82917" lon="0.05277">
        <ele>2502.11</ele>
        <time>2017-02-21T13:20:40Z</time>
      </trkpt>
      <trkpt lat="42.82917" lon="0.05276">
        <ele>2502.65</ele>
        <time>2017-02-21T13:21:43Z</time>
      </trkpt>
      <trkpt lat="42.82918" lon="0.05277">
        <ele>2502.35</ele>
        <time>2017-02-21T13:22:58Z</time>
      </trkpt>
      <trkpt lat="42.82917" lon="0.05276">
        <ele>2502.16</ele>
        <time>2017-02-21T13:24:07Z</time>
      </trkpt>
      <trkpt lat="42.82916" lon="0.05277">
        <ele>2502.34</ele>
        <time>2017-02-21T13:25:03Z</time>
      </trkpt>
      <trkpt lat="42.82917" lon="0.05277">
        <ele>2502.6</ele>
        <time>2017-02-21T13:26:11Z</time>
      </trkpt>
      <trkpt lat="42.82917" lon="0.05277">
        <ele>2502.86</ele>
        <time>2017-02-21T13:26:52Z</time>
      </trkpt>
      <trkpt lat="42.82918" lon="0.05277">
        <ele>2502.81</ele>
        <time>2017-02-21T13:27:38Z</time>
      </trkpt>
      <trkpt lat="42.82917" lon="0.05275">
        <ele>2502.87</ele>
        <time>2017-02-21T13:28:17Z</time>
      </trkpt>
      <trkpt lat="42.82916" lon="0.05275">
        <ele>2502.65</ele>
        <time>2017-02-21T13:28:55Z</time>
      </trkpt>
      <trkpt lat="42.82917" lon="0.05277">
        <ele>2502.86</ele>
        <time>2017-02-21T13:29:37Z</time>
      </trkpt>
      <trkpt lat="42.82918" lon="0.05278">
        <ele>2502.55</ele>
        <time>2017-02-21T13:30:20Z</time>
      </trkpt>
      <trkpt lat="42.82918" lon="0.05278">
        <ele>2502.97</ele>
        <time>2017-02-21T13:30:57Z</time>
      </trkpt>
      <trkpt lat="42.82917" lon="0.05277">
        <ele>2503.1</ele>
        <time>2017-02-21T13:31:40Z</time>
      </trkpt>
      <trkpt lat="42.82917" lon="0.05278">
        <ele>2503.09</ele>
        <time>2017-02-21T13:32:23Z</time>
      </trkpt>
      <trkpt lat="42.82916" lon="0.05277">
        <ele>2503.3</ele>
        <time>2017-02-21T13:33:08Z</time>
      </trkpt>
      <trkpt lat="42.82917" lon="0.05276">
        <ele>2503.35</ele>
        <time>2017-02-21T13:33:52Z</time>
      </trkpt>
      <trkpt lat="42.82917" lon="0.05276">
        <ele>2502.82</ele>
        <time>2017-02-21T13:34:45Z</time>
      </trkpt>
      <trkpt lat="42.82918" lon="0.05274">
        <ele>2503.04</ele>
        <time>2017-02-21T13:35:36Z</time>
      </trkpt>
      <trkpt lat="42.82919" lon="0.05275">
        <ele>2502.94</ele>
        <time>2017-02-21T13:36:18Z</time>
      </trkpt>
      <trkpt lat="42.82919" lon="0.05274">
        <ele>2502.98</ele>
        <time>2017-02-21T13:37:05Z</time>
      </trkpt>
      <trkpt lat="42.82918" lon="0.05276">
        <ele>2502.55</ele>
        <time>2017-02-21T13:37:53Z</time>
      </trkpt>
      <trkpt lat="42.82918" lon="0.05275">
        <ele>2502.9</ele>
        <time>2017-02-21T13:38:42Z</time>
      </trkpt>
      <trkpt lat="42.82918" lon="0.05277">
        <ele>2503</ele>
        <time>2017-02-21T13:39:36Z</time>
      </trkpt>
      <trkpt lat="42.82919" lon="0.05276">
        <ele>2503.24</ele>
        <time>2017-02-21T13:40:16Z</time>
      </trkpt>
      <trkpt lat="42.82919" lon="0.05277">
        <ele>2503.02</ele>
        <time>2017-02-21T13:41:02Z</time>
      </trkpt>
      <trkpt lat="42.82919" lon="0.05277">
        <ele>2503.43</ele>
        <time>2017-02-21T13:41:36Z</time>
      </trkpt>
      <trkpt lat="42.82919" lon="0.05276">
        <ele>2503.34</ele>
        <time>2017-02-21T13:42:22Z</time>
      </trkpt>
      <trkpt lat="42.82918" lon="0.05276">
        <ele>2503.86</ele>
        <time>2017-02-21T13:43:05Z</time>
      </trkpt>
      <trkpt lat="42.82919" lon="0.05277">
        <ele>2503.54</ele>
        <time>2017-02-21T13:44:00Z</time>
      </trkpt>
      <trkpt lat="42.8292" lon="0.05276">
        <ele>2503.49</ele>
        <time>2017-02-21T13:45:01Z</time>
      </trkpt>
      <trkpt lat="42.82918" lon="0.05276">
        <ele>2503.55</ele>
        <time>2017-02-21T13:45:44Z</time>
      </trkpt>
      <trkpt lat="42.82918" lon="0.05276">
        <ele>2503.44</ele>
        <time>2017-02-21T13:46:13Z</time>
      </trkpt>
      <trkpt lat="42.82917" lon="0.05275">
        <ele>2503.52</ele>
        <time>2017-02-21T13:46:50Z</time>
      </trkpt>
      <trkpt lat="42.82917" lon="0.05276">
        <ele>2503.58</ele>
        <time>2017-02-21T13:47:33Z</time>
      </trkpt>
      <trkpt lat="42.82918" lon="0.05275">
        <ele>2503.39</ele>
        <time>2017-02-21T13:48:07Z</time>
      </trkpt>
      <trkpt lat="42.82917" lon="0.05276">
        <ele>2503.88</ele>
        <time>2017-02-21T13:49:02Z</time>
      </trkpt>
      <trkpt lat="42.82917" lon="0.05276">
        <ele>2504.27</ele>
        <time>2017-02-21T13:49:40Z</time>
      </trkpt>
      <trkpt lat="42.82918" lon="0.05275">
        <ele>2505.29</ele>
        <time>2017-02-21T13:50:00Z</time>
      </trkpt>
      <trkpt lat="42.82917" lon="0.05276">
        <ele>2505.54</ele>
        <time>2017-02-21T13:50:22Z</time>
      </trkpt>
      <trkpt lat="42.82918" lon="0.05274">
        <ele>2504.81</ele>
        <time>2017-02-21T13:50:43Z</time>
      </trkpt>
      <trkpt lat="42.82918" lon="0.05274">
        <ele>2505.15</ele>
        <time>2017-02-21T13:51:08Z</time>
      </trkpt>
      <trkpt lat="42.82917" lon="0.05274">
        <ele>2504.88</ele>
        <time>2017-02-21T13:51:27Z</time>
      </trkpt>
      <trkpt lat="42.82916" lon="0.05274">
        <ele>2504.83</ele>
        <time>2017-02-21T13:51:41Z</time>
      </trkpt>
      <trkpt lat="42.82916" lon="0.05273">
        <ele>2505.12</ele>
        <time>2017-02-21T13:51:54Z</time>
      </trkpt>
      <trkpt lat="42.82917" lon="0.05272">
        <ele>2504.26</ele>
        <time>2017-02-21T13:52:14Z</time>
      </trkpt>
      <trkpt lat="42.82917" lon="0.05273">
        <ele>2505.11</ele>
        <time>2017-02-21T13:52:30Z</time>
      </trkpt>
      <trkpt lat="42.82916" lon="0.05273">
        <ele>2504.9</ele>
        <time>2017-02-21T13:52:46Z</time>
      </trkpt>
      <trkpt lat="42.82917" lon="0.05272">
        <ele>2504.85</ele>
        <time>2017-02-21T13:53:00Z</time>
      </trkpt>
      <trkpt lat="42.82918" lon="0.05272">
        <ele>2504.78</ele>
        <time>2017-02-21T13:53:20Z</time>
      </trkpt>
      <trkpt lat="42.82918" lon="0.05273">
        <ele>2504.84</ele>
        <time>2017-02-21T13:53:37Z</time>
      </trkpt>
      <trkpt lat="42.82918" lon="0.05272">
        <ele>2504.81</ele>
        <time>2017-02-21T13:53:53Z</time>
      </trkpt>
      <trkpt lat="42.82918" lon="0.05272">
        <ele>2504.98</ele>
        <time>2017-02-21T13:54:12Z</time>
      </trkpt>
      <trkpt lat="42.82918" lon="0.05272">
        <ele>2504.9</ele>
        <time>2017-02-21T13:54:28Z</time>
      </trkpt>
      <trkpt lat="42.82918" lon="0.05272">
        <ele>2504.66</ele>
        <time>2017-02-21T13:54:45Z</time>
      </trkpt>
      <trkpt lat="42.8292" lon="0.05274">
        <ele>2503.2</ele>
        <time>2017-02-21T13:54:58Z</time>
      </trkpt>
      <trkpt lat="42.82922" lon="0.05274">
        <ele>2501.79</ele>
        <time>2017-02-21T13:55:05Z</time>
      </trkpt>
      <trkpt lat="42.82933" lon="0.05284">
        <ele>2498.56</ele>
        <time>2017-02-21T13:55:14Z</time>
      </trkpt>
      <trkpt lat="42.82946" lon="0.05287">
        <ele>2495.13</ele>
        <time>2017-02-21T13:55:23Z</time>
      </trkpt>
      <trkpt lat="42.82948" lon="0.05286">
        <ele>2492.05</ele>
        <time>2017-02-21T13:55:27Z</time>
      </trkpt>
      <trkpt lat="42.82959" lon="0.05287">
        <ele>2488.99</ele>
        <time>2017-02-21T13:55:33Z</time>
      </trkpt>
      <trkpt lat="42.82964" lon="0.05288">
        <ele>2487.09</ele>
        <time>2017-02-21T13:55:36Z</time>
      </trkpt>
      <trkpt lat="42.82968" lon="0.05286">
        <ele>2484.36</ele>
        <time>2017-02-21T13:55:40Z</time>
      </trkpt>
      <trkpt lat="42.82975" lon="0.05285">
        <ele>2480.14</ele>
        <time>2017-02-21T13:55:46Z</time>
      </trkpt>
      <trkpt lat="42.82979" lon="0.05286">
        <ele>2478.94</ele>
        <time>2017-02-21T13:55:48Z</time>
      </trkpt>
      <trkpt lat="42.82979" lon="0.05273">
        <ele>2476.65</ele>
        <time>2017-02-21T13:55:52Z</time>
      </trkpt>
      <trkpt lat="42.82978" lon="0.05271">
        <ele>2472.64</ele>
        <time>2017-02-21T13:55:57Z</time>
      </trkpt>
      <trkpt lat="42.82978" lon="0.05271">
        <ele>2469.63</ele>
        <time>2017-02-21T13:56:14Z</time>
      </trkpt>
      <trkpt lat="42.82977" lon="0.05271">
        <ele>2469.84</ele>
        <time>2017-02-21T13:56:42Z</time>
      </trkpt>
      <trkpt lat="42.82977" lon="0.0527">
        <ele>2469.22</ele>
        <time>2017-02-21T13:57:16Z</time>
      </trkpt>
      <trkpt lat="42.82977" lon="0.05272">
        <ele>2469.33</ele>
        <time>2017-02-21T13:58:04Z</time>
      </trkpt>
      <trkpt lat="42.82975" lon="0.05273">
        <ele>2469.29</ele>
        <time>2017-02-21T13:58:43Z</time>
      </trkpt>
      <trkpt lat="42.82975" lon="0.05274">
        <ele>2469.66</ele>
        <time>2017-02-21T13:59:25Z</time>
      </trkpt>
      <trkpt lat="42.82976" lon="0.05275">
        <ele>2469.78</ele>
        <time>2017-02-21T14:00:03Z</time>
      </trkpt>
      <trkpt lat="42.82976" lon="0.05277">
        <ele>2469.59</ele>
        <time>2017-02-21T14:00:51Z</time>
      </trkpt>
      <trkpt lat="42.82975" lon="0.05277">
        <ele>2469.68</ele>
        <time>2017-02-21T14:01:20Z</time>
      </trkpt>
      <trkpt lat="42.82976" lon="0.05277">
        <ele>2469.5</ele>
        <time>2017-02-21T14:01:54Z</time>
      </trkpt>
      <trkpt lat="42.82976" lon="0.05277">
        <ele>2469.62</ele>
        <time>2017-02-21T14:02:35Z</time>
      </trkpt>
      <trkpt lat="42.82975" lon="0.05276">
        <ele>2469.37</ele>
        <time>2017-02-21T14:02:51Z</time>
      </trkpt>
      <trkpt lat="42.82973" lon="0.05271">
        <ele>2469.39</ele>
        <time>2017-02-21T14:02:53Z</time>
      </trkpt>
      <trkpt lat="42.82966" lon="0.05253">
        <ele>2466.64</ele>
        <time>2017-02-21T14:03:04Z</time>
      </trkpt>
      <trkpt lat="42.82965" lon="0.05252">
        <ele>2465.71</ele>
        <time>2017-02-21T14:03:39Z</time>
      </trkpt>
      <trkpt lat="42.82965" lon="0.05252">
        <ele>2466.25</ele>
        <time>2017-02-21T14:04:15Z</time>
      </trkpt>
      <trkpt lat="42.82965" lon="0.05252">
        <ele>2466.1</ele>
        <time>2017-02-21T14:04:41Z</time>
      </trkpt>
      <trkpt lat="42.82965" lon="0.05251">
        <ele>2465.99</ele>
        <time>2017-02-21T14:04:47Z</time>
      </trkpt>
      <trkpt lat="42.82967" lon="0.05242">
        <ele>2466.04</ele>
        <time>2017-02-21T14:04:50Z</time>
      </trkpt>
      <trkpt lat="42.8298" lon="0.05227">
        <ele>2463.25</ele>
        <time>2017-02-21T14:04:56Z</time>
      </trkpt>
      <trkpt lat="42.82983" lon="0.05213">
        <ele>2459.19</ele>
        <time>2017-02-21T14:04:59Z</time>
      </trkpt>
      <trkpt lat="42.8299" lon="0.05214">
        <ele>2455.85</ele>
        <time>2017-02-21T14:05:01Z</time>
      </trkpt>
      <trkpt lat="42.82994" lon="0.05209">
        <ele>2452.48</ele>
        <time>2017-02-21T14:05:03Z</time>
      </trkpt>
      <trkpt lat="42.83001" lon="0.05206">
        <ele>2448.66</ele>
        <time>2017-02-21T14:05:05Z</time>
      </trkpt>
      <trkpt lat="42.83007" lon="0.052">
        <ele>2444.8</ele>
        <time>2017-02-21T14:05:07Z</time>
      </trkpt>
      <trkpt lat="42.83011" lon="0.05191">
        <ele>2440.67</ele>
        <time>2017-02-21T14:05:09Z</time>
      </trkpt>
      <trkpt lat="42.83016" lon="0.05182">
        <ele>2436.38</ele>
        <time>2017-02-21T14:05:11Z</time>
      </trkpt>
      <trkpt lat="42.83021" lon="0.05174">
        <ele>2432.08</ele>
        <time>2017-02-21T14:05:13Z</time>
      </trkpt>
      <trkpt lat="42.83028" lon="0.05165">
        <ele>2427.65</ele>
        <time>2017-02-21T14:05:15Z</time>
      </trkpt>
      <trkpt lat="42.83036" lon="0.05159">
        <ele>2423.27</ele>
        <time>2017-02-21T14:05:17Z</time>
      </trkpt>
      <trkpt lat="42.83045" lon="0.05158">
        <ele>2418.79</ele>
        <time>2017-02-21T14:05:19Z</time>
      </trkpt>
      <trkpt lat="42.83049" lon="0.05153">
        <ele>2413.99</ele>
        <time>2017-02-21T14:05:20Z</time>
      </trkpt>
      <trkpt lat="42.83057" lon="0.05148">
        <ele>2408.78</ele>
        <time>2017-02-21T14:05:22Z</time>
      </trkpt>
      <trkpt lat="42.83066" lon="0.05141">
        <ele>2403.95</ele>
        <time>2017-02-21T14:05:24Z</time>
      </trkpt>
      <trkpt lat="42.83076" lon="0.05135">
        <ele>2398.87</ele>
        <time>2017-02-21T14:05:26Z</time>
      </trkpt>
      <trkpt lat="42.83087" lon="0.05129">
        <ele>2393.47</ele>
        <time>2017-02-21T14:05:28Z</time>
      </trkpt>
      <trkpt lat="42.83097" lon="0.0512">
        <ele>2387.95</ele>
        <time>2017-02-21T14:05:30Z</time>
      </trkpt>
      <trkpt lat="42.83108" lon="0.05117">
        <ele>2382.41</ele>
        <time>2017-02-21T14:05:32Z</time>
      </trkpt>
      <trkpt lat="42.83119" lon="0.05115">
        <ele>2376.98</ele>
        <time>2017-02-21T14:05:34Z</time>
      </trkpt>
      <trkpt lat="42.83131" lon="0.05113">
        <ele>2371.38</ele>
        <time>2017-02-21T14:05:36Z</time>
      </trkpt>
      <trkpt lat="42.83144" lon="0.05111">
        <ele>2365.96</ele>
        <time>2017-02-21T14:05:38Z</time>
      </trkpt>
      <trkpt lat="42.8315" lon="0.05109">
        <ele>2363.41</ele>
        <time>2017-02-21T14:05:39Z</time>
      </trkpt>
      <trkpt lat="42.83163" lon="0.05109">
        <ele>2358.08</ele>
        <time>2017-02-21T14:05:41Z</time>
      </trkpt>
      <trkpt lat="42.83183" lon="0.05108">
        <ele>2350.14</ele>
        <time>2017-02-21T14:05:44Z</time>
      </trkpt>
      <trkpt lat="42.83196" lon="0.05103">
        <ele>2345.29</ele>
        <time>2017-02-21T14:05:46Z</time>
      </trkpt>
      <trkpt lat="42.83213" lon="0.0511">
        <ele>2338.59</ele>
        <time>2017-02-21T14:05:49Z</time>
      </trkpt>
      <trkpt lat="42.83225" lon="0.05112">
        <ele>2334.33</ele>
        <time>2017-02-21T14:05:51Z</time>
      </trkpt>
      <trkpt lat="42.83231" lon="0.0511">
        <ele>2330.4</ele>
        <time>2017-02-21T14:05:52Z</time>
      </trkpt>
      <trkpt lat="42.83245" lon="0.05106">
        <ele>2326.7</ele>
        <time>2017-02-21T14:05:54Z</time>
      </trkpt>
      <trkpt lat="42.8326" lon="0.05107">
        <ele>2322.91</ele>
        <time>2017-02-21T14:05:56Z</time>
      </trkpt>
      <trkpt lat="42.83267" lon="0.05106">
        <ele>2321.03</ele>
        <time>2017-02-21T14:05:57Z</time>
      </trkpt>
      <trkpt lat="42.83289" lon="0.05099">
        <ele>2313.33</ele>
        <time>2017-02-21T14:06:01Z</time>
      </trkpt>
      <trkpt lat="42.83292" lon="0.05102">
        <ele>2309.04</ele>
        <time>2017-02-21T14:06:04Z</time>
      </trkpt>
      <trkpt lat="42.83292" lon="0.05102">
        <ele>2305.45</ele>
        <time>2017-02-21T14:06:08Z</time>
      </trkpt>
      <trkpt lat="42.83293" lon="0.05103">
        <ele>2302.67</ele>
        <time>2017-02-21T14:06:33Z</time>
      </trkpt>
      <trkpt lat="42.83292" lon="0.05103">
        <ele>2302.78</ele>
        <time>2017-02-21T14:07:02Z</time>
      </trkpt>
      <trkpt lat="42.83291" lon="0.05105">
        <ele>2302.77</ele>
        <time>2017-02-21T14:07:42Z</time>
      </trkpt>
      <trkpt lat="42.83291" lon="0.05106">
        <ele>2302.68</ele>
        <time>2017-02-21T14:08:00Z</time>
      </trkpt>
      <trkpt lat="42.83314" lon="0.05137">
        <ele>2301.33</ele>
        <time>2017-02-21T14:08:08Z</time>
      </trkpt>
      <trkpt lat="42.83317" lon="0.0514">
        <ele>2300.59</ele>
        <time>2017-02-21T14:08:09Z</time>
      </trkpt>
      <trkpt lat="42.83335" lon="0.05156">
        <ele>2293.71</ele>
        <time>2017-02-21T14:08:14Z</time>
      </trkpt>
      <trkpt lat="42.83343" lon="0.05165">
        <ele>2289.99</ele>
        <time>2017-02-21T14:08:16Z</time>
      </trkpt>
      <trkpt lat="42.83364" lon="0.05189">
        <ele>2281.78</ele>
        <time>2017-02-21T14:08:20Z</time>
      </trkpt>
      <trkpt lat="42.83376" lon="0.05205">
        <ele>2277.36</ele>
        <time>2017-02-21T14:08:22Z</time>
      </trkpt>
      <trkpt lat="42.83393" lon="0.05215">
        <ele>2270.58</ele>
        <time>2017-02-21T14:08:25Z</time>
      </trkpt>
      <trkpt lat="42.83394" lon="0.05214">
        <ele>2265.87</ele>
        <time>2017-02-21T14:08:27Z</time>
      </trkpt>
      <trkpt lat="42.83395" lon="0.05214">
        <ele>2262.34</ele>
        <time>2017-02-21T14:08:29Z</time>
      </trkpt>
      <trkpt lat="42.83395" lon="0.05213">
        <ele>2259.31</ele>
        <time>2017-02-21T14:08:32Z</time>
      </trkpt>
      <trkpt lat="42.83396" lon="0.05213">
        <ele>2256.27</ele>
        <time>2017-02-21T14:08:47Z</time>
      </trkpt>
      <trkpt lat="42.83395" lon="0.05209">
        <ele>2255.98</ele>
        <time>2017-02-21T14:09:10Z</time>
      </trkpt>
      <trkpt lat="42.83393" lon="0.05211">
        <ele>2254.97</ele>
        <time>2017-02-21T14:09:43Z</time>
      </trkpt>
      <trkpt lat="42.83392" lon="0.05212">
        <ele>2255.73</ele>
        <time>2017-02-21T14:09:56Z</time>
      </trkpt>
      <trkpt lat="42.83393" lon="0.05212">
        <ele>2256</ele>
        <time>2017-02-21T14:10:05Z</time>
      </trkpt>
      <trkpt lat="42.83404" lon="0.05214">
        <ele>2256.17</ele>
        <time>2017-02-21T14:10:09Z</time>
      </trkpt>
      <trkpt lat="42.83422" lon="0.05215">
        <ele>2255.81</ele>
        <time>2017-02-21T14:10:12Z</time>
      </trkpt>
      <trkpt lat="42.83441" lon="0.05206">
        <ele>2251.9</ele>
        <time>2017-02-21T14:10:19Z</time>
      </trkpt>
      <trkpt lat="42.83441" lon="0.05206">
        <ele>2249.82</ele>
        <time>2017-02-21T14:10:38Z</time>
      </trkpt>
      <trkpt lat="42.83441" lon="0.05206">
        <ele>2249.9</ele>
        <time>2017-02-21T14:10:45Z</time>
      </trkpt>
      <trkpt lat="42.83451" lon="0.0522">
        <ele>2249.74</ele>
        <time>2017-02-21T14:10:49Z</time>
      </trkpt>
      <trkpt lat="42.83478" lon="0.05244">
        <ele>2245.57</ele>
        <time>2017-02-21T14:10:54Z</time>
      </trkpt>
      <trkpt lat="42.83485" lon="0.05243">
        <ele>2243.96</ele>
        <time>2017-02-21T14:10:55Z</time>
      </trkpt>
      <trkpt lat="42.83504" lon="0.05218">
        <ele>2236.11</ele>
        <time>2017-02-21T14:10:59Z</time>
      </trkpt>
      <trkpt lat="42.83516" lon="0.05216">
        <ele>2231.97</ele>
        <time>2017-02-21T14:11:01Z</time>
      </trkpt>
      <trkpt lat="42.8353" lon="0.05216">
        <ele>2227.9</ele>
        <time>2017-02-21T14:11:03Z</time>
      </trkpt>
      <trkpt lat="42.8354" lon="0.05199">
        <ele>2222.93</ele>
        <time>2017-02-21T14:11:05Z</time>
      </trkpt>
      <trkpt lat="42.83548" lon="0.05181">
        <ele>2217.97</ele>
        <time>2017-02-21T14:11:07Z</time>
      </trkpt>
      <trkpt lat="42.83563" lon="0.05176">
        <ele>2212.03</ele>
        <time>2017-02-21T14:11:10Z</time>
      </trkpt>
      <trkpt lat="42.83569" lon="0.05189">
        <ele>2208.6</ele>
        <time>2017-02-21T14:11:12Z</time>
      </trkpt>
      <trkpt lat="42.83575" lon="0.05202">
        <ele>2204.76</ele>
        <time>2017-02-21T14:11:14Z</time>
      </trkpt>
      <trkpt lat="42.83584" lon="0.05217">
        <ele>2197.07</ele>
        <time>2017-02-21T14:11:19Z</time>
      </trkpt>
      <trkpt lat="42.83584" lon="0.05218">
        <ele>2194.6</ele>
        <time>2017-02-21T14:11:22Z</time>
      </trkpt>
      <trkpt lat="42.83593" lon="0.05235">
        <ele>2192.63</ele>
        <time>2017-02-21T14:11:27Z</time>
      </trkpt>
      <trkpt lat="42.83604" lon="0.05232">
        <ele>2189.54</ele>
        <time>2017-02-21T14:11:32Z</time>
      </trkpt>
      <trkpt lat="42.83618" lon="0.05221">
        <ele>2184.26</ele>
        <time>2017-02-21T14:11:36Z</time>
      </trkpt>
      <trkpt lat="42.83621" lon="0.05209">
        <ele>2180.71</ele>
        <time>2017-02-21T14:11:38Z</time>
      </trkpt>
      <trkpt lat="42.83629" lon="0.0521">
        <ele>2176.99</ele>
        <time>2017-02-21T14:11:40Z</time>
      </trkpt>
      <trkpt lat="42.83636" lon="0.05206">
        <ele>2173.41</ele>
        <time>2017-02-21T14:11:42Z</time>
      </trkpt>
      <trkpt lat="42.83643" lon="0.05204">
        <ele>2169.51</ele>
        <time>2017-02-21T14:11:44Z</time>
      </trkpt>
      <trkpt lat="42.83653" lon="0.05206">
        <ele>2165.35</ele>
        <time>2017-02-21T14:11:46Z</time>
      </trkpt>
      <trkpt lat="42.83656" lon="0.052">
        <ele>2163.18</ele>
        <time>2017-02-21T14:11:47Z</time>
      </trkpt>
      <trkpt lat="42.83671" lon="0.05193">
        <ele>2154.18</ele>
        <time>2017-02-21T14:11:51Z</time>
      </trkpt>
      <trkpt lat="42.83681" lon="0.05194">
        <ele>2149.72</ele>
        <time>2017-02-21T14:11:53Z</time>
      </trkpt>
      <trkpt lat="42.83691" lon="0.05192">
        <ele>2145.19</ele>
        <time>2017-02-21T14:11:55Z</time>
      </trkpt>
      <trkpt lat="42.83699" lon="0.05183">
        <ele>2140.69</ele>
        <time>2017-02-21T14:11:57Z</time>
      </trkpt>
      <trkpt lat="42.83704" lon="0.05185">
        <ele>2136.01</ele>
        <time>2017-02-21T14:11:59Z</time>
      </trkpt>
      <trkpt lat="42.83704" lon="0.05186">
        <ele>2131.3</ele>
        <time>2017-02-21T14:12:01Z</time>
      </trkpt>
      <trkpt lat="42.83704" lon="0.05186">
        <ele>2127.58</ele>
        <time>2017-02-21T14:12:03Z</time>
      </trkpt>
      <trkpt lat="42.83704" lon="0.05186">
        <ele>2124.3</ele>
        <time>2017-02-21T14:12:05Z</time>
      </trkpt>
      <trkpt lat="42.83704" lon="0.05187">
        <ele>2121.08</ele>
        <time>2017-02-21T14:12:15Z</time>
      </trkpt>
      <trkpt lat="42.83704" lon="0.05187">
        <ele>2120.61</ele>
        <time>2017-02-21T14:12:50Z</time>
      </trkpt>
      <trkpt lat="42.83704" lon="0.05187">
        <ele>2120.73</ele>
        <time>2017-02-21T14:13:25Z</time>
      </trkpt>
      <trkpt lat="42.83703" lon="0.05188">
        <ele>2120.39</ele>
        <time>2017-02-21T14:14:01Z</time>
      </trkpt>
      <trkpt lat="42.83704" lon="0.05188">
        <ele>2120.05</ele>
        <time>2017-02-21T14:14:48Z</time>
      </trkpt>
      <trkpt lat="42.83704" lon="0.05187">
        <ele>2120.25</ele>
        <time>2017-02-21T14:15:22Z</time>
      </trkpt>
      <trkpt lat="42.83703" lon="0.05188">
        <ele>2120.25</ele>
        <time>2017-02-21T14:15:50Z</time>
      </trkpt>
      <trkpt lat="42.83705" lon="0.05189">
        <ele>2120.36</ele>
        <time>2017-02-21T14:15:54Z</time>
      </trkpt>
      <trkpt lat="42.83708" lon="0.05169">
        <ele>2120.11</ele>
        <time>2017-02-21T14:16:00Z</time>
      </trkpt>
      <trkpt lat="42.83702" lon="0.05114">
        <ele>2117.26</ele>
        <time>2017-02-21T14:16:06Z</time>
      </trkpt>
      <trkpt lat="42.83714" lon="0.05101">
        <ele>2112.31</ele>
        <time>2017-02-21T14:16:10Z</time>
      </trkpt>
      <trkpt lat="42.83726" lon="0.05106">
        <ele>2109.29</ele>
        <time>2017-02-21T14:16:12Z</time>
      </trkpt>
      <trkpt lat="42.83731" lon="0.051">
        <ele>2107.49</ele>
        <time>2017-02-21T14:16:13Z</time>
      </trkpt>
      <trkpt lat="42.83747" lon="0.05072">
        <ele>2101.93</ele>
        <time>2017-02-21T14:16:16Z</time>
      </trkpt>
      <trkpt lat="42.83753" lon="0.05062">
        <ele>2100.32</ele>
        <time>2017-02-21T14:16:17Z</time>
      </trkpt>
      <trkpt lat="42.83763" lon="0.05043">
        <ele>2095.64</ele>
        <time>2017-02-21T14:16:19Z</time>
      </trkpt>
      <trkpt lat="42.83777" lon="0.05017">
        <ele>2091.6</ele>
        <time>2017-02-21T14:16:22Z</time>
      </trkpt>
      <trkpt lat="42.83795" lon="0.04995">
        <ele>2088.39</ele>
        <time>2017-02-21T14:16:25Z</time>
      </trkpt>
      <trkpt lat="42.83799" lon="0.04989">
        <ele>2087.27</ele>
        <time>2017-02-21T14:16:26Z</time>
      </trkpt>
      <trkpt lat="42.8381" lon="0.04977">
        <ele>2083.7</ele>
        <time>2017-02-21T14:16:29Z</time>
      </trkpt>
      <trkpt lat="42.83823" lon="0.0499">
        <ele>2078.85</ele>
        <time>2017-02-21T14:16:34Z</time>
      </trkpt>
      <trkpt lat="42.83838" lon="0.04993">
        <ele>2074.99</ele>
        <time>2017-02-21T14:16:37Z</time>
      </trkpt>
      <trkpt lat="42.83845" lon="0.04991">
        <ele>2073.37</ele>
        <time>2017-02-21T14:16:38Z</time>
      </trkpt>
      <trkpt lat="42.83872" lon="0.04981">
        <ele>2066.62</ele>
        <time>2017-02-21T14:16:42Z</time>
      </trkpt>
      <trkpt lat="42.83873" lon="0.04993">
        <ele>2063.01</ele>
        <time>2017-02-21T14:16:44Z</time>
      </trkpt>
      <trkpt lat="42.83878" lon="0.05003">
        <ele>2059.42</ele>
        <time>2017-02-21T14:16:46Z</time>
      </trkpt>
      <trkpt lat="42.83882" lon="0.05013">
        <ele>2055.39</ele>
        <time>2017-02-21T14:16:48Z</time>
      </trkpt>
      <trkpt lat="42.83887" lon="0.05021">
        <ele>2051.14</ele>
        <time>2017-02-21T14:16:50Z</time>
      </trkpt>
      <trkpt lat="42.83892" lon="0.05026">
        <ele>2044.65</ele>
        <time>2017-02-21T14:16:52Z</time>
      </trkpt>
      <trkpt lat="42.83901" lon="0.05041">
        <ele>2036.29</ele>
        <time>2017-02-21T14:16:56Z</time>
      </trkpt>
      <trkpt lat="42.83902" lon="0.05051">
        <ele>2031.95</ele>
        <time>2017-02-21T14:16:58Z</time>
      </trkpt>
      <trkpt lat="42.83909" lon="0.0506">
        <ele>2027.72</ele>
        <time>2017-02-21T14:17:00Z</time>
      </trkpt>
      <trkpt lat="42.83915" lon="0.05068">
        <ele>2023.26</ele>
        <time>2017-02-21T14:17:02Z</time>
      </trkpt>
      <trkpt lat="42.8392" lon="0.05081">
        <ele>2018.86</ele>
        <time>2017-02-21T14:17:04Z</time>
      </trkpt>
      <trkpt lat="42.83931" lon="0.05077">
        <ele>2014.35</ele>
        <time>2017-02-21T14:17:06Z</time>
      </trkpt>
      <trkpt lat="42.83939" lon="0.05069">
        <ele>2010.06</ele>
        <time>2017-02-21T14:17:08Z</time>
      </trkpt>
      <trkpt lat="42.83943" lon="0.05066">
        <ele>2006.64</ele>
        <time>2017-02-21T14:17:10Z</time>
      </trkpt>
      <trkpt lat="42.83949" lon="0.05076">
        <ele>2003.41</ele>
        <time>2017-02-21T14:17:13Z</time>
      </trkpt>
      <trkpt lat="42.83957" lon="0.05089">
        <ele>2000.34</ele>
        <time>2017-02-21T14:17:16Z</time>
      </trkpt>
      <trkpt lat="42.83963" lon="0.05088">
        <ele>1998.98</ele>
        <time>2017-02-21T14:17:17Z</time>
      </trkpt>
      <trkpt lat="42.83972" lon="0.05098">
        <ele>1992.05</ele>
        <time>2017-02-21T14:17:21Z</time>
      </trkpt>
      <trkpt lat="42.83977" lon="0.05114">
        <ele>1987.4</ele>
        <time>2017-02-21T14:17:24Z</time>
      </trkpt>
      <trkpt lat="42.83977" lon="0.05126">
        <ele>1983.54</ele>
        <time>2017-02-21T14:17:26Z</time>
      </trkpt>
      <trkpt lat="42.83981" lon="0.05138">
        <ele>1979.47</ele>
        <time>2017-02-21T14:17:28Z</time>
      </trkpt>
      <trkpt lat="42.83984" lon="0.05147">
        <ele>1975.28</ele>
        <time>2017-02-21T14:17:30Z</time>
      </trkpt>
      <trkpt lat="42.83987" lon="0.05159">
        <ele>1970.94</ele>
        <time>2017-02-21T14:17:32Z</time>
      </trkpt>
      <trkpt lat="42.83998" lon="0.05163">
        <ele>1964.41</ele>
        <time>2017-02-21T14:17:34Z</time>
      </trkpt>
      <trkpt lat="42.84006" lon="0.05168">
        <ele>1960.19</ele>
        <time>2017-02-21T14:17:36Z</time>
      </trkpt>
      <trkpt lat="42.84004" lon="0.0518">
        <ele>1956.86</ele>
        <time>2017-02-21T14:17:38Z</time>
      </trkpt>
      <trkpt lat="42.84005" lon="0.05193">
        <ele>1953.73</ele>
        <time>2017-02-21T14:17:40Z</time>
      </trkpt>
      <trkpt lat="42.84016" lon="0.052">
        <ele>1949.6</ele>
        <time>2017-02-21T14:17:42Z</time>
      </trkpt>
      <trkpt lat="42.84027" lon="0.05202">
        <ele>1945.1</ele>
        <time>2017-02-21T14:17:44Z</time>
      </trkpt>
      <trkpt lat="42.84042" lon="0.05204">
        <ele>1939.61</ele>
        <time>2017-02-21T14:17:47Z</time>
      </trkpt>
      <trkpt lat="42.84045" lon="0.05204">
        <ele>1935.84</ele>
        <time>2017-02-21T14:17:50Z</time>
      </trkpt>
      <trkpt lat="42.84046" lon="0.05205">
        <ele>1933.66</ele>
        <time>2017-02-21T14:17:53Z</time>
      </trkpt>
      <trkpt lat="42.84044" lon="0.05223">
        <ele>1932.03</ele>
        <time>2017-02-21T14:17:57Z</time>
      </trkpt>
      <trkpt lat="42.84062" lon="0.05246">
        <ele>1927.72</ele>
        <time>2017-02-21T14:18:01Z</time>
      </trkpt>
      <trkpt lat="42.8407" lon="0.05246">
        <ele>1925.76</ele>
        <time>2017-02-21T14:18:02Z</time>
      </trkpt>
      <trkpt lat="42.84091" lon="0.05244">
        <ele>1919</ele>
        <time>2017-02-21T14:18:05Z</time>
      </trkpt>
      <trkpt lat="42.84105" lon="0.05244">
        <ele>1915.39</ele>
        <time>2017-02-21T14:18:07Z</time>
      </trkpt>
      <trkpt lat="42.84122" lon="0.05244">
        <ele>1912.19</ele>
        <time>2017-02-21T14:18:09Z</time>
      </trkpt>
      <trkpt lat="42.84139" lon="0.05244">
        <ele>1909.12</ele>
        <time>2017-02-21T14:18:11Z</time>
      </trkpt>
      <trkpt lat="42.84154" lon="0.05244">
        <ele>1905.87</ele>
        <time>2017-02-21T14:18:13Z</time>
      </trkpt>
      <trkpt lat="42.84182" lon="0.05243">
        <ele>1901.66</ele>
        <time>2017-02-21T14:18:16Z</time>
      </trkpt>
      <trkpt lat="42.84209" lon="0.05245">
        <ele>1897.54</ele>
        <time>2017-02-21T14:18:19Z</time>
      </trkpt>
      <trkpt lat="42.84226" lon="0.05245">
        <ele>1893.53</ele>
        <time>2017-02-21T14:18:21Z</time>
      </trkpt>
      <trkpt lat="42.8425" lon="0.05243">
        <ele>1889.7</ele>
        <time>2017-02-21T14:18:24Z</time>
      </trkpt>
      <trkpt lat="42.8427" lon="0.05239">
        <ele>1886.19</ele>
        <time>2017-02-21T14:18:27Z</time>
      </trkpt>
      <trkpt lat="42.84295" lon="0.05229">
        <ele>1882.67</ele>
        <time>2017-02-21T14:18:31Z</time>
      </trkpt>
      <trkpt lat="42.84305" lon="0.05223">
        <ele>1881.23</ele>
        <time>2017-02-21T14:18:33Z</time>
      </trkpt>
      <trkpt lat="42.84343" lon="0.05204">
        <ele>1877.5</ele>
        <time>2017-02-21T14:18:45Z</time>
      </trkpt>
      <trkpt lat="42.84347" lon="0.05202">
        <ele>1877.25</ele>
        <time>2017-02-21T14:18:46Z</time>
      </trkpt>
      <trkpt lat="42.84365" lon="0.05204">
        <ele>1876.13</ele>
        <time>2017-02-21T14:18:50Z</time>
      </trkpt>
      <trkpt lat="42.84377" lon="0.05209">
        <ele>1874.59</ele>
        <time>2017-02-21T14:18:54Z</time>
      </trkpt>
      <trkpt lat="42.84412" lon="0.05208">
        <ele>1872.62</ele>
        <time>2017-02-21T14:19:05Z</time>
      </trkpt>
      <trkpt lat="42.84451" lon="0.05205">
        <ele>1870.13</ele>
        <time>2017-02-21T14:19:19Z</time>
      </trkpt>
      <trkpt lat="42.84461" lon="0.05209">
        <ele>1869.47</ele>
        <time>2017-02-21T14:19:23Z</time>
      </trkpt>
      <trkpt lat="42.84468" lon="0.05207">
        <ele>1868.3</ele>
        <time>2017-02-21T14:19:35Z</time>
      </trkpt>
      <trkpt lat="42.84468" lon="0.05206">
        <ele>1868.54</ele>
        <time>2017-02-21T14:20:06Z</time>
      </trkpt>
      <trkpt lat="42.84469" lon="0.05205">
        <ele>1868.41</ele>
        <time>2017-02-21T14:20:31Z</time>
      </trkpt>
      <trkpt lat="42.8447" lon="0.05206">
        <ele>1868.24</ele>
        <time>2017-02-21T14:20:56Z</time>
      </trkpt>
      <trkpt lat="42.8447" lon="0.05204">
        <ele>1868.06</ele>
        <time>2017-02-21T14:21:29Z</time>
      </trkpt>
      <trkpt lat="42.84471" lon="0.05203">
        <ele>1868.62</ele>
        <time>2017-02-21T14:21:46Z</time>
      </trkpt>
      <trkpt lat="42.84473" lon="0.05201">
        <ele>1868.7</ele>
        <time>2017-02-21T14:22:15Z</time>
      </trkpt>
      <trkpt lat="42.84484" lon="0.05192">
        <ele>1868.79</ele>
        <time>2017-02-21T14:22:21Z</time>
      </trkpt>
      <trkpt lat="42.84507" lon="0.05162">
        <ele>1867.65</ele>
        <time>2017-02-21T14:22:32Z</time>
      </trkpt>
      <trkpt lat="42.84533" lon="0.05117">
        <ele>1864.2</ele>
        <time>2017-02-21T14:22:42Z</time>
      </trkpt>
      <trkpt lat="42.84539" lon="0.05106">
        <ele>1863.25</ele>
        <time>2017-02-21T14:22:46Z</time>
      </trkpt>
      <trkpt lat="42.84546" lon="0.05083">
        <ele>1862.48</ele>
        <time>2017-02-21T14:22:50Z</time>
      </trkpt>
      <trkpt lat="42.84549" lon="0.0507">
        <ele>1862.05</ele>
        <time>2017-02-21T14:22:52Z</time>
      </trkpt>
      <trkpt lat="42.84584" lon="0.05014">
        <ele>1858.37</ele>
        <time>2017-02-21T14:23:00Z</time>
      </trkpt>
      <trkpt lat="42.84602" lon="0.04987">
        <ele>1854.92</ele>
        <time>2017-02-21T14:23:05Z</time>
      </trkpt>
      <trkpt lat="42.84622" lon="0.04959">
        <ele>1851.73</ele>
        <time>2017-02-21T14:23:14Z</time>
      </trkpt>
      <trkpt lat="42.84634" lon="0.04924">
        <ele>1850.85</ele>
        <time>2017-02-21T14:23:30Z</time>
      </trkpt>
      <trkpt lat="42.84635" lon="0.04922">
        <ele>1851.17</ele>
        <time>2017-02-21T14:23:47Z</time>
      </trkpt>
      <trkpt lat="42.84634" lon="0.04921">
        <ele>1851.71</ele>
        <time>2017-02-21T14:24:13Z</time>
      </trkpt>
      <trkpt lat="42.84635" lon="0.0492">
        <ele>1851.68</ele>
        <time>2017-02-21T14:24:36Z</time>
      </trkpt>
      <trkpt lat="42.84636" lon="0.04918">
        <ele>1851.79</ele>
        <time>2017-02-21T14:24:47Z</time>
      </trkpt>
      <trkpt lat="42.84648" lon="0.0488">
        <ele>1850.94</ele>
        <time>2017-02-21T14:24:57Z</time>
      </trkpt>
      <trkpt lat="42.84648" lon="0.04871">
        <ele>1850.87</ele>
        <time>2017-02-21T14:25:08Z</time>
      </trkpt>
      <trkpt lat="42.84647" lon="0.04869">
        <ele>1851.11</ele>
        <time>2017-02-21T14:25:16Z</time>
      </trkpt>
      <trkpt lat="42.84648" lon="0.04865">
        <ele>1851.12</ele>
        <time>2017-02-21T14:25:18Z</time>
      </trkpt>
      <trkpt lat="42.84645" lon="0.04839">
        <ele>1850.93</ele>
        <time>2017-02-21T14:25:25Z</time>
      </trkpt>
      <trkpt lat="42.84648" lon="0.04816">
        <ele>1849.63</ele>
        <time>2017-02-21T14:25:34Z</time>
      </trkpt>
      <trkpt lat="42.84648" lon="0.04816">
        <ele>1849.57</ele>
        <time>2017-02-21T14:25:52Z</time>
      </trkpt>
      <trkpt lat="42.84663" lon="0.04837">
        <ele>1847.95</ele>
        <time>2017-02-21T14:25:59Z</time>
      </trkpt>
      <trkpt lat="42.84672" lon="0.04817">
        <ele>1845.88</ele>
        <time>2017-02-21T14:26:02Z</time>
      </trkpt>
      <trkpt lat="42.84676" lon="0.04801">
        <ele>1843.7</ele>
        <time>2017-02-21T14:26:04Z</time>
      </trkpt>
      <trkpt lat="42.84685" lon="0.04772">
        <ele>1838.07</ele>
        <time>2017-02-21T14:26:08Z</time>
      </trkpt>
      <trkpt lat="42.84692" lon="0.04755">
        <ele>1834.91</ele>
        <time>2017-02-21T14:26:10Z</time>
      </trkpt>
      <trkpt lat="42.847" lon="0.04739">
        <ele>1831.36</ele>
        <time>2017-02-21T14:26:12Z</time>
      </trkpt>
      <trkpt lat="42.84697" lon="0.0472">
        <ele>1827.63</ele>
        <time>2017-02-21T14:26:14Z</time>
      </trkpt>
      <trkpt lat="42.84683" lon="0.04707">
        <ele>1823.12</ele>
        <time>2017-02-21T14:26:16Z</time>
      </trkpt>
      <trkpt lat="42.84673" lon="0.04704">
        <ele>1818.46</ele>
        <time>2017-02-21T14:26:18Z</time>
      </trkpt>
      <trkpt lat="42.8467" lon="0.04704">
        <ele>1812.74</ele>
        <time>2017-02-21T14:26:21Z</time>
      </trkpt>
      <trkpt lat="42.84669" lon="0.04704">
        <ele>1809.44</ele>
        <time>2017-02-21T14:26:24Z</time>
      </trkpt>
      <trkpt lat="42.8467" lon="0.04704">
        <ele>1806.42</ele>
        <time>2017-02-21T14:26:35Z</time>
      </trkpt>
      <trkpt lat="42.8467" lon="0.04706">
        <ele>1805.99</ele>
        <time>2017-02-21T14:27:17Z</time>
      </trkpt>
      <trkpt lat="42.84671" lon="0.04705">
        <ele>1806.12</ele>
        <time>2017-02-21T14:27:27Z</time>
      </trkpt>
      <trkpt lat="42.84672" lon="0.04666">
        <ele>1804.99</ele>
        <time>2017-02-21T14:27:33Z</time>
      </trkpt>
      <trkpt lat="42.84671" lon="0.04626">
        <ele>1800.94</ele>
        <time>2017-02-21T14:27:37Z</time>
      </trkpt>
      <trkpt lat="42.84668" lon="0.04611">
        <ele>1798.63</ele>
        <time>2017-02-21T14:27:39Z</time>
      </trkpt>
      <trkpt lat="42.84662" lon="0.04567">
        <ele>1794.65</ele>
        <time>2017-02-21T14:27:44Z</time>
      </trkpt>
      <trkpt lat="42.84669" lon="0.04542">
        <ele>1791.51</ele>
        <time>2017-02-21T14:27:47Z</time>
      </trkpt>
      <trkpt lat="42.84679" lon="0.04531">
        <ele>1787.97</ele>
        <time>2017-02-21T14:27:49Z</time>
      </trkpt>
      <trkpt lat="42.84698" lon="0.04491">
        <ele>1782.33</ele>
        <time>2017-02-21T14:27:55Z</time>
      </trkpt>
      <trkpt lat="42.84709" lon="0.04459">
        <ele>1776.15</ele>
        <time>2017-02-21T14:28:00Z</time>
      </trkpt>
      <trkpt lat="42.84719" lon="0.04447">
        <ele>1771.59</ele>
        <time>2017-02-21T14:28:03Z</time>
      </trkpt>
      <trkpt lat="42.84719" lon="0.04433">
        <ele>1768.1</ele>
        <time>2017-02-21T14:28:05Z</time>
      </trkpt>
      <trkpt lat="42.84725" lon="0.04421">
        <ele>1764.84</ele>
        <time>2017-02-21T14:28:07Z</time>
      </trkpt>
      <trkpt lat="42.84734" lon="0.04422">
        <ele>1761.54</ele>
        <time>2017-02-21T14:28:09Z</time>
      </trkpt>
      <trkpt lat="42.84747" lon="0.04427">
        <ele>1756.48</ele>
        <time>2017-02-21T14:28:12Z</time>
      </trkpt>
      <trkpt lat="42.84751" lon="0.04427">
        <ele>1752.82</ele>
        <time>2017-02-21T14:28:15Z</time>
      </trkpt>
      <trkpt lat="42.84752" lon="0.04428">
        <ele>1749.72</ele>
        <time>2017-02-21T14:28:22Z</time>
      </trkpt>
      <trkpt lat="42.84754" lon="0.04429">
        <ele>1748.58</ele>
        <time>2017-02-21T14:28:34Z</time>
      </trkpt>
      <trkpt lat="42.84772" lon="0.044">
        <ele>1746.44</ele>
        <time>2017-02-21T14:28:41Z</time>
      </trkpt>
      <trkpt lat="42.84764" lon="0.0438">
        <ele>1742.16</ele>
        <time>2017-02-21T14:28:44Z</time>
      </trkpt>
      <trkpt lat="42.84764" lon="0.04373">
        <ele>1738.92</ele>
        <time>2017-02-21T14:28:46Z</time>
      </trkpt>
      <trkpt lat="42.84771" lon="0.04368">
        <ele>1735.52</ele>
        <time>2017-02-21T14:28:49Z</time>
      </trkpt>
      <trkpt lat="42.84775" lon="0.04371">
        <ele>1734.65</ele>
        <time>2017-02-21T14:28:50Z</time>
      </trkpt>
      <trkpt lat="42.84786" lon="0.0436">
        <ele>1728.54</ele>
        <time>2017-02-21T14:28:55Z</time>
      </trkpt>
      <trkpt lat="42.84794" lon="0.04347">
        <ele>1724.31</ele>
        <time>2017-02-21T14:28:58Z</time>
      </trkpt>
      <trkpt lat="42.84798" lon="0.04337">
        <ele>1721.14</ele>
        <time>2017-02-21T14:29:00Z</time>
      </trkpt>
      <trkpt lat="42.84804" lon="0.04326">
        <ele>1717.54</ele>
        <time>2017-02-21T14:29:02Z</time>
      </trkpt>
      <trkpt lat="42.84814" lon="0.04319">
        <ele>1712.14</ele>
        <time>2017-02-21T14:29:04Z</time>
      </trkpt>
      <trkpt lat="42.84814" lon="0.04311">
        <ele>1712.14</ele>
        <time>2017-02-21T14:29:05Z</time>
      </trkpt>
      <trkpt lat="42.84812" lon="0.04303">
        <ele>1708.17</ele>
        <time>2017-02-21T14:29:06Z</time>
      </trkpt>
      <trkpt lat="42.8481" lon="0.04295">
        <ele>1702.87</ele>
        <time>2017-02-21T14:29:09Z</time>
      </trkpt>
      <trkpt lat="42.8481" lon="0.04294">
        <ele>1699.94</ele>
        <time>2017-02-21T14:29:12Z</time>
      </trkpt>
      <trkpt lat="42.8481" lon="0.04269">
        <ele>1697.59</ele>
        <time>2017-02-21T14:29:17Z</time>
      </trkpt>
      <trkpt lat="42.8481" lon="0.04246">
        <ele>1693.56</ele>
        <time>2017-02-21T14:29:22Z</time>
      </trkpt>
      <trkpt lat="42.8481" lon="0.04227">
        <ele>1690.47</ele>
        <time>2017-02-21T14:29:25Z</time>
      </trkpt>
      <trkpt lat="42.8481" lon="0.0422">
        <ele>1689.36</ele>
        <time>2017-02-21T14:29:26Z</time>
      </trkpt>
      <trkpt lat="42.84812" lon="0.04206">
        <ele>1687.41</ele>
        <time>2017-02-21T14:29:28Z</time>
      </trkpt>
      <trkpt lat="42.84817" lon="0.04192">
        <ele>1685.85</ele>
        <time>2017-02-21T14:29:30Z</time>
      </trkpt>
      <trkpt lat="42.84824" lon="0.04162">
        <ele>1681.61</ele>
        <time>2017-02-21T14:29:35Z</time>
      </trkpt>
      <trkpt lat="42.84828" lon="0.04144">
        <ele>1678.03</ele>
        <time>2017-02-21T14:29:39Z</time>
      </trkpt>
      <trkpt lat="42.84831" lon="0.04129">
        <ele>1674.84</ele>
        <time>2017-02-21T14:29:42Z</time>
      </trkpt>
      <trkpt lat="42.84834" lon="0.04115">
        <ele>1670.49</ele>
        <time>2017-02-21T14:29:45Z</time>
      </trkpt>
      <trkpt lat="42.84834" lon="0.04111">
        <ele>1669.5</ele>
        <time>2017-02-21T14:29:46Z</time>
      </trkpt>
      <trkpt lat="42.84838" lon="0.04092">
        <ele>1665.64</ele>
        <time>2017-02-21T14:29:50Z</time>
      </trkpt>
      <trkpt lat="42.84843" lon="0.04077">
        <ele>1661.32</ele>
        <time>2017-02-21T14:29:56Z</time>
      </trkpt>
      <trkpt lat="42.84847" lon="0.0406">
        <ele>1657.73</ele>
        <time>2017-02-21T14:30:01Z</time>
      </trkpt>
      <trkpt lat="42.84849" lon="0.04041">
        <ele>1654.61</ele>
        <time>2017-02-21T14:30:05Z</time>
      </trkpt>
      <trkpt lat="42.84853" lon="0.04025">
        <ele>1651.43</ele>
        <time>2017-02-21T14:30:09Z</time>
      </trkpt>
      <trkpt lat="42.84859" lon="0.03997">
        <ele>1648.34</ele>
        <time>2017-02-21T14:30:13Z</time>
      </trkpt>
      <trkpt lat="42.84866" lon="0.03976">
        <ele>1643.62</ele>
        <time>2017-02-21T14:30:17Z</time>
      </trkpt>
      <trkpt lat="42.84867" lon="0.03976">
        <ele>1639.22</ele>
        <time>2017-02-21T14:30:20Z</time>
      </trkpt>
      <trkpt lat="42.84866" lon="0.03975">
        <ele>1636.54</ele>
        <time>2017-02-21T14:30:25Z</time>
      </trkpt>
      <trkpt lat="42.84868" lon="0.03966">
        <ele>1635.42</ele>
        <time>2017-02-21T14:30:29Z</time>
      </trkpt>
      <trkpt lat="42.84871" lon="0.0394">
        <ele>1633.22</ele>
        <time>2017-02-21T14:30:34Z</time>
      </trkpt>
      <trkpt lat="42.84872" lon="0.03915">
        <ele>1629.06</ele>
        <time>2017-02-21T14:30:39Z</time>
      </trkpt>
      <trkpt lat="42.84873" lon="0.03884">
        <ele>1625.64</ele>
        <time>2017-02-21T14:30:45Z</time>
      </trkpt>
      <trkpt lat="42.84872" lon="0.0386">
        <ele>1622.59</ele>
        <time>2017-02-21T14:30:50Z</time>
      </trkpt>
      <trkpt lat="42.84871" lon="0.03844">
        <ele>1619.22</ele>
        <time>2017-02-21T14:30:54Z</time>
      </trkpt>
      <trkpt lat="42.8487" lon="0.03838">
        <ele>1618.47</ele>
        <time>2017-02-21T14:30:56Z</time>
      </trkpt>
      <trkpt lat="42.84869" lon="0.03824">
        <ele>1615.2</ele>
        <time>2017-02-21T14:31:00Z</time>
      </trkpt>
      <trkpt lat="42.84869" lon="0.0381">
        <ele>1611.8</ele>
        <time>2017-02-21T14:31:05Z</time>
      </trkpt>
      <trkpt lat="42.84869" lon="0.03799">
        <ele>1609.34</ele>
        <time>2017-02-21T14:31:08Z</time>
      </trkpt>
      <trkpt lat="42.84872" lon="0.03779">
        <ele>1606.86</ele>
        <time>2017-02-21T14:31:11Z</time>
      </trkpt>
      <trkpt lat="42.84874" lon="0.03743">
        <ele>1602.13</ele>
        <time>2017-02-21T14:31:15Z</time>
      </trkpt>
      <trkpt lat="42.84872" lon="0.03735">
        <ele>1598.44</ele>
        <time>2017-02-21T14:31:18Z</time>
      </trkpt>
      <trkpt lat="42.84872" lon="0.03735">
        <ele>1595.53</ele>
        <time>2017-02-21T14:31:23Z</time>
      </trkpt>
      <trkpt lat="42.84872" lon="0.03699">
        <ele>1593.58</ele>
        <time>2017-02-21T14:31:30Z</time>
      </trkpt>
      <trkpt lat="42.84874" lon="0.03683">
        <ele>1590.52</ele>
        <time>2017-02-21T14:31:32Z</time>
      </trkpt>
      <trkpt lat="42.8488" lon="0.03641">
        <ele>1585.86</ele>
        <time>2017-02-21T14:31:36Z</time>
      </trkpt>
      <trkpt lat="42.84886" lon="0.03615">
        <ele>1581.99</ele>
        <time>2017-02-21T14:31:39Z</time>
      </trkpt>
      <trkpt lat="42.84891" lon="0.03597">
        <ele>1577.96</ele>
        <time>2017-02-21T14:31:43Z</time>
      </trkpt>
      <trkpt lat="42.84889" lon="0.03575">
        <ele>1574.1</ele>
        <time>2017-02-21T14:31:52Z</time>
      </trkpt>
      <trkpt lat="42.84888" lon="0.03567">
        <ele>1573.83</ele>
        <time>2017-02-21T14:31:54Z</time>
      </trkpt>
      <trkpt lat="42.84889" lon="0.035">
        <ele>1571.4</ele>
        <time>2017-02-21T14:32:02Z</time>
      </trkpt>
      <trkpt lat="42.8489" lon="0.03496">
        <ele>1568.4</ele>
        <time>2017-02-21T14:32:13Z</time>
      </trkpt>
      <trkpt lat="42.8489" lon="0.03495">
        <ele>1568.34</ele>
        <time>2017-02-21T14:32:31Z</time>
      </trkpt>
      <trkpt lat="42.8489" lon="0.03495">
        <ele>1568.59</ele>
        <time>2017-02-21T14:32:59Z</time>
      </trkpt>
      <trkpt lat="42.8489" lon="0.03495">
        <ele>1568.55</ele>
        <time>2017-02-21T14:33:25Z</time>
      </trkpt>
      <trkpt lat="42.8489" lon="0.03496">
        <ele>1568.78</ele>
        <time>2017-02-21T14:33:38Z</time>
      </trkpt>
      <trkpt lat="42.84891" lon="0.03493">
        <ele>1568.56</ele>
        <time>2017-02-21T14:33:59Z</time>
      </trkpt>
      <trkpt lat="42.8489" lon="0.03487">
        <ele>1568.56</ele>
        <time>2017-02-21T14:34:02Z</time>
      </trkpt>
      <trkpt lat="42.84885" lon="0.03475">
        <ele>1568.14</ele>
        <time>2017-02-21T14:34:14Z</time>
      </trkpt>
      <trkpt lat="42.84883" lon="0.03474">
        <ele>1568.06</ele>
        <time>2017-02-21T14:34:36Z</time>
      </trkpt>
      <trkpt lat="42.84883" lon="0.03473">
        <ele>1568.1</ele>
        <time>2017-02-21T14:34:38Z</time>
      </trkpt>
      <trkpt lat="42.84871" lon="0.0344">
        <ele>1567.26</ele>
        <time>2017-02-21T14:34:44Z</time>
      </trkpt>
      <trkpt lat="42.84871" lon="0.03405">
        <ele>1563.06</ele>
        <time>2017-02-21T14:34:49Z</time>
      </trkpt>
      <trkpt lat="42.8489" lon="0.0338">
        <ele>1557.96</ele>
        <time>2017-02-21T14:34:53Z</time>
      </trkpt>
      <trkpt lat="42.84897" lon="0.03366">
        <ele>1554.15</ele>
        <time>2017-02-21T14:34:55Z</time>
      </trkpt>
      <trkpt lat="42.849" lon="0.03347">
        <ele>1550.6</ele>
        <time>2017-02-21T14:34:57Z</time>
      </trkpt>
      <trkpt lat="42.84907" lon="0.03301">
        <ele>1542.76</ele>
        <time>2017-02-21T14:35:01Z</time>
      </trkpt>
      <trkpt lat="42.84909" lon="0.03289">
        <ele>1540.62</ele>
        <time>2017-02-21T14:35:02Z</time>
      </trkpt>
      <trkpt lat="42.84916" lon="0.03254">
        <ele>1534.04</ele>
        <time>2017-02-21T14:35:05Z</time>
      </trkpt>
      <trkpt lat="42.84919" lon="0.03244">
        <ele>1531.96</ele>
        <time>2017-02-21T14:35:06Z</time>
      </trkpt>
      <trkpt lat="42.84914" lon="0.03206">
        <ele>1524.73</ele>
        <time>2017-02-21T14:35:10Z</time>
      </trkpt>
      <trkpt lat="42.84907" lon="0.03189">
        <ele>1521.29</ele>
        <time>2017-02-21T14:35:12Z</time>
      </trkpt>
      <trkpt lat="42.84905" lon="0.03166">
        <ele>1518.21</ele>
        <time>2017-02-21T14:35:14Z</time>
      </trkpt>
      <trkpt lat="42.84904" lon="0.03154">
        <ele>1516.73</ele>
        <time>2017-02-21T14:35:15Z</time>
      </trkpt>
      <trkpt lat="42.84903" lon="0.03116">
        <ele>1512.33</ele>
        <time>2017-02-21T14:35:19Z</time>
      </trkpt>
      <trkpt lat="42.84902" lon="0.03102">
        <ele>1511.03</ele>
        <time>2017-02-21T14:35:21Z</time>
      </trkpt>
      <trkpt lat="42.84898" lon="0.03073">
        <ele>1508.96</ele>
        <time>2017-02-21T14:35:29Z</time>
      </trkpt>
      <trkpt lat="42.84895" lon="0.03066">
        <ele>1508.74</ele>
        <time>2017-02-21T14:35:32Z</time>
      </trkpt>
      <trkpt lat="42.84885" lon="0.03049">
        <ele>1509.21</ele>
        <time>2017-02-21T14:35:45Z</time>
      </trkpt>
      <trkpt lat="42.84885" lon="0.03048">
        <ele>1509.18</ele>
        <time>2017-02-21T14:35:47Z</time>
      </trkpt>
      <trkpt lat="42.84883" lon="0.03045">
        <ele>1509.22</ele>
        <time>2017-02-21T14:35:49Z</time>
      </trkpt>
      <trkpt lat="42.84879" lon="0.03026">
        <ele>1509.37</ele>
        <time>2017-02-21T14:35:56Z</time>
      </trkpt>
      <trkpt lat="42.84878" lon="0.02999">
        <ele>1509.88</ele>
        <time>2017-02-21T14:36:07Z</time>
      </trkpt>
      <trkpt lat="42.8488" lon="0.02961">
        <ele>1509.97</ele>
        <time>2017-02-21T14:36:19Z</time>
      </trkpt>
      <trkpt lat="42.84888" lon="0.0293">
        <ele>1509.76</ele>
        <time>2017-02-21T14:36:30Z</time>
      </trkpt>
      <trkpt lat="42.84895" lon="0.02905">
        <ele>1509.88</ele>
        <time>2017-02-21T14:36:38Z</time>
      </trkpt>
      <trkpt lat="42.84902" lon="0.02899">
        <ele>1509.78</ele>
        <time>2017-02-21T14:36:47Z</time>
      </trkpt>
      <trkpt lat="42.8492" lon="0.02878">
        <ele>1509.7</ele>
        <time>2017-02-21T14:36:58Z</time>
      </trkpt>
      <trkpt lat="42.8493" lon="0.02863">
        <ele>1510.14</ele>
        <time>2017-02-21T14:37:09Z</time>
      </trkpt>
      <trkpt lat="42.8493" lon="0.02862">
        <ele>1510.34</ele>
        <time>2017-02-21T14:37:32Z</time>
      </trkpt>
      <trkpt lat="42.8493" lon="0.02859">
        <ele>1510.08</ele>
        <time>2017-02-21T14:37:50Z</time>
      </trkpt>
      <trkpt lat="42.84932" lon="0.02855">
        <ele>1510.5</ele>
        <time>2017-02-21T14:37:54Z</time>
      </trkpt>
      <trkpt lat="42.8494" lon="0.02829">
        <ele>1511.52</ele>
        <time>2017-02-21T14:38:13Z</time>
      </trkpt>
      <trkpt lat="42.84943" lon="0.02803">
        <ele>1512.87</ele>
        <time>2017-02-21T14:38:34Z</time>
      </trkpt>
      <trkpt lat="42.84949" lon="0.0278">
        <ele>1514.34</ele>
        <time>2017-02-21T14:38:54Z</time>
      </trkpt>
      <trkpt lat="42.8495" lon="0.02778">
        <ele>1514.65</ele>
        <time>2017-02-21T14:38:56Z</time>
      </trkpt>
      <trkpt lat="42.84959" lon="0.02757">
        <ele>1516.43</ele>
        <time>2017-02-21T14:39:15Z</time>
      </trkpt>
      <trkpt lat="42.84967" lon="0.02728">
        <ele>1519.12</ele>
        <time>2017-02-21T14:39:39Z</time>
      </trkpt>
      <trkpt lat="42.84971" lon="0.02712">
        <ele>1520.62</ele>
        <time>2017-02-21T14:39:55Z</time>
      </trkpt>
      <trkpt lat="42.84975" lon="0.02694">
        <ele>1521.74</ele>
        <time>2017-02-21T14:40:13Z</time>
      </trkpt>
      <trkpt lat="42.84977" lon="0.02678">
        <ele>1522.99</ele>
        <time>2017-02-21T14:40:28Z</time>
      </trkpt>
      <trkpt lat="42.84978" lon="0.02671">
        <ele>1523.5</ele>
        <time>2017-02-21T14:40:34Z</time>
      </trkpt>
      <trkpt lat="42.8498" lon="0.02647">
        <ele>1524.85</ele>
        <time>2017-02-21T14:40:53Z</time>
      </trkpt>
      <trkpt lat="42.84981" lon="0.02641">
        <ele>1525.13</ele>
        <time>2017-02-21T14:40:58Z</time>
      </trkpt>
      <trkpt lat="42.84986" lon="0.02634">
        <ele>1525.73</ele>
        <time>2017-02-21T14:41:06Z</time>
      </trkpt>
      <trkpt lat="42.84993" lon="0.02616">
        <ele>1525.9</ele>
        <time>2017-02-21T14:41:26Z</time>
      </trkpt>
      <trkpt lat="42.84992" lon="0.02615">
        <ele>1525.54</ele>
        <time>2017-02-21T14:41:38Z</time>
      </trkpt>
      <trkpt lat="42.84991" lon="0.02615">
        <ele>1525.91</ele>
        <time>2017-02-21T14:42:08Z</time>
      </trkpt>
      <trkpt lat="42.84991" lon="0.02618">
        <ele>1525.58</ele>
        <time>2017-02-21T14:42:43Z</time>
      </trkpt>
      <trkpt lat="42.8499" lon="0.02618">
        <ele>1525.17</ele>
        <time>2017-02-21T14:43:20Z</time>
      </trkpt>
      <trkpt lat="42.84991" lon="0.02619">
        <ele>1525.09</ele>
        <time>2017-02-21T14:44:00Z</time>
      </trkpt>
      <trkpt lat="42.84991" lon="0.02619">
        <ele>1525.17</ele>
        <time>2017-02-21T14:44:32Z</time>
      </trkpt>
      <trkpt lat="42.84991" lon="0.0262">
        <ele>1525.38</ele>
        <time>2017-02-21T14:45:12Z</time>
      </trkpt>
      <trkpt lat="42.84991" lon="0.0262">
        <ele>1525.44</ele>
        <time>2017-02-21T14:45:54Z</time>
      </trkpt>
      <trkpt lat="42.84991" lon="0.0262">
        <ele>1525.54</ele>
        <time>2017-02-21T14:46:29Z</time>
      </trkpt>
      <trkpt lat="42.84991" lon="0.02616">
        <ele>1525.43</ele>
        <time>2017-02-21T14:47:03Z</time>
      </trkpt>
      <trkpt lat="42.84992" lon="0.02612">
        <ele>1525.39</ele>
        <time>2017-02-21T14:47:06Z</time>
      </trkpt>
      <trkpt lat="42.84997" lon="0.02577">
        <ele>1524.76</ele>
        <time>2017-02-21T14:47:23Z</time>
      </trkpt>
      <trkpt lat="42.85011" lon="0.02529">
        <ele>1524.04</ele>
        <time>2017-02-21T14:47:33Z</time>
      </trkpt>
      <trkpt lat="42.85026" lon="0.02489">
        <ele>1522.73</ele>
        <time>2017-02-21T14:47:45Z</time>
      </trkpt>
      <trkpt lat="42.85041" lon="0.02457">
        <ele>1521.95</ele>
        <time>2017-02-21T14:47:57Z</time>
      </trkpt>
      <trkpt lat="42.85046" lon="0.02432">
        <ele>1518.45</ele>
        <time>2017-02-21T14:48:03Z</time>
      </trkpt>
      <trkpt lat="42.8505" lon="0.02422">
        <ele>1515.78</ele>
        <time>2017-02-21T14:48:07Z</time>
      </trkpt>
      <trkpt lat="42.85059" lon="0.02403">
        <ele>1512.75</ele>
        <time>2017-02-21T14:48:11Z</time>
      </trkpt>
      <trkpt lat="42.85077" lon="0.02381">
        <ele>1510.2</ele>
        <time>2017-02-21T14:48:15Z</time>
      </trkpt>
      <trkpt lat="42.85095" lon="0.02346">
        <ele>1505.71</ele>
        <time>2017-02-21T14:48:19Z</time>
      </trkpt>
      <trkpt lat="42.851" lon="0.02333">
        <ele>1502.54</ele>
        <time>2017-02-21T14:48:22Z</time>
      </trkpt>
      <trkpt lat="42.85103" lon="0.0233">
        <ele>1500.74</ele>
        <time>2017-02-21T14:48:25Z</time>
      </trkpt>
      <trkpt lat="42.85107" lon="0.02324">
        <ele>1499.65</ele>
        <time>2017-02-21T14:48:28Z</time>
      </trkpt>
      <trkpt lat="42.85117" lon="0.02302">
        <ele>1495.77</ele>
        <time>2017-02-21T14:48:35Z</time>
      </trkpt>
      <trkpt lat="42.85118" lon="0.02299">
        <ele>1495.07</ele>
        <time>2017-02-21T14:48:36Z</time>
      </trkpt>
      <trkpt lat="42.85129" lon="0.02268">
        <ele>1491.35</ele>
        <time>2017-02-21T14:48:41Z</time>
      </trkpt>
      <trkpt lat="42.85132" lon="0.02238">
        <ele>1487.12</ele>
        <time>2017-02-21T14:48:45Z</time>
      </trkpt>
      <trkpt lat="42.85134" lon="0.02228">
        <ele>1485.53</ele>
        <time>2017-02-21T14:48:47Z</time>
      </trkpt>
      <trkpt lat="42.85152" lon="0.02247">
        <ele>1481.37</ele>
        <time>2017-02-21T14:48:52Z</time>
      </trkpt>
      <trkpt lat="42.8516" lon="0.02259">
        <ele>1478.29</ele>
        <time>2017-02-21T14:48:54Z</time>
      </trkpt>
      <trkpt lat="42.85164" lon="0.02256">
        <ele>1474.32</ele>
        <time>2017-02-21T14:48:55Z</time>
      </trkpt>
      <trkpt lat="42.85164" lon="0.02248">
        <ele>1472.42</ele>
        <time>2017-02-21T14:48:56Z</time>
      </trkpt>
      <trkpt lat="42.85177" lon="0.02212">
        <ele>1464.63</ele>
        <time>2017-02-21T14:49:01Z</time>
      </trkpt>
      <trkpt lat="42.85185" lon="0.022">
        <ele>1461.84</ele>
        <time>2017-02-21T14:49:04Z</time>
      </trkpt>
      <trkpt lat="42.85206" lon="0.02156">
        <ele>1457.79</ele>
        <time>2017-02-21T14:49:12Z</time>
      </trkpt>
      <trkpt lat="42.85232" lon="0.02106">
        <ele>1454.41</ele>
        <time>2017-02-21T14:49:18Z</time>
      </trkpt>
      <trkpt lat="42.8525" lon="0.0208">
        <ele>1451.79</ele>
        <time>2017-02-21T14:49:21Z</time>
      </trkpt>
      <trkpt lat="42.85267" lon="0.02043">
        <ele>1447.05</ele>
        <time>2017-02-21T14:49:25Z</time>
      </trkpt>
      <trkpt lat="42.8527" lon="0.02033">
        <ele>1445.63</ele>
        <time>2017-02-21T14:49:26Z</time>
      </trkpt>
      <trkpt lat="42.8528" lon="0.02003">
        <ele>1441.87</ele>
        <time>2017-02-21T14:49:29Z</time>
      </trkpt>
      <trkpt lat="42.85298" lon="0.01969">
        <ele>1437.18</ele>
        <time>2017-02-21T14:49:33Z</time>
      </trkpt>
      <trkpt lat="42.8531" lon="0.0195">
        <ele>1432.16</ele>
        <time>2017-02-21T14:49:37Z</time>
      </trkpt>
      <trkpt lat="42.8531" lon="0.01946">
        <ele>1428.44</ele>
        <time>2017-02-21T14:49:39Z</time>
      </trkpt>
      <trkpt lat="42.85321" lon="0.01939">
        <ele>1425.26</ele>
        <time>2017-02-21T14:49:44Z</time>
      </trkpt>
      <trkpt lat="42.85324" lon="0.01936">
        <ele>1424.85</ele>
        <time>2017-02-21T14:49:45Z</time>
      </trkpt>
      <trkpt lat="42.85357" lon="0.01914">
        <ele>1421.18</ele>
        <time>2017-02-21T14:49:55Z</time>
      </trkpt>
      <trkpt lat="42.85358" lon="0.01915">
        <ele>1420.38</ele>
        <time>2017-02-21T14:49:57Z</time>
      </trkpt>
      <trkpt lat="42.85388" lon="0.01875">
        <ele>1417.92</ele>
        <time>2017-02-21T14:50:06Z</time>
      </trkpt>
      <trkpt lat="42.85416" lon="0.0183">
        <ele>1414.9</ele>
        <time>2017-02-21T14:50:12Z</time>
      </trkpt>
      <trkpt lat="42.85425" lon="0.01809">
        <ele>1412.67</ele>
        <time>2017-02-21T14:50:19Z</time>
      </trkpt>
      <trkpt lat="42.8543" lon="0.01801">
        <ele>1412.91</ele>
        <time>2017-02-21T14:50:27Z</time>
      </trkpt>
      <trkpt lat="42.85436" lon="0.01793">
        <ele>1413.59</ele>
        <time>2017-02-21T14:50:37Z</time>
      </trkpt>
      <trkpt lat="42.85441" lon="0.01788">
        <ele>1413.92</ele>
        <time>2017-02-21T14:50:55Z</time>
      </trkpt>
      <trkpt lat="42.8544" lon="0.01789">
        <ele>1413.12</ele>
        <time>2017-02-21T14:51:16Z</time>
      </trkpt>
      <trkpt lat="42.85441" lon="0.01788">
        <ele>1413.13</ele>
        <time>2017-02-21T14:51:18Z</time>
      </trkpt>
      <trkpt lat="42.85443" lon="0.01786">
        <ele>1413.28</ele>
        <time>2017-02-21T14:51:20Z</time>
      </trkpt>
      <trkpt lat="42.85463" lon="0.0177">
        <ele>1412.13</ele>
        <time>2017-02-21T14:51:39Z</time>
      </trkpt>
      <trkpt lat="42.85468" lon="0.0175">
        <ele>1410.28</ele>
        <time>2017-02-21T14:51:55Z</time>
      </trkpt>
      <trkpt lat="42.85468" lon="0.0175">
        <ele>1409.39</ele>
        <time>2017-02-21T14:52:11Z</time>
      </trkpt>
      <trkpt lat="42.85468" lon="0.01749">
        <ele>1409.27</ele>
        <time>2017-02-21T14:52:20Z</time>
      </trkpt>
      <trkpt lat="42.85466" lon="0.01742">
        <ele>1409.68</ele>
        <time>2017-02-21T14:52:25Z</time>
      </trkpt>
      <trkpt lat="42.85466" lon="0.01729">
        <ele>1409.83</ele>
        <time>2017-02-21T14:52:30Z</time>
      </trkpt>
      <trkpt lat="42.85461" lon="0.01671">
        <ele>1407.96</ele>
        <time>2017-02-21T14:52:44Z</time>
      </trkpt>
      <trkpt lat="42.85457" lon="0.01635">
        <ele>1406.32</ele>
        <time>2017-02-21T14:52:49Z</time>
      </trkpt>
      <trkpt lat="42.85458" lon="0.01571">
        <ele>1402.28</ele>
        <time>2017-02-21T14:52:56Z</time>
      </trkpt>
      <trkpt lat="42.85458" lon="0.01552">
        <ele>1401.22</ele>
        <time>2017-02-21T14:52:58Z</time>
      </trkpt>
      <trkpt lat="42.85472" lon="0.01497">
        <ele>1397.31</ele>
        <time>2017-02-21T14:53:04Z</time>
      </trkpt>
      <trkpt lat="42.85483" lon="0.01475">
        <ele>1394.6</ele>
        <time>2017-02-21T14:53:07Z</time>
      </trkpt>
      <trkpt lat="42.85499" lon="0.01445">
        <ele>1390.73</ele>
        <time>2017-02-21T14:53:12Z</time>
      </trkpt>
      <trkpt lat="42.85515" lon="0.01437">
        <ele>1387.53</ele>
        <time>2017-02-21T14:53:16Z</time>
      </trkpt>
      <trkpt lat="42.85527" lon="0.01434">
        <ele>1383.31</ele>
        <time>2017-02-21T14:53:22Z</time>
      </trkpt>
      <trkpt lat="42.85526" lon="0.01435">
        <ele>1380.96</ele>
        <time>2017-02-21T14:53:44Z</time>
      </trkpt>
      <trkpt lat="42.85528" lon="0.01434">
        <ele>1380.92</ele>
        <time>2017-02-21T14:53:46Z</time>
      </trkpt>
      <trkpt lat="42.85534" lon="0.01432">
        <ele>1380.71</ele>
        <time>2017-02-21T14:53:50Z</time>
      </trkpt>
      <trkpt lat="42.8555" lon="0.01428">
        <ele>1378.29</ele>
        <time>2017-02-21T14:54:08Z</time>
      </trkpt>
      <trkpt lat="42.8555" lon="0.01428">
        <ele>1377.78</ele>
        <time>2017-02-21T14:54:29Z</time>
      </trkpt>
      <trkpt lat="42.8555" lon="0.01429">
        <ele>1377.57</ele>
        <time>2017-02-21T14:54:33Z</time>
      </trkpt>
      <trkpt lat="42.85561" lon="0.01426">
        <ele>1377.52</ele>
        <time>2017-02-21T14:54:39Z</time>
      </trkpt>
      <trkpt lat="42.85584" lon="0.01392">
        <ele>1374.64</ele>
        <time>2017-02-21T14:54:53Z</time>
      </trkpt>
      <trkpt lat="42.85593" lon="0.01357">
        <ele>1371.63</ele>
        <time>2017-02-21T14:55:03Z</time>
      </trkpt>
      <trkpt lat="42.85594" lon="0.01347">
        <ele>1369.25</ele>
        <time>2017-02-21T14:55:14Z</time>
      </trkpt>
      <trkpt lat="42.85593" lon="0.01347">
        <ele>1368.94</ele>
        <time>2017-02-21T14:55:29Z</time>
      </trkpt>
      <trkpt lat="42.85593" lon="0.01346">
        <ele>1368.84</ele>
        <time>2017-02-21T14:55:31Z</time>
      </trkpt>
      <trkpt lat="42.85592" lon="0.01333">
        <ele>1367.71</ele>
        <time>2017-02-21T14:55:46Z</time>
      </trkpt>
      <trkpt lat="42.85592" lon="0.01331">
        <ele>1367.74</ele>
        <time>2017-02-21T14:56:01Z</time>
      </trkpt>
      <trkpt lat="42.85596" lon="0.01318">
        <ele>1367.91</ele>
        <time>2017-02-21T14:56:06Z</time>
      </trkpt>
      <trkpt lat="42.85613" lon="0.01256">
        <ele>1364.77</ele>
        <time>2017-02-21T14:56:21Z</time>
      </trkpt>
      <trkpt lat="42.85629" lon="0.01198">
        <ele>1361.11</ele>
        <time>2017-02-21T14:56:32Z</time>
      </trkpt>
      <trkpt lat="42.85637" lon="0.01178">
        <ele>1360.38</ele>
        <time>2017-02-21T14:56:35Z</time>
      </trkpt>
      <trkpt lat="42.85655" lon="0.01136">
        <ele>1356.3</ele>
        <time>2017-02-21T14:56:44Z</time>
      </trkpt>
      <trkpt lat="42.85663" lon="0.01121">
        <ele>1355.39</ele>
        <time>2017-02-21T14:56:47Z</time>
      </trkpt>
      <trkpt lat="42.85682" lon="0.01104">
        <ele>1353.29</ele>
        <time>2017-02-21T14:56:52Z</time>
      </trkpt>
      <trkpt lat="42.85696" lon="0.01093">
        <ele>1351.6</ele>
        <time>2017-02-21T14:56:56Z</time>
      </trkpt>
      <trkpt lat="42.8572" lon="0.01077">
        <ele>1348.13</ele>
        <time>2017-02-21T14:57:05Z</time>
      </trkpt>
      <trkpt lat="42.85727" lon="0.01074">
        <ele>1345.57</ele>
        <time>2017-02-21T14:57:17Z</time>
      </trkpt>
      <trkpt lat="42.85728" lon="0.01074">
        <ele>1345.48</ele>
        <time>2017-02-21T14:57:18Z</time>
      </trkpt>
      <trkpt lat="42.85736" lon="0.01074">
        <ele>1345.11</ele>
        <time>2017-02-21T14:57:24Z</time>
      </trkpt>
      <trkpt lat="42.85762" lon="0.01056">
        <ele>1342.52</ele>
        <time>2017-02-21T14:57:38Z</time>
      </trkpt>
      <trkpt lat="42.85787" lon="0.01017">
        <ele>1339.91</ele>
        <time>2017-02-21T14:57:51Z</time>
      </trkpt>
      <trkpt lat="42.8581" lon="0.00971">
        <ele>1336.91</ele>
        <time>2017-02-21T14:58:05Z</time>
      </trkpt>
      <trkpt lat="42.85817" lon="0.00964">
        <ele>1334.82</ele>
        <time>2017-02-21T14:58:14Z</time>
      </trkpt>
      <trkpt lat="42.85818" lon="0.00962">
        <ele>1333.69</ele>
        <time>2017-02-21T14:58:27Z</time>
      </trkpt>
      <trkpt lat="42.85818" lon="0.00961">
        <ele>1333.33</ele>
        <time>2017-02-21T14:58:35Z</time>
      </trkpt>
      <trkpt lat="42.85823" lon="0.00957">
        <ele>1333.02</ele>
        <time>2017-02-21T14:58:40Z</time>
      </trkpt>
      <trkpt lat="42.85838" lon="0.0094">
        <ele>1332.18</ele>
        <time>2017-02-21T14:58:57Z</time>
      </trkpt>
      <trkpt lat="42.85856" lon="0.00921">
        <ele>1331.65</ele>
        <time>2017-02-21T14:59:14Z</time>
      </trkpt>
      <trkpt lat="42.85876" lon="0.00903">
        <ele>1331.4</ele>
        <time>2017-02-21T14:59:30Z</time>
      </trkpt>
      <trkpt lat="42.85884" lon="0.00895">
        <ele>1331.22</ele>
        <time>2017-02-21T14:59:37Z</time>
      </trkpt>
      <trkpt lat="42.85888" lon="0.00888">
        <ele>1331.18</ele>
        <time>2017-02-21T14:59:42Z</time>
      </trkpt>
      <trkpt lat="42.85906" lon="0.00864">
        <ele>1330.99</ele>
        <time>2017-02-21T15:00:00Z</time>
      </trkpt>
      <trkpt lat="42.85919" lon="0.00842">
        <ele>1331.06</ele>
        <time>2017-02-21T15:00:17Z</time>
      </trkpt>
      <trkpt lat="42.85931" lon="0.00816">
        <ele>1331.42</ele>
        <time>2017-02-21T15:00:34Z</time>
      </trkpt>
      <trkpt lat="42.85936" lon="0.00808">
        <ele>1331.2</ele>
        <time>2017-02-21T15:00:49Z</time>
      </trkpt>
      <trkpt lat="42.85936" lon="0.00806">
        <ele>1331.5</ele>
        <time>2017-02-21T15:00:58Z</time>
      </trkpt>
      <trkpt lat="42.85946" lon="0.00781">
        <ele>1331.54</ele>
        <time>2017-02-21T15:01:08Z</time>
      </trkpt>
      <trkpt lat="42.85947" lon="0.00778">
        <ele>1331.54</ele>
        <time>2017-02-21T15:01:09Z</time>
      </trkpt>
      <trkpt lat="42.85966" lon="0.00744">
        <ele>1330.96</ele>
        <time>2017-02-21T15:01:25Z</time>
      </trkpt>
      <trkpt lat="42.85992" lon="0.00688">
        <ele>1328.87</ele>
        <time>2017-02-21T15:01:40Z</time>
      </trkpt>
      <trkpt lat="42.85993" lon="0.00657">
        <ele>1325.72</ele>
        <time>2017-02-21T15:01:46Z</time>
      </trkpt>
      <trkpt lat="42.85987" lon="0.00627">
        <ele>1322.7</ele>
        <time>2017-02-21T15:01:54Z</time>
      </trkpt>
      <trkpt lat="42.85977" lon="0.00586">
        <ele>1319.67</ele>
        <time>2017-02-21T15:02:04Z</time>
      </trkpt>
      <trkpt lat="42.85981" lon="0.00543">
        <ele>1316.61</ele>
        <time>2017-02-21T15:02:14Z</time>
      </trkpt>
      <trkpt lat="42.8598" lon="0.00505">
        <ele>1313.61</ele>
        <time>2017-02-21T15:02:23Z</time>
      </trkpt>
      <trkpt lat="42.85976" lon="0.0047">
        <ele>1310.36</ele>
        <time>2017-02-21T15:02:31Z</time>
      </trkpt>
      <trkpt lat="42.85973" lon="0.00438">
        <ele>1307.25</ele>
        <time>2017-02-21T15:02:40Z</time>
      </trkpt>
      <trkpt lat="42.85969" lon="0.00432">
        <ele>1306.05</ele>
        <time>2017-02-21T15:02:51Z</time>
      </trkpt>
      <trkpt lat="42.85967" lon="0.00429">
        <ele>1306.12</ele>
        <time>2017-02-21T15:02:56Z</time>
      </trkpt>
      <trkpt lat="42.85961" lon="0.00422">
        <ele>1305.84</ele>
        <time>2017-02-21T15:03:02Z</time>
      </trkpt>
      <trkpt lat="42.85953" lon="0.00407">
        <ele>1304.2</ele>
        <time>2017-02-21T15:03:17Z</time>
      </trkpt>
      <trkpt lat="42.8596" lon="0.00397">
        <ele>1302.88</ele>
        <time>2017-02-21T15:03:33Z</time>
      </trkpt>
      <trkpt lat="42.85959" lon="0.00398">
        <ele>1302.73</ele>
        <time>2017-02-21T15:03:46Z</time>
      </trkpt>
      <trkpt lat="42.85959" lon="0.00394">
        <ele>1302.83</ele>
        <time>2017-02-21T15:04:00Z</time>
      </trkpt>
      <trkpt lat="42.8596" lon="0.00394">
        <ele>1302.81</ele>
        <time>2017-02-21T15:04:14Z</time>
      </trkpt>
      <trkpt lat="42.85958" lon="0.00394">
        <ele>1301.61</ele>
        <time>2017-02-21T15:04:38Z</time>
      </trkpt>
      <trkpt lat="42.85959" lon="0.00394">
        <ele>1301.96</ele>
        <time>2017-02-21T15:04:39Z</time>
      </trkpt>
    </trkseg>
  </trk>
</gpx>